Darstellungsparameter: Aktuell verwendete Einstellungen:
Skalierung der Graphiken ... ?
xyx+y,   Skalierungsfaktor:      Skalierung: Modus: x, Faktor: 1
Darstellungszeitraum ... ?
Vom - - bis: - -   Zeitraum: 24.02.2003 - 15.08.2003
Min/Max/Avg-Anzeige ... ?
Zeige MMA aktuell
Zeige MMA Monat
Zeige MMA alles
Zeige --A aktuell
Zeige --A Monat
Zeige --A alles
Keine MMA-Anzeige
MMA:
Minimum Maximum Average (ber die Originaldaten)
MMA-Basis: 24.02.2003 - 15.08.2003
Quicknavigation für Darstellung... ?
Tage:      1T, 2T, 3T, 5T -1T -2T -3T -5T +1T +2T +3T +5T
Wochen: 1W, 2W, 3W -1W -2W -3W +1W +2W +3W
Monate: 1M, 3M, 6M -1M -3M -6M +1M +3M +6M
Jahre:    1J, 3J, 5J, 10J -1J -3J -5J -10J +1J +3J +5J +10J
Nutze für die Darstellung ... ?
Originaldaten oder Mittelwerte auf ...
Stundenbasis Tagesbasis Wochenbasis
Monatsbasis Jahresbasis      Datenbasis: Original-Daten
Darstellen als:
Statistik (Auto) Statistik J:M      Darstellung:

Der gewünschte Datumsbereich war nicht gültig/verfügbar und wurde korrigiert....
Das angegebene Startdatum (16.02.2003 00:00:00) liegt vor dem ersten Datenbankeintrag.


Zur Graphik,    zurück zur Übersicht aller Sensoren.
 
Tabellarische Datenbersicht: ?
 
Sensor: Nr:Datum:Temp:Feuchte:Taupunkt:
Aussen-T/F 1 24-02-2003 00:00:04 -0.8 C 75 % -4.67 C
2 24-02-2003 00:10:04 -0.9 C 75 % -4.76 C
3 24-02-2003 00:20:04 -0.9 C 76 % -4.59 C
4 24-02-2003 00:30:04 -0.9 C 76 % -4.59 C
5 24-02-2003 00:40:04 -1.1 C 76 % -4.78 C
6 24-02-2003 00:50:04 -1.1 C 77 % -4.61 C
7 24-02-2003 01:00:04 -1.2 C 77 % -4.71 C
8 24-02-2003 01:10:04 -1.4 C 77 % -4.9 C
9 24-02-2003 01:20:04 -1.7 C 77 % -5.19 C
10 24-02-2003 01:30:04 -2 C 76 % -5.66 C
11 24-02-2003 01:40:04 -2.1 C 77 % -5.58 C
12 24-02-2003 01:50:04 -1.9 C 78 % -5.22 C
13 24-02-2003 02:00:04 -1.9 C 79 % -5.05 C
14 24-02-2003 02:10:04 -1.9 C 79 % -5.05 C
15 24-02-2003 02:20:04 -1.9 C 78 % -5.22 C
16 24-02-2003 02:30:04 -2.1 C 78 % -5.41 C
17 24-02-2003 02:40:04 -2 C 79 % -5.15 C
18 24-02-2003 02:50:04 -2.1 C 79 % -5.24 C
19 24-02-2003 03:00:04 -2.3 C 78 % -5.61 C
20 24-02-2003 03:10:04 -2.7 C 78 % -5.99 C
21 24-02-2003 03:20:04 -2.8 C 78 % -6.09 C
22 24-02-2003 03:30:04 -2.7 C 79 % -5.83 C
23 24-02-2003 03:40:04 -2.8 C 79 % -5.93 C
24 24-02-2003 03:50:04 -3 C 78 % -6.29 C
25 24-02-2003 04:00:04 -3 C 79 % -6.12 C
Sensor: Nr:Datum:Temp:Feuchte:Taupunkt:
Aussen-T/F 26 24-02-2003 04:10:04 -2.8 C 79 % -5.93 C
27 24-02-2003 04:20:04 -2.7 C 80 % -5.66 C
28 24-02-2003 04:30:04 -3 C 80 % -5.96 C
29 24-02-2003 04:40:04 -3.1 C 79 % -6.22 C
30 24-02-2003 04:50:04 -3 C 79 % -6.12 C
31 24-02-2003 05:00:04 -3.2 C 79 % -6.32 C
32 24-02-2003 05:10:04 -3.3 C 79 % -6.41 C
33 24-02-2003 05:20:04 -3.3 C 80 % -6.25 C
34 24-02-2003 05:30:04 -3.3 C 80 % -6.25 C
35 24-02-2003 05:40:04 -3.4 C 79 % -6.51 C
36 24-02-2003 05:50:04 -3.5 C 80 % -6.44 C
37 24-02-2003 06:00:04 -3.7 C 79 % -6.8 C
38 24-02-2003 06:10:04 -3.5 C 80 % -6.44 C
39 24-02-2003 06:20:04 -3.5 C 80 % -6.44 C
40 24-02-2003 06:30:04 -3.7 C 80 % -6.64 C
41 24-02-2003 06:40:04 -3.9 C 80 % -6.83 C
42 24-02-2003 06:50:04 -3.6 C 80 % -6.54 C
43 24-02-2003 07:00:04 -3.6 C 81 % -6.38 C
44 24-02-2003 07:10:04 -3.9 C 80 % -6.83 C
45 24-02-2003 07:20:04 -3.8 C 80 % -6.74 C
46 24-02-2003 07:30:04 -3.9 C 80 % -6.83 C
47 24-02-2003 07:40:04 -4 C 80 % -6.93 C
48 24-02-2003 07:50:04 -3.9 C 80 % -6.83 C
49 24-02-2003 08:00:04 -3.8 C 80 % -6.74 C
50 24-02-2003 08:10:04 -3.8 C 80 % -6.74 C
Sensor: Nr:Datum:Temp:Feuchte:Taupunkt:
Aussen-T/F 51 24-02-2003 08:20:04 -3.9 C 80 % -6.83 C
52 24-02-2003 08:30:04 -3.7 C 80 % -6.64 C
53 24-02-2003 08:40:04 -3.5 C 80 % -6.44 C
54 24-02-2003 08:50:04 -3.5 C 80 % -6.44 C
55 24-02-2003 09:00:04 -3.3 C 80 % -6.25 C
56 24-02-2003 09:10:04 -3.2 C 80 % -6.15 C
57 24-02-2003 09:20:04 -2.8 C 80 % -5.76 C
58 24-02-2003 09:30:04 -2.8 C 80 % -5.76 C
59 24-02-2003 09:40:04 -2.7 C 80 % -5.66 C
60 24-02-2003 09:50:04 -2.4 C 80 % -5.37 C
61 24-02-2003 10:00:04 -2.3 C 80 % -5.27 C
62 24-02-2003 10:10:04 -1.6 C 82 % -4.26 C
63 24-02-2003 10:20:04 -1.2 C 82 % -3.87 C
64 24-02-2003 10:30:04 -0.6 C 82 % -3.29 C
65 24-02-2003 10:40:04 0 C 82 % -2.7 C
66 24-02-2003 10:50:04 0.2 C 82 % -2.5 C
67 24-02-2003 11:00:04 1.1 C 78 % -2.3 C
68 24-02-2003 11:10:04 1.6 C 77 % -1.99 C
69 24-02-2003 11:14:41 1.9 C 76 % -1.87 C
70 24-02-2003 11:20:41 2 C 75 % -1.95 C
71 24-02-2003 11:26:41 2.2 C 75 % -1.76 C
72 24-02-2003 11:32:41 2.6 C 74 % -1.56 C
73 24-02-2003 11:38:41 2.7 C 73 % -1.64 C
74 24-02-2003 11:44:41 3.3 C 72 % -1.25 C
75 24-02-2003 11:50:41 3.5 C 69 % -1.64 C
Sensor: Nr:Datum:Temp:Feuchte:Taupunkt:
Aussen-T/F 76 24-02-2003 11:56:41 3.7 C 66 % -2.05 C
77 24-02-2003 12:02:41 4.1 C 66 % -1.67 C
78 24-02-2003 12:44:51 6.2 C 55 % -2.15 C
79 24-02-2003 12:56:51 7 C 52 % -2.17 C
80 24-02-2003 13:02:51 7.2 C 51 % -2.24 C
81 24-02-2003 13:08:51 7.5 C 51 % -1.97 C
82 24-02-2003 13:14:51 7.8 C 50 % -1.96 C
83 24-02-2003 13:20:51 8.1 C 49 % -1.95 C
84 24-02-2003 13:26:51 8.4 C 47 % -2.24 C
85 24-02-2003 13:32:51 8.8 C 47 % -1.87 C
86 24-02-2003 13:38:51 9 C 46 % -1.98 C
87 24-02-2003 13:44:51 9.3 C 46 % -1.71 C
88 24-02-2003 13:50:51 9.6 C 44 % -2.04 C
89 24-02-2003 13:56:51 9.8 C 45 % -1.55 C
90 24-02-2003 14:02:51 10.3 C 43 % -1.71 C
91 24-02-2003 14:08:51 10.8 C 41 % -1.91 C
92 24-02-2003 14:14:51 11.5 C 38 % -2.3 C
93 24-02-2003 14:20:51 12 C 35 % -2.97 C
94 24-02-2003 14:26:51 12.2 C 35 % -2.79 C
95 24-02-2003 14:32:51 12.6 C 34 % -2.83 C
96 24-02-2003 14:38:51 12.8 C 33 % -3.05 C
97 24-02-2003 14:44:51 13.4 C 30 % -3.8 C
98 24-02-2003 14:50:51 13.6 C 28 % -4.54 C
99 24-02-2003 14:56:51 13.8 C 30 % -3.45 C
100 24-02-2003 15:02:51 13.9 C 29 % -3.82 C
Sensor: Nr:Datum:Temp:Feuchte:Taupunkt:
Aussen-T/F 101 24-02-2003 15:08:51 13.9 C 28 % -4.28 C
102 24-02-2003 15:14:51 13.9 C 30 % -3.36 C
103 24-02-2003 15:20:51 14 C 29 % -3.73 C
104 24-02-2003 15:26:51 14.1 C 27 % -4.59 C
105 24-02-2003 15:32:51 14.3 C 30 % -3.02 C
106 24-02-2003 15:38:51 14.2 C 30 % -3.1 C
107 24-02-2003 15:44:51 14.2 C 31 % -2.66 C
108 24-02-2003 15:50:51 14.4 C 31 % -2.49 C
109 24-02-2003 15:56:51 14.4 C 30 % -2.93 C
110 24-02-2003 16:02:51 14.2 C 30 % -3.1 C
111 24-02-2003 16:08:51 14.2 C 29 % -3.56 C
112 24-02-2003 16:14:51 13.8 C 31 % -3.01 C
113 24-02-2003 16:20:51 13.7 C 31 % -3.1 C
114 24-02-2003 16:26:51 13.7 C 33 % -2.26 C
115 24-02-2003 16:32:51 13.6 C 32 % -2.76 C
116 24-02-2003 16:38:51 12.8 C 34 % -2.65 C
117 24-02-2003 16:44:51 12.9 C 34 % -2.56 C
118 24-02-2003 16:50:51 12.7 C 35 % -2.35 C
119 24-02-2003 16:56:51 12.5 C 36 % -2.14 C
120 24-02-2003 17:02:51 12 C 36 % -2.59 C
121 24-02-2003 17:08:51 11.7 C 37 % -2.49 C
122 24-02-2003 17:14:51 11.5 C 38 % -2.3 C
123 24-02-2003 17:20:51 10.8 C 38 % -2.93 C
124 24-02-2003 17:26:51 10.4 C 39 % -2.94 C
125 24-02-2003 17:32:51 10 C 40 % -2.96 C
Sensor: Nr:Datum:Temp:Feuchte:Taupunkt:
Aussen-T/F 126 24-02-2003 17:50:07 8.6 C 42 % -3.57 C
127 24-02-2003 17:56:09 8.2 C 43 % -3.62 C
128 24-02-2003 18:02:09 7.5 C 45 % -3.65 C
129 24-02-2003 18:08:09 7.1 C 46 % -3.72 C
130 24-02-2003 18:14:09 6.7 C 48 % -3.52 C
131 24-02-2003 18:20:09 6.4 C 49 % -3.52 C
132 24-02-2003 18:26:09 6.3 C 49 % -3.61 C
133 24-02-2003 18:32:09 5.9 C 50 % -3.71 C
134 24-02-2003 18:38:09 5.8 C 51 % -3.54 C
135 24-02-2003 18:44:09 5.6 C 51 % -3.72 C
136 24-02-2003 18:50:09 5.4 C 52 % -3.65 C
137 24-02-2003 18:56:09 5.2 C 52 % -3.83 C
138 24-02-2003 19:02:09 4.9 C 54 % -3.61 C
139 24-02-2003 19:08:09 4.7 C 55 % -3.55 C
140 24-02-2003 19:14:09 4.6 C 55 % -3.65 C
141 24-02-2003 19:20:09 4.6 C 55 % -3.65 C
142 24-02-2003 19:26:09 4.4 C 56 % -3.59 C
143 24-02-2003 19:32:09 4.2 C 57 % -3.54 C
144 24-02-2003 19:38:09 4.1 C 57 % -3.64 C
145 24-02-2003 19:44:09 4 C 57 % -3.73 C
146 24-02-2003 19:50:09 3.7 C 59 % -3.55 C
147 24-02-2003 19:56:09 3.5 C 59 % -3.74 C
148 24-02-2003 20:03:09 3.4 C 59 % -3.84 C
149 24-02-2003 20:09:09 3 C 60 % -3.99 C
150 24-02-2003 20:15:09 3 C 60 % -3.99 C
Sensor: Nr:Datum:Temp:Feuchte:Taupunkt:
Aussen-T/F 151 24-02-2003 20:21:09 2.8 C 61 % -3.96 C
152 24-02-2003 20:27:09 2.8 C 62 % -3.74 C
153 24-02-2003 20:33:09 2.6 C 62 % -3.93 C
154 24-02-2003 20:39:09 2.3 C 63 % -4 C
155 24-02-2003 20:45:09 2.1 C 63 % -4.19 C
156 24-02-2003 20:51:09 2.1 C 63 % -4.19 C
157 24-02-2003 20:57:09 2 C 64 % -4.08 C
158 24-02-2003 21:03:09 2 C 64 % -4.08 C
159 24-02-2003 21:09:09 2 C 64 % -4.08 C
160 24-02-2003 21:15:09 1.6 C 65 % -4.25 C
161 24-02-2003 21:21:09 1.4 C 65 % -4.44 C
162 24-02-2003 21:27:09 1.2 C 65 % -4.63 C
163 24-02-2003 21:33:09 0.9 C 66 % -4.72 C
164 24-02-2003 21:39:09 0.8 C 66 % -4.81 C
165 24-02-2003 21:45:09 0.9 C 68 % -4.32 C
166 24-02-2003 21:51:09 1 C 67 % -4.42 C
167 24-02-2003 21:57:09 1.2 C 67 % -4.23 C
168 24-02-2003 22:03:09 1.2 C 66 % -4.43 C
169 24-02-2003 22:09:09 1.1 C 66 % -4.53 C
170 24-02-2003 22:15:09 0.8 C 68 % -4.42 C
171 24-02-2003 22:21:09 0.7 C 68 % -4.51 C
172 24-02-2003 22:27:09 0.5 C 68 % -4.71 C
173 24-02-2003 22:33:09 0.2 C 69 % -4.8 C
174 24-02-2003 22:39:09 0 C 69 % -4.99 C
175 24-02-2003 22:45:09 0 C 70 % -4.8 C
Sensor: Nr:Datum:Temp:Feuchte:Taupunkt:
Aussen-T/F 176 24-02-2003 22:51:09 0 C 71 % -4.61 C
177 24-02-2003 22:57:09 -0.2 C 71 % -4.81 C
178 24-02-2003 23:03:09 -0.4 C 70 % -5.19 C
179 24-02-2003 23:09:09 -0.5 C 72 % -4.92 C
180 24-02-2003 23:15:09 -0.5 C 72 % -4.92 C
181 24-02-2003 23:21:09 -0.7 C 72 % -5.11 C
182 24-02-2003 23:27:09 -0.7 C 72 % -5.11 C
183 24-02-2003 23:33:09 -0.9 C 72 % -5.3 C
184 24-02-2003 23:39:09 -1.1 C 72 % -5.5 C
185 24-02-2003 23:45:09 -1.2 C 72 % -5.59 C
186 24-02-2003 23:51:09 -1.3 C 72 % -5.69 C
187 24-02-2003 23:57:09 -1.3 C 73 % -5.51 C
188 25-02-2003 00:03:09 -1.3 C 73 % -5.51 C
189 25-02-2003 00:09:09 -1.1 C 73 % -5.31 C
190 25-02-2003 00:15:09 -1.2 C 73 % -5.41 C
191 25-02-2003 00:21:09 -1.2 C 73 % -5.41 C
192 25-02-2003 00:27:09 -1.3 C 73 % -5.51 C
193 25-02-2003 00:33:09 -1.4 C 73 % -5.6 C
194 25-02-2003 00:39:09 -1.3 C 74 % -5.33 C
195 25-02-2003 00:45:09 -1.3 C 74 % -5.33 C
196 25-02-2003 00:51:09 -1.5 C 74 % -5.52 C
197 25-02-2003 00:57:09 -1.7 C 74 % -5.71 C
198 25-02-2003 01:03:09 -1.7 C 73 % -5.89 C
199 25-02-2003 01:09:09 -1.7 C 74 % -5.71 C
200 25-02-2003 01:15:09 -1.8 C 74 % -5.81 C
Sensor: Nr:Datum:Temp:Feuchte:Taupunkt:
Aussen-T/F 201 25-02-2003 01:21:09 -1.9 C 74 % -5.91 C
202 25-02-2003 01:27:09 -2 C 74 % -6 C
203 25-02-2003 01:33:09 -2.2 C 74 % -6.2 C
204 25-02-2003 01:39:09 -2.3 C 74 % -6.29 C
205 25-02-2003 01:45:09 -2.4 C 74 % -6.39 C
206 25-02-2003 01:51:09 -2.4 C 75 % -6.22 C
207 25-02-2003 01:57:09 -2.3 C 75 % -6.12 C
208 25-02-2003 02:03:09 -2.3 C 76 % -5.95 C
209 25-02-2003 02:09:09 -2.3 C 75 % -6.12 C
210 25-02-2003 02:15:09 -2.3 C 75 % -6.12 C
211 25-02-2003 02:21:09 -2.3 C 75 % -6.12 C
212 25-02-2003 02:27:09 -2.3 C 75 % -6.12 C
213 25-02-2003 02:33:09 -2.6 C 75 % -6.41 C
214 25-02-2003 02:39:09 -2.8 C 75 % -6.6 C
215 25-02-2003 02:45:09 -2.8 C 76 % -6.43 C
216 25-02-2003 02:51:09 -2.8 C 76 % -6.43 C
217 25-02-2003 02:57:09 -2.9 C 76 % -6.53 C
218 25-02-2003 03:03:09 -2.7 C 76 % -6.33 C
219 25-02-2003 03:09:09 -2.9 C 76 % -6.53 C
220 25-02-2003 03:15:09 -2.9 C 76 % -6.53 C
221 25-02-2003 03:21:09 -3 C 76 % -6.63 C
222 25-02-2003 03:27:09 -2.9 C 76 % -6.53 C
223 25-02-2003 03:33:09 -3 C 76 % -6.63 C
224 25-02-2003 03:39:09 -3.1 C 75 % -6.89 C
225 25-02-2003 03:45:09 -3.2 C 75 % -6.99 C
Sensor: Nr:Datum:Temp:Feuchte:Taupunkt:
Aussen-T/F 226 25-02-2003 03:51:09 -3.2 C 76 % -6.82 C
227 25-02-2003 03:57:09 -3.3 C 76 % -6.92 C
228 25-02-2003 04:03:09 -3.2 C 76 % -6.82 C
229 25-02-2003 04:09:09 -3.2 C 76 % -6.82 C
230 25-02-2003 04:15:09 -3.4 C 76 % -7.01 C
231 25-02-2003 04:21:09 -3.5 C 76 % -7.11 C
232 25-02-2003 04:27:09 -3.5 C 76 % -7.11 C
233 25-02-2003 04:33:09 -3.6 C 76 % -7.21 C
234 25-02-2003 04:39:09 -3.6 C 76 % -7.21 C
235 25-02-2003 04:45:09 -3.5 C 77 % -6.94 C
236 25-02-2003 04:51:09 -3.8 C 76 % -7.4 C
237 25-02-2003 04:57:09 -4 C 75 % -7.77 C
238 25-02-2003 05:03:09 -4.1 C 75 % -7.86 C
239 25-02-2003 05:09:09 -4.2 C 76 % -7.79 C
240 25-02-2003 05:15:09 -4.2 C 77 % -7.62 C
241 25-02-2003 05:21:09 -4.3 C 77 % -7.72 C
242 25-02-2003 05:27:09 -4.4 C 76 % -7.98 C
243 25-02-2003 05:33:09 -4.7 C 76 % -8.27 C
244 25-02-2003 05:39:09 -4.7 C 76 % -8.27 C
245 25-02-2003 05:45:09 -4.7 C 76 % -8.27 C
246 25-02-2003 05:51:09 -4.7 C 77 % -8.11 C
247 25-02-2003 05:57:09 -4.8 C 77 % -8.2 C
248 25-02-2003 06:03:09 -4.8 C 77 % -8.2 C
249 25-02-2003 06:09:09 -4.8 C 77 % -8.2 C
250 25-02-2003 06:15:09 -4.9 C 77 % -8.3 C
Sensor: Nr:Datum:Temp:Feuchte:Taupunkt:
Aussen-T/F 251 25-02-2003 06:21:09 -4.9 C 77 % -8.3 C
252 25-02-2003 06:27:09 -4.8 C 77 % -8.2 C
253 25-02-2003 06:33:09 -4.9 C 77 % -8.3 C
254 25-02-2003 06:39:09 -5 C 77 % -8.4 C
255 25-02-2003 06:45:09 -5 C 77 % -8.4 C
256 25-02-2003 06:51:09 -5.1 C 77 % -8.49 C
257 25-02-2003 06:57:09 -5.2 C 77 % -8.59 C
258 25-02-2003 07:03:09 -5.2 C 77 % -8.59 C
259 25-02-2003 07:09:09 -5.4 C 77 % -8.79 C
260 25-02-2003 07:15:09 -5.4 C 77 % -8.79 C
261 25-02-2003 07:21:09 -5.5 C 77 % -8.88 C
262 25-02-2003 07:27:09 -5.5 C 77 % -8.88 C
263 25-02-2003 07:33:09 -5.4 C 77 % -8.79 C
264 25-02-2003 07:39:09 -5.5 C 77 % -8.88 C
265 25-02-2003 07:45:09 -5.4 C 77 % -8.79 C
266 25-02-2003 07:51:09 -5.4 C 77 % -8.79 C
267 25-02-2003 07:57:09 -5.4 C 77 % -8.79 C
268 25-02-2003 08:03:09 -5.3 C 77 % -8.69 C
269 25-02-2003 08:09:09 -5.2 C 77 % -8.59 C
270 25-02-2003 08:15:09 -5.1 C 77 % -8.49 C
271 25-02-2003 08:21:09 -5 C 77 % -8.4 C
272 25-02-2003 08:27:09 -5.1 C 77 % -8.49 C
273 25-02-2003 08:33:09 -5 C 77 % -8.4 C
274 25-02-2003 08:39:09 -5 C 77 % -8.4 C
275 25-02-2003 08:45:09 -5 C 77 % -8.4 C
Sensor: Nr:Datum:Temp:Feuchte:Taupunkt:
Aussen-T/F 276 25-02-2003 08:51:09 -5 C 77 % -8.4 C
277 25-02-2003 08:57:09 -4.7 C 78 % -7.94 C
278 25-02-2003 09:03:09 -4.7 C 78 % -7.94 C
279 25-02-2003 09:09:09 -4.6 C 78 % -7.84 C
280 25-02-2003 09:15:09 -4.6 C 77 % -8.01 C
281 25-02-2003 09:21:09 -4.4 C 77 % -7.81 C
282 25-02-2003 09:27:09 -4.4 C 77 % -7.81 C
283 25-02-2003 09:33:09 -4.3 C 77 % -7.72 C
284 25-02-2003 09:39:09 -4.2 C 78 % -7.45 C
285 25-02-2003 09:45:09 -4.1 C 78 % -7.36 C
286 25-02-2003 09:51:09 -4 C 78 % -7.26 C
287 25-02-2003 09:57:09 -3.8 C 78 % -7.06 C
288 25-02-2003 10:03:09 -3.5 C 79 % -6.61 C
289 25-02-2003 10:09:09 -3 C 80 % -5.96 C
290 25-02-2003 10:15:09 -2.7 C 81 % -5.5 C
291 25-02-2003 10:21:09 -2.3 C 81 % -5.11 C
292 25-02-2003 10:27:09 -1.9 C 81 % -4.72 C
293 25-02-2003 10:33:09 -1.2 C 80 % -4.2 C
294 25-02-2003 10:39:09 -0.9 C 80 % -3.91 C
295 25-02-2003 10:45:09 -0.4 C 79 % -3.59 C
296 25-02-2003 10:51:09 -0.2 C 78 % -3.56 C
297 25-02-2003 10:57:09 0.2 C 78 % -3.17 C
298 25-02-2003 11:03:09 0.3 C 78 % -3.07 C
299 25-02-2003 11:09:09 0.7 C 78 % -2.69 C
300 25-02-2003 11:15:09 0.7 C 78 % -2.69 C
Sensor: Nr:Datum:Temp:Feuchte:Taupunkt:
Aussen-T/F 301 25-02-2003 11:21:09 1.3 C 75 % -2.63 C
302 25-02-2003 11:27:09 1.5 C 74 % -2.62 C
303 25-02-2003 11:33:09 1.8 C 71 % -2.88 C
304 25-02-2003 11:39:09 2.5 C 64 % -3.6 C
305 25-02-2003 11:45:09 2.9 C 59 % -4.31 C
306 25-02-2003 11:51:09 3 C 57 % -4.67 C
307 25-02-2003 11:57:09 3.3 C 58 % -4.16 C
308 25-02-2003 12:03:09 3.6 C 57 % -4.11 C
309 25-02-2003 12:09:09 4.1 C 51 % -5.11 C
310 25-02-2003 12:15:09 4.8 C 46 % -5.82 C
311 25-02-2003 12:21:09 5.2 C 45 % -5.74 C
312 25-02-2003 12:27:09 5.7 C 43 % -5.88 C
313 25-02-2003 12:33:09 6.1 C 41 % -6.14 C
314 25-02-2003 12:39:09 6.3 C 40 % -6.28 C
315 25-02-2003 12:45:09 6.5 C 40 % -6.1 C
316 25-02-2003 12:51:09 6.9 C 39 % -6.07 C
317 25-02-2003 12:57:09 7.2 C 38 % -6.14 C
318 25-02-2003 13:03:09 7.4 C 37 % -6.31 C
319 25-02-2003 13:09:09 7.7 C 36 % -6.4 C
320 25-02-2003 13:15:09 7.9 C 36 % -6.23 C
321 25-02-2003 13:21:09 8.2 C 35 % -6.33 C
322 25-02-2003 13:27:09 8.6 C 35 % -5.97 C
323 25-02-2003 13:33:09 8.9 C 34 % -6.09 C
324 25-02-2003 13:39:09 9.1 C 33 % -6.3 C
325 25-02-2003 13:45:09 9.4 C 33 % -6.03 C
Sensor: Nr:Datum:Temp:Feuchte:Taupunkt:
Aussen-T/F 326 25-02-2003 13:51:09 9.6 C 32 % -6.26 C
327 25-02-2003 13:57:09 9.8 C 33 % -5.68 C
328 25-02-2003 14:03:09 10.2 C 31 % -6.15 C
329 25-02-2003 14:09:09 10.3 C 30 % -6.49 C
330 25-02-2003 14:15:09 10.5 C 30 % -6.32 C
331 25-02-2003 14:21:09 10.8 C 30 % -6.06 C
332 25-02-2003 14:33:09 11 C 30 % -5.88 C
333 25-02-2003 14:39:09 11.3 C 30 % -5.62 C
334 25-02-2003 14:45:09 11.7 C 30 % -5.27 C
335 25-02-2003 14:51:09 11.5 C 30 % -5.45 C
336 25-02-2003 14:57:09 11.9 C 29 % -5.55 C
337 25-02-2003 15:03:09 12.1 C 27 % -6.31 C
338 25-02-2003 15:09:09 12.2 C 28 % -5.75 C
339 25-02-2003 15:15:09 12.3 C 30 % -4.75 C
340 25-02-2003 15:21:09 12.4 C 30 % -4.67 C
341 25-02-2003 15:27:09 12.4 C 29 % -5.11 C
342 25-02-2003 15:33:09 12.5 C 28 % -5.49 C
343 25-02-2003 15:39:09 12.6 C 30 % -4.49 C
344 25-02-2003 15:45:09 12.7 C 29 % -4.85 C
345 25-02-2003 15:51:09 12.8 C 29 % -4.77 C
346 25-02-2003 15:57:09 12.9 C 28 % -5.14 C
347 25-02-2003 16:03:09 12.7 C 26 % -6.28 C
348 25-02-2003 16:09:09 12.8 C 27 % -5.71 C
349 25-02-2003 16:15:09 12.7 C 28 % -5.32 C
350 25-02-2003 16:21:09 12.5 C 29 % -5.03 C
Sensor: Nr:Datum:Temp:Feuchte:Taupunkt:
Aussen-T/F 351 25-02-2003 16:27:09 12.2 C 30 % -4.84 C
352 25-02-2003 16:33:09 12 C 30 % -5.01 C
353 25-02-2003 16:39:09 11.8 C 32 % -4.34 C
354 25-02-2003 16:45:09 11.7 C 32 % -4.42 C
355 25-02-2003 16:51:09 11.4 C 32 % -4.69 C
356 25-02-2003 16:57:09 11 C 32 % -5.04 C
357 25-02-2003 17:03:09 10.7 C 33 % -4.89 C
358 25-02-2003 17:09:09 10.8 C 34 % -4.41 C
359 25-02-2003 17:15:09 10.3 C 34 % -4.85 C
360 25-02-2003 17:21:09 10.1 C 34 % -5.03 C
361 25-02-2003 17:27:09 9.6 C 35 % -5.09 C
362 25-02-2003 17:33:09 8.8 C 36 % -5.43 C
363 25-02-2003 17:39:09 8.1 C 38 % -5.34 C
364 25-02-2003 17:45:09 7.5 C 40 % -5.2 C
365 25-02-2003 17:51:09 7 C 41 % -5.33 C
366 25-02-2003 17:57:09 6.7 C 42 % -5.28 C
367 25-02-2003 18:03:09 6.2 C 44 % -5.13 C
368 25-02-2003 18:09:09 5.9 C 44 % -5.4 C
369 25-02-2003 18:15:09 5.6 C 45 % -5.38 C
370 25-02-2003 18:21:09 5.5 C 45 % -5.47 C
371 25-02-2003 18:27:09 5.2 C 46 % -5.45 C
372 25-02-2003 18:33:09 4.9 C 47 % -5.45 C
373 25-02-2003 18:39:09 4.7 C 47 % -5.63 C
374 25-02-2003 18:45:09 4.5 C 48 % -5.54 C
375 25-02-2003 18:51:09 4.1 C 51 % -5.11 C
Sensor: Nr:Datum:Temp:Feuchte:Taupunkt:
Aussen-T/F 376 25-02-2003 18:57:09 3.8 C 52 % -5.13 C
377 25-02-2003 19:03:09 3.7 C 51 % -5.48 C
378 25-02-2003 19:09:09 3.6 C 52 % -5.32 C
379 25-02-2003 19:15:09 3.5 C 53 % -5.16 C
380 25-02-2003 19:21:09 3.2 C 53 % -5.44 C
381 25-02-2003 19:27:09 3.1 C 54 % -5.29 C
382 25-02-2003 19:33:09 2.9 C 55 % -5.23 C
383 25-02-2003 19:39:09 2.8 C 56 % -5.09 C
384 25-02-2003 19:45:09 2.7 C 56 % -5.18 C
385 25-02-2003 19:51:09 2.5 C 57 % -5.14 C
386 25-02-2003 19:57:09 2.4 C 57 % -5.23 C
387 25-02-2003 20:04:10 2.1 C 58 % -5.28 C
388 25-02-2003 20:10:10 2 C 58 % -5.38 C
389 25-02-2003 20:16:10 2 C 58 % -5.38 C
390 25-02-2003 20:22:10 2 C 57 % -5.61 C
391 25-02-2003 20:28:10 1.8 C 57 % -5.79 C
392 25-02-2003 20:34:10 1.8 C 57 % -5.79 C
393 25-02-2003 20:40:10 1.7 C 57 % -5.89 C
394 25-02-2003 20:46:10 1.4 C 58 % -5.94 C
395 25-02-2003 20:52:10 1.1 C 59 % -6 C
396 25-02-2003 20:58:10 1 C 60 % -5.87 C
397 25-02-2003 21:04:10 0.8 C 62 % -5.63 C
398 25-02-2003 21:10:10 0.7 C 63 % -5.52 C
399 25-02-2003 21:16:10 0.5 C 63 % -5.71 C
400 25-02-2003 21:22:10 0.3 C 62 % -6.11 C
Sensor: Nr:Datum:Temp:Feuchte:Taupunkt:
Aussen-T/F 401 25-02-2003 21:28:10 0.2 C 63 % -5.99 C
402 25-02-2003 21:34:10 0.2 C 64 % -5.79 C
403 25-02-2003 21:40:10 0.2 C 64 % -5.79 C
404 25-02-2003 21:46:10 0.1 C 64 % -5.88 C
405 25-02-2003 21:52:10 0 C 64 % -5.98 C
406 25-02-2003 21:58:10 -0.2 C 64 % -6.18 C
407 25-02-2003 22:04:10 -0.2 C 65 % -5.97 C
408 25-02-2003 22:10:10 -0.4 C 66 % -5.96 C
409 25-02-2003 22:16:10 -0.6 C 65 % -6.35 C
410 25-02-2003 22:22:10 -0.8 C 66 % -6.35 C
411 25-02-2003 22:28:10 -0.6 C 67 % -5.96 C
412 25-02-2003 22:34:10 -0.6 C 66 % -6.16 C
413 25-02-2003 22:40:10 -0.7 C 66 % -6.25 C
414 25-02-2003 22:46:10 -0.5 C 66 % -6.06 C
415 25-02-2003 22:52:10 -0.6 C 65 % -6.35 C
416 25-02-2003 22:58:10 -0.9 C 65 % -6.64 C
417 25-02-2003 23:04:10 -1.1 C 65 % -6.83 C
418 25-02-2003 23:10:10 -1.2 C 66 % -6.73 C
419 25-02-2003 23:16:10 -1.3 C 66 % -6.82 C
420 25-02-2003 23:22:10 -1.4 C 66 % -6.92 C
421 25-02-2003 23:28:10 -1.4 C 67 % -6.72 C
422 25-02-2003 23:34:10 -1.4 C 67 % -6.72 C
423 25-02-2003 23:40:10 -1.5 C 67 % -6.82 C
424 25-02-2003 23:46:10 -1.4 C 67 % -6.72 C
425 25-02-2003 23:52:10 -1.5 C 67 % -6.82 C
Sensor: Nr:Datum:Temp:Feuchte:Taupunkt:
Aussen-T/F 426 25-02-2003 23:58:10 -1.7 C 66 % -7.2 C
427 26-02-2003 00:04:10 -2 C 66 % -7.49 C
428 26-02-2003 00:10:10 -2.1 C 67 % -7.39 C
429 26-02-2003 00:16:10 -2.1 C 68 % -7.2 C
430 26-02-2003 00:22:10 -2.2 C 67 % -7.49 C
431 26-02-2003 00:28:10 -2.3 C 68 % -7.39 C
432 26-02-2003 00:34:10 -2.2 C 69 % -7.11 C
433 26-02-2003 00:40:10 -2.3 C 69 % -7.2 C
434 26-02-2003 00:46:10 -2.3 C 69 % -7.2 C
435 26-02-2003 00:52:10 -2.4 C 69 % -7.3 C
436 26-02-2003 00:58:10 -2.5 C 69 % -7.4 C
437 26-02-2003 01:04:10 -2.6 C 70 % -7.31 C
438 26-02-2003 01:10:10 -2.7 C 70 % -7.4 C
439 26-02-2003 01:16:10 -2.8 C 70 % -7.5 C
440 26-02-2003 01:22:10 -2.9 C 70 % -7.59 C
441 26-02-2003 01:28:10 -2.7 C 70 % -7.4 C
442 26-02-2003 01:34:10 -2.7 C 71 % -7.22 C
443 26-02-2003 01:40:10 -2.8 C 71 % -7.31 C
444 26-02-2003 01:46:10 -2.9 C 71 % -7.41 C
445 26-02-2003 01:52:10 -3 C 71 % -7.51 C
446 26-02-2003 01:58:10 -3 C 71 % -7.51 C
447 26-02-2003 02:04:10 -2.7 C 71 % -7.22 C
448 26-02-2003 02:10:10 -2.8 C 71 % -7.31 C
449 26-02-2003 02:16:10 -3 C 71 % -7.51 C
450 26-02-2003 02:22:10 -3.1 C 70 % -7.79 C
Sensor: Nr:Datum:Temp:Feuchte:Taupunkt:
Aussen-T/F 451 26-02-2003 02:28:10 -3.3 C 70 % -7.98 C
452 26-02-2003 02:34:10 -3.4 C 70 % -8.07 C
453 26-02-2003 02:40:10 -3.3 C 71 % -7.8 C
454 26-02-2003 02:46:10 -3.4 C 71 % -7.89 C
455 26-02-2003 02:52:10 -3.4 C 71 % -7.89 C
456 26-02-2003 02:58:10 -3.6 C 71 % -8.08 C
457 26-02-2003 03:04:10 -3.5 C 71 % -7.99 C
458 26-02-2003 03:10:10 -3.6 C 72 % -7.9 C
459 26-02-2003 03:16:10 -3.6 C 72 % -7.9 C
460 26-02-2003 03:22:10 -3.7 C 72 % -8 C
461 26-02-2003 03:28:10 -3.8 C 72 % -8.1 C
462 26-02-2003 03:34:10 -3.8 C 73 % -7.92 C
463 26-02-2003 03:40:10 -3.8 C 73 % -7.92 C
464 26-02-2003 03:46:10 -3.8 C 73 % -7.92 C
465 26-02-2003 03:52:10 -3.8 C 73 % -7.92 C
466 26-02-2003 03:58:10 -3.8 C 73 % -7.92 C
467 26-02-2003 04:04:10 -3.9 C 72 % -8.19 C
468 26-02-2003 04:10:10 -3.9 C 72 % -8.19 C
469 26-02-2003 04:16:10 -3.9 C 72 % -8.19 C
470 26-02-2003 04:22:10 -3.8 C 73 % -7.92 C
471 26-02-2003 04:28:10 -3.6 C 72 % -7.9 C
472 26-02-2003 04:34:10 -3.7 C 72 % -8 C
473 26-02-2003 04:40:10 -3.8 C 72 % -8.1 C
474 26-02-2003 04:46:10 -3.7 C 72 % -8 C
475 26-02-2003 04:52:10 -3.8 C 72 % -8.1 C
Sensor: Nr:Datum:Temp:Feuchte:Taupunkt:
Aussen-T/F 476 26-02-2003 04:58:10 -3.9 C 72 % -8.19 C
477 26-02-2003 05:04:10 -3.9 C 73 % -8.02 C
478 26-02-2003 05:10:10 -4 C 72 % -8.29 C
479 26-02-2003 05:16:10 -4.1 C 72 % -8.39 C
480 26-02-2003 05:22:10 -4.1 C 73 % -8.21 C
481 26-02-2003 05:28:10 -4.1 C 73 % -8.21 C
482 26-02-2003 05:34:10 -4.1 C 74 % -8.04 C
483 26-02-2003 05:40:10 -4.2 C 73 % -8.31 C
484 26-02-2003 05:46:10 -4.2 C 74 % -8.13 C
485 26-02-2003 05:52:10 -4.3 C 73 % -8.4 C
486 26-02-2003 05:58:10 -4.3 C 73 % -8.4 C
487 26-02-2003 06:04:10 -4.2 C 74 % -8.13 C
488 26-02-2003 06:10:10 -4.2 C 73 % -8.31 C
489 26-02-2003 06:16:10 -4.2 C 74 % -8.13 C
490 26-02-2003 06:22:10 -4.2 C 74 % -8.13 C
491 26-02-2003 06:28:10 -4.1 C 74 % -8.04 C
492 26-02-2003 06:34:10 -4 C 74 % -7.94 C
493 26-02-2003 06:40:10 -4.2 C 73 % -8.31 C
494 26-02-2003 06:46:10 -4.4 C 73 % -8.5 C
495 26-02-2003 06:52:10 -4.4 C 73 % -8.5 C
496 26-02-2003 06:58:10 -4.7 C 73 % -8.79 C
497 26-02-2003 07:04:10 -4.7 C 73 % -8.79 C
498 26-02-2003 07:10:10 -4.8 C 74 % -8.71 C
499 26-02-2003 07:16:10 -4.7 C 74 % -8.62 C
500 26-02-2003 07:22:10 -4.8 C 74 % -8.71 C
Sensor: Nr:Datum:Temp:Feuchte:Taupunkt:
Aussen-T/F 501 26-02-2003 07:28:10 -4.8 C 74 % -8.71 C
502 26-02-2003 07:34:10 -4.8 C 75 % -8.54 C
503 26-02-2003 07:40:10 -4.8 C 75 % -8.54 C
504 26-02-2003 07:46:10 -4.6 C 76 % -8.18 C
505 26-02-2003 07:52:10 -4.4 C 76 % -7.98 C
506 26-02-2003 07:58:10 -4.4 C 76 % -7.98 C
507 26-02-2003 08:04:10 -4.4 C 76 % -7.98 C
508 26-02-2003 08:10:10 -4.4 C 76 % -7.98 C
509 26-02-2003 08:16:10 -4.4 C 75 % -8.15 C
510 26-02-2003 08:22:10 -4.3 C 75 % -8.06 C
511 26-02-2003 08:28:10 -4.3 C 75 % -8.06 C
512 26-02-2003 08:34:10 -4.2 C 75 % -7.96 C
513 26-02-2003 08:40:10 -4 C 75 % -7.77 C
514 26-02-2003 08:46:10 -3.8 C 75 % -7.57 C
515 26-02-2003 08:52:10 -3.6 C 75 % -7.38 C
516 26-02-2003 08:58:10 -3.4 C 75 % -7.18 C
517 26-02-2003 09:04:10 -3.2 C 74 % -7.16 C
518 26-02-2003 09:10:10 -2.8 C 72 % -7.13 C
519 26-02-2003 09:16:10 -2.5 C 71 % -7.03 C
520 26-02-2003 09:22:10 -2.2 C 70 % -6.92 C
521 26-02-2003 09:28:10 -1.8 C 69 % -6.72 C
522 26-02-2003 09:34:10 -1.8 C 68 % -6.91 C
523 26-02-2003 09:40:10 -1.3 C 68 % -6.43 C
524 26-02-2003 09:46:10 -0.9 C 68 % -6.05 C
525 26-02-2003 09:52:10 -0.9 C 66 % -6.44 C
Sensor: Nr:Datum:Temp:Feuchte:Taupunkt:
Aussen-T/F 526 26-02-2003 09:58:10 -0.9 C 66 % -6.44 C
527 26-02-2003 10:04:10 -0.8 C 67 % -6.15 C
528 26-02-2003 10:10:10 -0.6 C 67 % -5.96 C
529 26-02-2003 10:16:10 -0.2 C 66 % -5.77 C
530 26-02-2003 10:22:10 -0.2 C 65 % -5.97 C
531 26-02-2003 10:28:10 -0.1 C 65 % -5.88 C
532 26-02-2003 10:34:10 -0.2 C 65 % -5.97 C
533 26-02-2003 10:40:10 0.4 C 64 % -5.6 C
534 26-02-2003 10:46:10 0.4 C 64 % -5.6 C
535 26-02-2003 10:52:10 0.3 C 64 % -5.69 C
536 26-02-2003 10:58:10 0.4 C 65 % -5.39 C
537 26-02-2003 11:04:10 0.6 C 64 % -5.41 C
538 26-02-2003 11:10:10 0.8 C 64 % -5.22 C
539 26-02-2003 11:16:10 1 C 61 % -5.66 C
540 26-02-2003 11:22:10 0.8 C 62 % -5.63 C
541 26-02-2003 11:28:10 0.8 C 62 % -5.63 C
542 26-02-2003 11:34:10 1 C 61 % -5.66 C
543 26-02-2003 11:40:10 1.2 C 62 % -5.26 C
544 26-02-2003 11:46:10 1.2 C 62 % -5.26 C
545 26-02-2003 11:52:10 1.1 C 64 % -4.93 C
546 26-02-2003 11:58:10 1.1 C 64 % -4.93 C
547 26-02-2003 12:04:10 1.2 C 64 % -4.84 C
548 26-02-2003 12:10:10 1.6 C 63 % -4.67 C
549 26-02-2003 12:16:10 2.1 C 60 % -4.84 C
550 26-02-2003 12:22:10 2.4 C 60 % -4.55 C
Sensor: Nr:Datum:Temp:Feuchte:Taupunkt:
Aussen-T/F 551 26-02-2003 12:28:10 2.6 C 59 % -4.59 C
552 26-02-2003 12:34:10 2.7 C 58 % -4.72 C
553 26-02-2003 12:40:10 2.7 C 58 % -4.72 C
554 26-02-2003 12:46:10 2.8 C 59 % -4.4 C
555 26-02-2003 12:52:10 3.3 C 59 % -3.93 C
556 26-02-2003 12:58:10 3.7 C 57 % -4.01 C
557 26-02-2003 13:04:10 4 C 55 % -4.21 C
558 26-02-2003 13:10:10 4.2 C 54 % -4.26 C
559 26-02-2003 13:16:10 4.1 C 54 % -4.36 C
560 26-02-2003 13:22:10 4.4 C 53 % -4.32 C
561 26-02-2003 13:28:10 4.5 C 52 % -4.48 C
562 26-02-2003 13:34:10 4.5 C 51 % -4.74 C
563 26-02-2003 13:40:10 4.7 C 52 % -4.3 C
564 26-02-2003 13:46:10 5.2 C 51 % -4.09 C
565 26-02-2003 13:52:10 5.4 C 51 % -3.91 C
566 26-02-2003 13:58:10 5.7 C 50 % -3.89 C
567 26-02-2003 14:04:10 5.9 C 50 % -3.71 C
568 26-02-2003 14:08:10 5.9 C 50 % -3.71 C
569 26-02-2003 14:10:10 6.3 C 49 % -3.61 C
570 26-02-2003 14:14:10 6.3 C 49 % -3.61 C
571 26-02-2003 14:16:10 6.6 C 49 % -3.33 C
572 26-02-2003 14:20:10 6.6 C 49 % -3.33 C
573 26-02-2003 14:22:10 6.5 C 49 % -3.43 C
574 26-02-2003 14:26:10 6.5 C 49 % -3.43 C
575 26-02-2003 14:28:10 6.6 C 49 % -3.33 C
Sensor: Nr:Datum:Temp:Feuchte:Taupunkt:
Aussen-T/F 576 26-02-2003 14:32:10 6.6 C 49 % -3.33 C
577 26-02-2003 14:34:10 6.4 C 49 % -3.52 C
578 26-02-2003 14:38:10 6.4 C 49 % -3.52 C
579 26-02-2003 14:40:10 6.4 C 48 % -3.79 C
580 26-02-2003 14:44:10 6.4 C 48 % -3.79 C
581 26-02-2003 14:46:10 6.4 C 48 % -3.79 C
582 26-02-2003 14:50:10 6.4 C 48 % -3.79 C
583 26-02-2003 14:52:10 6.4 C 48 % -3.79 C
584 26-02-2003 14:56:10 6.4 C 48 % -3.79 C
585 26-02-2003 14:58:10 6.5 C 47 % -3.98 C
586 26-02-2003 15:02:10 6.5 C 47 % -3.98 C
587 26-02-2003 15:04:10 6.4 C 47 % -4.07 C
588 26-02-2003 15:08:10 6.4 C 47 % -4.07 C
589 26-02-2003 15:10:10 7.3 C 45 % -3.83 C
590 26-02-2003 15:14:10 7.3 C 45 % -3.83 C
591 26-02-2003 15:16:10 7.3 C 45 % -3.83 C
592 26-02-2003 15:20:10 7.3 C 45 % -3.83 C
593 26-02-2003 15:22:10 7.5 C 45 % -3.65 C
594 26-02-2003 15:26:10 7.5 C 45 % -3.65 C
595 26-02-2003 15:28:10 7.8 C 45 % -3.37 C
596 26-02-2003 15:32:10 7.8 C 45 % -3.37 C
597 26-02-2003 15:34:10 8 C 44 % -3.49 C
598 26-02-2003 15:38:10 8 C 44 % -3.49 C
599 26-02-2003 15:40:10 8.4 C 43 % -3.43 C
600 26-02-2003 15:44:10 8.4 C 43 % -3.43 C
Sensor: Nr:Datum:Temp:Feuchte:Taupunkt:
Aussen-T/F 601 26-02-2003 15:46:10 8.3 C 43 % -3.52 C
602 26-02-2003 15:50:10 8.3 C 43 % -3.52 C
603 26-02-2003 15:52:10 8.2 C 43 % -3.62 C
604 26-02-2003 15:56:10 8.2 C 43 % -3.62 C
605 26-02-2003 15:58:10 8.1 C 43 % -3.71 C
606 26-02-2003 16:02:10 8.1 C 43 % -3.71 C
607 26-02-2003 16:10:10 8 C 43 % -3.8 C
608 26-02-2003 16:14:10 8 C 43 % -3.8 C
609 26-02-2003 16:16:10 7.9 C 44 % -3.58 C
610 26-02-2003 16:20:10 7.9 C 44 % -3.58 C
611 26-02-2003 16:22:10 8.1 C 44 % -3.4 C
612 26-02-2003 16:26:10 8.1 C 44 % -3.4 C
613 26-02-2003 16:28:10 8 C 44 % -3.49 C
614 26-02-2003 16:32:10 8 C 44 % -3.49 C
615 26-02-2003 16:34:10 7.9 C 45 % -3.28 C
616 26-02-2003 16:38:10 7.9 C 45 % -3.28 C
617 26-02-2003 16:40:10 7.9 C 45 % -3.28 C
618 26-02-2003 16:44:10 7.9 C 45 % -3.28 C
619 26-02-2003 16:46:10 7.9 C 45 % -3.28 C
620 26-02-2003 16:50:10 7.9 C 45 % -3.28 C
621 26-02-2003 16:52:10 8.1 C 45 % -3.1 C
622 26-02-2003 16:56:10 8.1 C 45 % -3.1 C
623 26-02-2003 16:58:10 8.4 C 45 % -2.83 C
624 26-02-2003 17:02:10 8.4 C 45 % -2.83 C
625 26-02-2003 17:04:10 8.5 C 46 % -2.44 C
Sensor: Nr:Datum:Temp:Feuchte:Taupunkt:
Aussen-T/F 626 26-02-2003 17:08:10 8.5 C 46 % -2.44 C
627 26-02-2003 17:10:10 8.4 C 46 % -2.53 C
628 26-02-2003 17:14:10 8.4 C 46 % -2.53 C
629 26-02-2003 17:16:10 8.2 C 46 % -2.71 C
630 26-02-2003 17:20:10 8.2 C 46 % -2.71 C
631 26-02-2003 17:22:10 7.8 C 45 % -3.37 C
632 26-02-2003 17:26:10 7.8 C 45 % -3.37 C
633 26-02-2003 17:28:10 7.5 C 45 % -3.65 C
634 26-02-2003 17:32:10 7.5 C 45 % -3.65 C
635 26-02-2003 17:34:10 7.2 C 46 % -3.63 C
636 26-02-2003 17:38:10 7.2 C 46 % -3.63 C
637 26-02-2003 17:40:10 6.8 C 49 % -3.15 C
638 26-02-2003 17:44:10 6.8 C 49 % -3.15 C
639 26-02-2003 17:46:10 6.6 C 49 % -3.33 C
640 26-02-2003 17:50:10 6.6 C 49 % -3.33 C
641 26-02-2003 17:52:10 6.4 C 50 % -3.25 C
642 26-02-2003 17:56:10 6.4 C 50 % -3.25 C
643 26-02-2003 17:58:10 6.2 C 51 % -3.17 C
644 26-02-2003 18:02:10 6.2 C 51 % -3.17 C
645 26-02-2003 18:04:10 5.9 C 51 % -3.44 C
646 26-02-2003 18:08:10 5.9 C 51 % -3.44 C
647 26-02-2003 18:10:10 5.8 C 51 % -3.54 C
648 26-02-2003 18:14:10 5.8 C 51 % -3.54 C
649 26-02-2003 18:16:10 5.6 C 52 % -3.46 C
650 26-02-2003 18:20:10 5.6 C 52 % -3.46 C
Sensor: Nr:Datum:Temp:Feuchte:Taupunkt:
Aussen-T/F 651 26-02-2003 18:22:10 5.4 C 52 % -3.65 C
652 26-02-2003 18:26:10 5.4 C 52 % -3.65 C
653 26-02-2003 18:28:10 5.4 C 53 % -3.39 C
654 26-02-2003 18:32:10 5.4 C 53 % -3.39 C
655 26-02-2003 18:34:10 5.2 C 54 % -3.33 C
656 26-02-2003 18:38:10 5.2 C 54 % -3.33 C
657 26-02-2003 18:40:10 5.1 C 54 % -3.42 C
658 26-02-2003 18:44:10 5.1 C 54 % -3.42 C
659 26-02-2003 18:46:10 5 C 55 % -3.27 C
660 26-02-2003 18:50:10 5 C 55 % -3.27 C
661 26-02-2003 18:52:10 4.9 C 56 % -3.12 C
662 26-02-2003 18:56:10 4.9 C 56 % -3.12 C
663 26-02-2003 18:58:10 4.8 C 56 % -3.22 C
664 26-02-2003 19:02:10 4.8 C 56 % -3.22 C
665 26-02-2003 19:04:10 4.7 C 56 % -3.31 C
666 26-02-2003 19:08:10 4.7 C 56 % -3.31 C
667 26-02-2003 19:10:10 4.5 C 57 % -3.26 C
668 26-02-2003 19:14:10 4.5 C 57 % -3.26 C
669 26-02-2003 19:16:10 4.4 C 57 % -3.36 C
670 26-02-2003 19:20:10 4.4 C 57 % -3.36 C
671 26-02-2003 19:22:10 4.2 C 57 % -3.54 C
672 26-02-2003 19:26:10 4.2 C 57 % -3.54 C
673 26-02-2003 19:28:10 4.1 C 57 % -3.64 C
674 26-02-2003 19:32:10 4.1 C 57 % -3.64 C
675 26-02-2003 19:34:10 3.8 C 58 % -3.69 C
Sensor: Nr:Datum:Temp:Feuchte:Taupunkt:
Aussen-T/F 676 26-02-2003 19:38:10 3.8 C 58 % -3.69 C
677 26-02-2003 19:40:10 3.8 C 58 % -3.69 C
678 26-02-2003 19:44:10 3.8 C 58 % -3.69 C
679 26-02-2003 19:46:10 3.5 C 59 % -3.74 C
680 26-02-2003 19:50:10 3.5 C 59 % -3.74 C
681 26-02-2003 19:52:10 3.3 C 59 % -3.93 C
682 26-02-2003 19:56:10 3.3 C 59 % -3.93 C
683 26-02-2003 19:58:10 3.1 C 60 % -3.89 C
684 26-02-2003 20:02:10 3.1 C 60 % -3.89 C
685 26-02-2003 20:05:11 3.1 C 60 % -3.89 C
686 26-02-2003 20:08:10 3.1 C 60 % -3.89 C
687 26-02-2003 20:11:11 3 C 60 % -3.99 C
688 26-02-2003 20:14:10 3 C 60 % -3.99 C
689 26-02-2003 20:17:11 2.8 C 62 % -3.74 C
690 26-02-2003 20:20:10 2.8 C 62 % -3.74 C
691 26-02-2003 20:23:11 2.7 C 62 % -3.84 C
692 26-02-2003 20:26:10 2.7 C 62 % -3.84 C
693 26-02-2003 20:29:11 2.7 C 62 % -3.84 C
694 26-02-2003 20:32:10 2.7 C 62 % -3.84 C
695 26-02-2003 20:35:11 2.6 C 62 % -3.93 C
696 26-02-2003 20:38:10 2.6 C 62 % -3.93 C
697 26-02-2003 20:41:11 2.4 C 63 % -3.91 C
698 26-02-2003 20:44:10 2.4 C 63 % -3.91 C
699 26-02-2003 20:47:11 2.3 C 63 % -4 C
700 26-02-2003 20:50:10 2.3 C 63 % -4 C
Sensor: Nr:Datum:Temp:Feuchte:Taupunkt:
Aussen-T/F 701 26-02-2003 20:53:11 2.3 C 64 % -3.79 C
702 26-02-2003 20:56:10 2.3 C 64 % -3.79 C
703 26-02-2003 20:59:11 2.2 C 63 % -4.1 C
704 26-02-2003 21:02:10 2.2 C 63 % -4.1 C
705 26-02-2003 21:05:11 2.2 C 64 % -3.89 C
706 26-02-2003 21:08:10 2.2 C 64 % -3.89 C
707 26-02-2003 21:11:11 2.2 C 64 % -3.89 C
708 26-02-2003 21:14:10 2.2 C 64 % -3.89 C
709 26-02-2003 21:17:11 2.2 C 64 % -3.89 C
710 26-02-2003 21:20:10 2.2 C 64 % -3.89 C
711 26-02-2003 21:23:11 2.2 C 64 % -3.89 C
712 26-02-2003 21:26:10 2.2 C 64 % -3.89 C
713 26-02-2003 21:29:11 2.3 C 64 % -3.79 C
714 26-02-2003 21:32:10 2.3 C 64 % -3.79 C
715 26-02-2003 21:35:11 2.4 C 64 % -3.7 C
716 26-02-2003 21:38:10 2.4 C 64 % -3.7 C
717 26-02-2003 21:41:11 2.4 C 64 % -3.7 C
718 26-02-2003 21:44:10 2.4 C 64 % -3.7 C
719 26-02-2003 21:47:11 2.4 C 64 % -3.7 C
720 26-02-2003 21:50:10 2.4 C 64 % -3.7 C
721 26-02-2003 21:53:11 2.4 C 64 % -3.7 C
722 26-02-2003 21:56:10 2.4 C 64 % -3.7 C
723 26-02-2003 21:59:11 2.4 C 64 % -3.7 C
724 26-02-2003 22:02:10 2.4 C 64 % -3.7 C
725 26-02-2003 22:05:11 2.4 C 64 % -3.7 C
Sensor: Nr:Datum:Temp:Feuchte:Taupunkt:
Aussen-T/F 726 26-02-2003 22:08:10 2.4 C 64 % -3.7 C
727 26-02-2003 22:11:11 2.4 C 64 % -3.7 C
728 26-02-2003 22:14:10 2.4 C 64 % -3.7 C
729 26-02-2003 22:17:11 2.4 C 64 % -3.7 C
730 26-02-2003 22:20:10 2.4 C 64 % -3.7 C
731 26-02-2003 22:23:11 2.4 C 64 % -3.7 C
732 26-02-2003 22:26:10 2.4 C 64 % -3.7 C
733 26-02-2003 22:29:11 2.4 C 65 % -3.49 C
734 26-02-2003 22:32:10 2.4 C 65 % -3.49 C
735 26-02-2003 22:35:11 2.3 C 65 % -3.59 C
736 26-02-2003 22:38:10 2.3 C 65 % -3.59 C
737 26-02-2003 22:41:11 2.3 C 65 % -3.59 C
738 26-02-2003 22:44:10 2.3 C 65 % -3.59 C
739 26-02-2003 22:47:11 2.3 C 65 % -3.59 C
740 26-02-2003 22:50:10 2.3 C 65 % -3.59 C
741 26-02-2003 22:53:11 2.2 C 65 % -3.68 C
742 26-02-2003 22:56:10 2.2 C 65 % -3.68 C
743 26-02-2003 22:59:11 2.2 C 65 % -3.68 C
744 26-02-2003 23:02:10 2.2 C 65 % -3.68 C
745 26-02-2003 23:05:11 2.2 C 65 % -3.68 C
746 26-02-2003 23:08:10 2.2 C 65 % -3.68 C
747 26-02-2003 23:11:11 2.3 C 65 % -3.59 C
748 26-02-2003 23:14:10 2.3 C 65 % -3.59 C
749 26-02-2003 23:17:11 2.2 C 65 % -3.68 C
750 26-02-2003 23:20:10 2.2 C 65 % -3.68 C
Sensor: Nr:Datum:Temp:Feuchte:Taupunkt:
Aussen-T/F 751 26-02-2003 23:23:11 2.1 C 65 % -3.78 C
752 26-02-2003 23:26:10 2.1 C 65 % -3.78 C
753 26-02-2003 23:29:11 2 C 65 % -3.87 C
754 26-02-2003 23:32:10 2 C 65 % -3.87 C
755 26-02-2003 23:35:11 2 C 66 % -3.67 C
756 26-02-2003 23:38:10 2 C 66 % -3.67 C
757 26-02-2003 23:41:11 1.9 C 67 % -3.56 C
758 26-02-2003 23:44:10 1.9 C 67 % -3.56 C
759 26-02-2003 23:47:11 1.9 C 67 % -3.56 C
760 26-02-2003 23:50:10 1.9 C 67 % -3.56 C
761 26-02-2003 23:53:11 1.9 C 67 % -3.56 C
762 26-02-2003 23:56:10 1.9 C 67 % -3.56 C
763 26-02-2003 23:59:11 1.7 C 67 % -3.75 C
764 27-02-2003 00:02:10 1.7 C 67 % -3.75 C
765 27-02-2003 00:05:11 1.6 C 68 % -3.65 C
766 27-02-2003 00:08:10 1.6 C 68 % -3.65 C
767 27-02-2003 00:11:11 1.6 C 68 % -3.65 C
768 27-02-2003 00:14:10 1.6 C 68 % -3.65 C
769 27-02-2003 00:17:11 1.7 C 68 % -3.56 C
770 27-02-2003 00:20:10 1.7 C 68 % -3.56 C
771 27-02-2003 00:23:11 1.7 C 68 % -3.56 C
772 27-02-2003 00:26:10 1.7 C 68 % -3.56 C
773 27-02-2003 00:29:11 1.7 C 67 % -3.75 C
774 27-02-2003 00:32:10 1.7 C 67 % -3.75 C
775 27-02-2003 00:35:11 1.8 C 68 % -3.46 C
Sensor: Nr:Datum:Temp:Feuchte:Taupunkt:
Aussen-T/F 776 27-02-2003 00:38:10 1.8 C 68 % -3.46 C
777 27-02-2003 00:41:11 1.8 C 67 % -3.66 C
778 27-02-2003 00:44:10 1.8 C 67 % -3.66 C
779 27-02-2003 00:47:11 1.7 C 68 % -3.56 C
780 27-02-2003 00:50:10 1.7 C 68 % -3.56 C
781 27-02-2003 00:53:11 1.7 C 68 % -3.56 C
782 27-02-2003 00:56:10 1.7 C 68 % -3.56 C
783 27-02-2003 00:59:11 1.7 C 68 % -3.56 C
784 27-02-2003 01:02:10 1.7 C 68 % -3.56 C
785 27-02-2003 01:05:11 1.6 C 68 % -3.65 C
786 27-02-2003 01:08:10 1.6 C 68 % -3.65 C
787 27-02-2003 01:11:11 1.7 C 68 % -3.56 C
788 27-02-2003 01:14:10 1.7 C 68 % -3.56 C
789 27-02-2003 01:17:11 1.7 C 68 % -3.56 C
790 27-02-2003 01:20:10 1.7 C 68 % -3.56 C
791 27-02-2003 01:23:11 1.7 C 68 % -3.56 C
792 27-02-2003 01:26:10 1.7 C 68 % -3.56 C
793 27-02-2003 01:29:11 1.7 C 68 % -3.56 C
794 27-02-2003 01:32:10 1.7 C 68 % -3.56 C
795 27-02-2003 01:35:11 1.8 C 68 % -3.46 C
796 27-02-2003 01:38:10 1.8 C 68 % -3.46 C
797 27-02-2003 01:41:11 1.8 C 69 % -3.27 C
798 27-02-2003 01:44:10 1.8 C 69 % -3.27 C
799 27-02-2003 01:47:11 1.7 C 69 % -3.36 C
800 27-02-2003 01:50:10 1.7 C 69 % -3.36 C
Sensor: Nr:Datum:Temp:Feuchte:Taupunkt:
Aussen-T/F 801 27-02-2003 01:53:11 1.7 C 69 % -3.36 C
802 27-02-2003 01:56:10 1.7 C 69 % -3.36 C
803 27-02-2003 01:59:11 1.6 C 69 % -3.46 C
804 27-02-2003 02:02:10 1.6 C 69 % -3.46 C
805 27-02-2003 02:05:11 1.4 C 69 % -3.65 C
806 27-02-2003 02:08:10 1.4 C 69 % -3.65 C
807 27-02-2003 02:11:11 1.3 C 69 % -3.75 C
808 27-02-2003 02:14:10 1.3 C 69 % -3.75 C
809 27-02-2003 02:17:11 1.2 C 69 % -3.84 C
810 27-02-2003 02:20:10 1.2 C 69 % -3.84 C
811 27-02-2003 02:23:11 1.2 C 69 % -3.84 C
812 27-02-2003 02:26:10 1.2 C 69 % -3.84 C
813 27-02-2003 02:29:11 1.2 C 69 % -3.84 C
814 27-02-2003 02:32:10 1.2 C 69 % -3.84 C
815 27-02-2003 02:35:11 1.3 C 70 % -3.55 C
816 27-02-2003 02:38:10 1.3 C 70 % -3.55 C
817 27-02-2003 02:41:11 1.2 C 70 % -3.65 C
818 27-02-2003 02:44:10 1.2 C 70 % -3.65 C
819 27-02-2003 02:47:11 1.2 C 70 % -3.65 C
820 27-02-2003 02:50:10 1.2 C 70 % -3.65 C
821 27-02-2003 02:53:11 1.2 C 70 % -3.65 C
822 27-02-2003 02:56:10 1.2 C 70 % -3.65 C
823 27-02-2003 02:59:11 1.1 C 70 % -3.75 C
824 27-02-2003 03:02:10 1.1 C 70 % -3.75 C
825 27-02-2003 03:05:11 1.3 C 70 % -3.55 C
Sensor: Nr:Datum:Temp:Feuchte:Taupunkt:
Aussen-T/F 826 27-02-2003 03:08:10 1.3 C 70 % -3.55 C
827 27-02-2003 03:11:11 1.1 C 70 % -3.75 C
828 27-02-2003 03:14:10 1.1 C 70 % -3.75 C
829 27-02-2003 03:17:11 1 C 71 % -3.65 C
830 27-02-2003 03:20:10 1 C 71 % -3.65 C
831 27-02-2003 03:23:11 1.1 C 71 % -3.56 C
832 27-02-2003 03:26:10 1.1 C 71 % -3.56 C
833 27-02-2003 03:29:11 1.1 C 71 % -3.56 C
834 27-02-2003 03:32:10 1.1 C 71 % -3.56 C
835 27-02-2003 03:35:11 0.9 C 71 % -3.75 C
836 27-02-2003 03:38:10 0.9 C 71 % -3.75 C
837 27-02-2003 03:41:11 0.8 C 71 % -3.85 C
838 27-02-2003 03:44:10 0.8 C 71 % -3.85 C
839 27-02-2003 03:47:11 0.7 C 72 % -3.76 C
840 27-02-2003 03:50:10 0.7 C 72 % -3.76 C
841 27-02-2003 03:53:11 0.7 C 72 % -3.76 C
842 27-02-2003 03:56:10 0.7 C 72 % -3.76 C
843 27-02-2003 03:59:11 0.7 C 71 % -3.94 C
844 27-02-2003 04:02:10 0.7 C 71 % -3.94 C
845 27-02-2003 04:05:11 0.7 C 72 % -3.76 C
846 27-02-2003 04:08:10 0.7 C 72 % -3.76 C
847 27-02-2003 04:11:11 0.6 C 72 % -3.85 C
848 27-02-2003 04:14:10 0.6 C 72 % -3.85 C
849 27-02-2003 04:17:11 0.5 C 72 % -3.95 C
850 27-02-2003 04:20:10 0.5 C 72 % -3.95 C
Sensor: Nr:Datum:Temp:Feuchte:Taupunkt:
Aussen-T/F 851 27-02-2003 04:23:11 0.5 C 73 % -3.76 C
852 27-02-2003 04:26:10 0.5 C 73 % -3.76 C
853 27-02-2003 04:29:11 0.5 C 72 % -3.95 C
854 27-02-2003 04:32:10 0.5 C 72 % -3.95 C
855 27-02-2003 04:35:11 0.6 C 73 % -3.67 C
856 27-02-2003 04:38:10 0.6 C 73 % -3.67 C
857 27-02-2003 04:41:11 0.5 C 73 % -3.76 C
858 27-02-2003 04:44:10 0.5 C 73 % -3.76 C
859 27-02-2003 04:47:11 0.5 C 73 % -3.76 C
860 27-02-2003 04:50:10 0.5 C 73 % -3.76 C
861 27-02-2003 04:53:11 0.4 C 73 % -3.86 C
862 27-02-2003 04:56:10 0.4 C 73 % -3.86 C
863 27-02-2003 04:59:11 0.3 C 73 % -3.96 C
864 27-02-2003 05:02:10 0.3 C 73 % -3.96 C
865 27-02-2003 05:05:11 0.3 C 73 % -3.96 C
866 27-02-2003 05:08:10 0.3 C 73 % -3.96 C
867 27-02-2003 05:11:11 0.4 C 74 % -3.68 C
868 27-02-2003 05:14:10 0.4 C 74 % -3.68 C
869 27-02-2003 05:17:11 0.4 C 75 % -3.5 C
870 27-02-2003 05:20:10 0.4 C 75 % -3.5 C
871 27-02-2003 05:23:11 0.3 C 74 % -3.78 C
872 27-02-2003 05:26:10 0.3 C 74 % -3.78 C
873 27-02-2003 05:29:11 0.2 C 74 % -3.87 C
874 27-02-2003 05:32:10 0.2 C 74 % -3.87 C
875 27-02-2003 05:35:11 0.1 C 73 % -4.15 C
Sensor: Nr:Datum:Temp:Feuchte:Taupunkt:
Aussen-T/F 876 27-02-2003 05:38:10 0.1 C 73 % -4.15 C
877 27-02-2003 05:41:11 0 C 74 % -4.07 C
878 27-02-2003 05:44:10 0 C 74 % -4.07 C
879 27-02-2003 05:47:11 -0.1 C 75 % -3.99 C
880 27-02-2003 05:50:10 -0.1 C 75 % -3.99 C
881 27-02-2003 05:53:11 -0.2 C 75 % -4.09 C
882 27-02-2003 05:56:10 -0.2 C 75 % -4.09 C
883 27-02-2003 05:59:11 -0.2 C 75 % -4.09 C
884 27-02-2003 06:02:10 -0.2 C 75 % -4.09 C
885 27-02-2003 06:05:11 -0.3 C 76 % -4.01 C
886 27-02-2003 06:08:10 -0.3 C 76 % -4.01 C
887 27-02-2003 06:11:11 -0.3 C 75 % -4.18 C
888 27-02-2003 06:14:10 -0.3 C 75 % -4.18 C
889 27-02-2003 06:17:11 -0.3 C 75 % -4.18 C
890 27-02-2003 06:20:10 -0.3 C 75 % -4.18 C
891 27-02-2003 06:23:11 -0.2 C 76 % -3.91 C
892 27-02-2003 06:26:10 -0.2 C 76 % -3.91 C
893 27-02-2003 06:29:11 -0.2 C 77 % -3.74 C
894 27-02-2003 06:32:10 -0.2 C 77 % -3.74 C
895 27-02-2003 06:35:11 -0.2 C 77 % -3.74 C
896 27-02-2003 06:38:10 -0.2 C 77 % -3.74 C
897 27-02-2003 06:41:11 -0.3 C 77 % -3.83 C
898 27-02-2003 06:44:10 -0.3 C 77 % -3.83 C
899 27-02-2003 06:47:11 -0.3 C 77 % -3.83 C
900 27-02-2003 06:50:10 -0.3 C 77 % -3.83 C
Sensor: Nr:Datum:Temp:Feuchte:Taupunkt:
Aussen-T/F 901 27-02-2003 06:53:11 -0.3 C 77 % -3.83 C
902 27-02-2003 06:56:10 -0.3 C 77 % -3.83 C
903 27-02-2003 06:59:11 -0.3 C 77 % -3.83 C
904 27-02-2003 07:02:10 -0.3 C 77 % -3.83 C
905 27-02-2003 07:05:11 -0.5 C 77 % -4.03 C
906 27-02-2003 07:08:10 -0.5 C 77 % -4.03 C
907 27-02-2003 07:11:11 -0.6 C 76 % -4.3 C
908 27-02-2003 07:14:10 -0.6 C 76 % -4.3 C
909 27-02-2003 07:17:11 -0.6 C 76 % -4.3 C
910 27-02-2003 07:20:10 -0.6 C 76 % -4.3 C
911 27-02-2003 07:23:11 -0.6 C 76 % -4.3 C
912 27-02-2003 07:26:10 -0.6 C 76 % -4.3 C
913 27-02-2003 07:29:11 -0.4 C 76 % -4.1 C
914 27-02-2003 07:32:10 -0.4 C 76 % -4.1 C
915 27-02-2003 07:35:11 -0.3 C 76 % -4.01 C
916 27-02-2003 07:38:10 -0.3 C 76 % -4.01 C
917 27-02-2003 07:41:11 -0.3 C 76 % -4.01 C
918 27-02-2003 07:44:10 -0.3 C 76 % -4.01 C
919 27-02-2003 07:47:11 -0.3 C 76 % -4.01 C
920 27-02-2003 07:50:10 -0.3 C 76 % -4.01 C
921 27-02-2003 07:53:11 -0.2 C 76 % -3.91 C
922 27-02-2003 07:56:10 -0.2 C 76 % -3.91 C
923 27-02-2003 07:59:11 -0.1 C 76 % -3.81 C
924 27-02-2003 08:02:10 -0.1 C 76 % -3.81 C
925 27-02-2003 08:05:10 0 C 76 % -3.71 C
Sensor: Nr:Datum:Temp:Feuchte:Taupunkt:
Aussen-T/F 926 27-02-2003 08:08:10 0 C 76 % -3.71 C
927 27-02-2003 08:11:10 0.1 C 76 % -3.62 C
928 27-02-2003 08:14:10 0.1 C 76 % -3.62 C
929 27-02-2003 08:17:10 0.2 C 75 % -3.69 C
930 27-02-2003 08:20:10 0.2 C 75 % -3.69 C
931 27-02-2003 08:23:10 0.2 C 75 % -3.69 C
932 27-02-2003 08:26:10 0.2 C 75 % -3.69 C
933 27-02-2003 08:29:10 0.2 C 75 % -3.69 C
934 27-02-2003 08:32:10 0.2 C 75 % -3.69 C
935 27-02-2003 08:35:10 0.2 C 75 % -3.69 C
936 27-02-2003 08:38:10 0.2 C 75 % -3.69 C
937 27-02-2003 08:41:10 0.3 C 75 % -3.6 C
938 27-02-2003 08:44:10 0.3 C 75 % -3.6 C
939 27-02-2003 08:47:10 0.3 C 75 % -3.6 C
940 27-02-2003 08:50:10 0.3 C 75 % -3.6 C
941 27-02-2003 08:53:10 0.4 C 75 % -3.5 C
942 27-02-2003 08:56:10 0.4 C 75 % -3.5 C
943 27-02-2003 08:59:10 0.5 C 75 % -3.4 C
944 27-02-2003 09:02:10 0.5 C 75 % -3.4 C
945 27-02-2003 09:05:10 0.6 C 75 % -3.31 C
946 27-02-2003 09:08:10 0.6 C 75 % -3.31 C
947 27-02-2003 09:11:10 0.6 C 75 % -3.31 C
948 27-02-2003 09:14:10 0.6 C 75 % -3.31 C
949 27-02-2003 09:17:10 0.7 C 74 % -3.39 C
950 27-02-2003 09:20:10 0.7 C 74 % -3.39 C
Sensor: Nr:Datum:Temp:Feuchte:Taupunkt:
Aussen-T/F 951 27-02-2003 09:23:10 0.9 C 74 % -3.2 C
952 27-02-2003 09:26:10 0.9 C 74 % -3.2 C
953 27-02-2003 09:29:10 1 C 73 % -3.28 C
954 27-02-2003 09:32:10 1 C 73 % -3.28 C
955 27-02-2003 09:35:10 1.1 C 73 % -3.19 C
956 27-02-2003 09:38:10 1.1 C 73 % -3.19 C
957 27-02-2003 09:41:10 1.3 C 73 % -2.99 C
958 27-02-2003 09:44:10 1.3 C 73 % -2.99 C
959 27-02-2003 09:47:10 1.4 C 72 % -3.08 C
960 27-02-2003 09:50:10 1.4 C 72 % -3.08 C
961 27-02-2003 09:53:10 1.7 C 72 % -2.79 C
962 27-02-2003 09:56:10 1.7 C 72 % -2.79 C
963 27-02-2003 09:59:10 2.1 C 71 % -2.6 C
964 27-02-2003 10:02:10 2.1 C 71 % -2.6 C
965 27-02-2003 10:05:10 2.5 C 69 % -2.6 C
966 27-02-2003 10:08:10 2.5 C 69 % -2.6 C
967 27-02-2003 10:11:10 2.8 C 68 % -2.51 C
968 27-02-2003 10:14:10 2.8 C 68 % -2.51 C
969 27-02-2003 10:17:10 3.2 C 66 % -2.53 C
970 27-02-2003 10:20:10 3.2 C 66 % -2.53 C
971 27-02-2003 10:23:10 3.5 C 65 % -2.44 C
972 27-02-2003 10:26:10 3.5 C 65 % -2.44 C
973 27-02-2003 10:29:10 3.9 C 64 % -2.27 C
974 27-02-2003 10:32:10 3.9 C 64 % -2.27 C
975 27-02-2003 10:35:10 4.2 C 61 % -2.64 C
Sensor: Nr:Datum:Temp:Feuchte:Taupunkt:
Aussen-T/F 976 27-02-2003 10:38:10 4.2 C 61 % -2.64 C
977 27-02-2003 10:41:10 4.2 C 61 % -2.64 C
978 27-02-2003 10:44:10 4.2 C 61 % -2.64 C
979 27-02-2003 10:47:10 4.6 C 59 % -2.71 C
980 27-02-2003 10:50:10 4.6 C 59 % -2.71 C
981 27-02-2003 10:53:10 5.1 C 57 % -2.7 C
982 27-02-2003 10:56:10 5.1 C 57 % -2.7 C
983 27-02-2003 10:59:10 5.3 C 57 % -2.51 C
984 27-02-2003 11:02:10 5.3 C 57 % -2.51 C
985 27-02-2003 11:05:10 5.4 C 57 % -2.42 C
986 27-02-2003 11:08:10 5.4 C 57 % -2.42 C
987 27-02-2003 11:11:10 5.6 C 58 % -2 C
988 27-02-2003 11:14:10 5.6 C 58 % -2 C
989 27-02-2003 11:17:10 5.8 C 57 % -2.04 C
990 27-02-2003 11:20:10 5.8 C 57 % -2.04 C
991 27-02-2003 11:23:10 5.9 C 57 % -1.95 C
992 27-02-2003 11:26:10 5.9 C 57 % -1.95 C
993 27-02-2003 11:29:10 6.3 C 55 % -2.06 C
994 27-02-2003 11:32:10 6.3 C 55 % -2.06 C
995 27-02-2003 11:35:10 6.5 C 54 % -2.12 C
996 27-02-2003 11:38:10 6.5 C 54 % -2.12 C
997 27-02-2003 11:41:10 7.1 C 50 % -2.6 C
998 27-02-2003 11:44:10 7.1 C 50 % -2.6 C
999 27-02-2003 11:47:10 7.5 C 50 % -2.23 C
1000 27-02-2003 11:50:10 7.5 C 50 % -2.23 C
Sensor: Nr:Datum:Temp:Feuchte:Taupunkt:
Aussen-T/F 1001 27-02-2003 11:53:10 7.6 C 49 % -2.41 C
1002 27-02-2003 11:56:10 7.6 C 49 % -2.41 C
1003 27-02-2003 11:59:10 8.2 C 48 % -2.14 C
1004 27-02-2003 12:02:10 8.2 C 48 % -2.14 C
1005 27-02-2003 12:05:00 8.7 C 47 % -1.97 C
1006 27-02-2003 12:08:10 8.7 C 47 % -1.97 C
1007 27-02-2003 12:11:00 9.1 C 46 % -1.89 C
1008 27-02-2003 12:14:10 9.1 C 46 % -1.89 C
1009 27-02-2003 12:17:00 9.5 C 45 % -1.82 C
1010 27-02-2003 12:20:10 9.5 C 45 % -1.82 C
1011 27-02-2003 12:23:00 9.8 C 44 % -1.86 C
1012 27-02-2003 12:26:10 9.8 C 44 % -1.86 C
1013 27-02-2003 12:29:00 10.1 C 42 % -2.21 C
1014 27-02-2003 12:32:10 10.1 C 42 % -2.21 C
1015 27-02-2003 12:35:00 10.4 C 42 % -1.94 C
1016 27-02-2003 12:38:10 10.4 C 42 % -1.94 C
1017 27-02-2003 12:41:00 10.3 C 43 % -1.71 C
1018 27-02-2003 12:44:10 10.3 C 43 % -1.71 C
1019 27-02-2003 12:47:00 10.4 C 44 % -1.31 C
1020 27-02-2003 12:50:10 10.4 C 44 % -1.31 C
1021 27-02-2003 12:53:00 10.6 C 44 % -1.13 C
1022 27-02-2003 12:56:10 10.6 C 44 % -1.13 C
1023 27-02-2003 12:59:00 10.9 C 44 % -0.86 C
1024 27-02-2003 13:02:10 10.9 C 44 % -0.86 C
1025 27-02-2003 13:05:19 11.2 C 42 % -1.22 C
Sensor: Nr:Datum:Temp:Feuchte:Taupunkt:
Aussen-T/F 1026 27-02-2003 13:08:10 11.2 C 42 % -1.22 C
1027 27-02-2003 13:11:15 11.5 C 42 % -0.95 C
1028 27-02-2003 13:14:10 11.5 C 42 % -0.95 C
1029 27-02-2003 13:17:15 12.1 C 42 % -0.41 C
1030 27-02-2003 13:20:10 12.1 C 42 % -0.41 C
1031 27-02-2003 13:23:15 12.7 C 40 % -0.53 C
1032 27-02-2003 13:26:10 12.7 C 40 % -0.53 C
1033 27-02-2003 13:29:15 13.4 C 35 % -1.73 C
1034 27-02-2003 13:32:10 13.4 C 35 % -1.73 C
1035 27-02-2003 13:35:15 13.6 C 34 % -1.95 C
1036 27-02-2003 13:38:10 13.6 C 34 % -1.95 C
1037 27-02-2003 13:41:16 13.5 C 36 % -1.26 C
1038 27-02-2003 13:44:10 13.5 C 36 % -1.26 C
1039 27-02-2003 13:47:15 13.9 C 36 % -0.9 C
1040 27-02-2003 13:50:10 13.9 C 36 % -0.9 C
1041 27-02-2003 13:53:10 14 C 36 % -0.82 C
1042 27-02-2003 13:56:10 14 C 36 % -0.82 C
1043 27-02-2003 13:59:10 14.8 C 33 % -1.3 C
1044 27-02-2003 14:02:10 14.8 C 33 % -1.3 C
1045 27-02-2003 14:05:10 15.5 C 30 % -1.98 C
1046 27-02-2003 14:08:10 15.5 C 30 % -1.98 C
1047 27-02-2003 14:11:10 16 C 29 % -2 C
1048 27-02-2003 14:14:10 16 C 29 % -2 C
1049 27-02-2003 14:17:10 16.2 C 29 % -1.83 C
1050 27-02-2003 14:20:10 16.2 C 29 % -1.83 C
Sensor: Nr:Datum:Temp:Feuchte:Taupunkt:
Aussen-T/F 1051 27-02-2003 14:23:10 16.6 C 30 % -1.02 C
1052 27-02-2003 14:26:10 16.6 C 30 % -1.02 C
1053 27-02-2003 14:29:10 16.9 C 30 % -0.76 C
1054 27-02-2003 14:32:10 16.9 C 30 % -0.76 C
1055 27-02-2003 14:35:10 17.1 C 30 % -0.59 C
1056 27-02-2003 14:38:10 17.1 C 30 % -0.59 C
1057 27-02-2003 14:41:10 16.8 C 31 % -0.4 C
1058 27-02-2003 14:44:10 16.8 C 31 % -0.4 C
1059 27-02-2003 14:47:10 16.7 C 31 % -0.49 C
1060 27-02-2003 14:50:10 16.7 C 31 % -0.49 C
1061 27-02-2003 14:53:10 16.9 C 31 % -0.32 C
1062 27-02-2003 14:56:10 16.9 C 31 % -0.32 C
1063 27-02-2003 14:59:10 17 C 30 % -0.68 C
1064 27-02-2003 15:02:10 17 C 30 % -0.68 C
1065 27-02-2003 15:05:10 17.3 C 30 % -0.42 C
1066 27-02-2003 15:08:10 17.3 C 30 % -0.42 C
1067 27-02-2003 15:11:10 17.5 C 31 % 0.2 C
1068 27-02-2003 15:14:10 17.5 C 31 % 0.2 C
1069 27-02-2003 15:17:10 17.7 C 30 % -0.07 C
1070 27-02-2003 15:20:10 17.7 C 30 % -0.07 C
1071 27-02-2003 15:23:10 17.8 C 29 % -0.45 C
1072 27-02-2003 15:26:10 17.8 C 29 % -0.45 C
1073 27-02-2003 15:29:10 18 C 30 % 0.19 C
1074 27-02-2003 15:32:10 18 C 30 % 0.19 C
1075 27-02-2003 15:35:10 17.7 C 30 % -0.07 C
Sensor: Nr:Datum:Temp:Feuchte:Taupunkt:
Aussen-T/F 1076 27-02-2003 15:38:10 17.7 C 30 % -0.07 C
1077 27-02-2003 15:41:10 17.8 C 29 % -0.45 C
1078 27-02-2003 15:44:10 17.8 C 29 % -0.45 C
1079 27-02-2003 15:47:10 18.1 C 29 % -0.19 C
1080 27-02-2003 15:50:10 18.1 C 29 % -0.19 C
1081 27-02-2003 15:53:10 18.2 C 31 % 0.81 C
1082 27-02-2003 15:56:10 18.2 C 31 % 0.81 C
1083 27-02-2003 15:59:10 18.2 C 29 % -0.11 C
1084 27-02-2003 16:02:10 18.2 C 29 % -0.11 C
1085 27-02-2003 16:05:53 17.6 C 31 % 0.29 C
1086 27-02-2003 16:08:10 17.6 C 31 % 0.29 C
1087 27-02-2003 16:11:53 17.7 C 31 % 0.38 C
1088 27-02-2003 16:14:10 17.7 C 31 % 0.38 C
1089 27-02-2003 16:17:53 17.7 C 30 % -0.07 C
1090 27-02-2003 16:20:10 17.7 C 30 % -0.07 C
1091 27-02-2003 16:23:53 16.8 C 31 % -0.4 C
1092 27-02-2003 16:26:10 16.8 C 31 % -0.4 C
1093 27-02-2003 16:29:53 15.6 C 33 % -0.6 C
1094 27-02-2003 16:32:10 15.6 C 33 % -0.6 C
1095 27-02-2003 16:35:53 14.8 C 36 % -0.11 C
1096 27-02-2003 16:38:10 14.8 C 36 % -0.11 C
1097 27-02-2003 16:41:53 14.2 C 37 % -0.26 C
1098 27-02-2003 16:44:10 14.2 C 37 % -0.26 C
1099 27-02-2003 16:47:53 13.8 C 40 % 0.45 C
1100 27-02-2003 16:50:10 13.8 C 40 % 0.45 C
Sensor: Nr:Datum:Temp:Feuchte:Taupunkt:
Aussen-T/F 1101 27-02-2003 16:53:53 13.7 C 40 % 0.36 C
1102 27-02-2003 16:56:10 13.7 C 40 % 0.36 C
1103 27-02-2003 16:59:53 13.5 C 41 % 0.52 C
1104 27-02-2003 17:02:10 13.5 C 41 % 0.52 C
1105 27-02-2003 17:05:53 13.3 C 41 % 0.34 C
1106 27-02-2003 17:08:10 13.3 C 41 % 0.34 C
1107 27-02-2003 17:12:10 13.1 C 43 % 0.82 C
1108 27-02-2003 17:14:10 13.1 C 43 % 0.82 C
1109 27-02-2003 17:18:10 13 C 41 % 0.07 C
1110 27-02-2003 17:20:10 13 C 41 % 0.07 C
1111 27-02-2003 17:24:10 12.8 C 44 % 0.87 C
1112 27-02-2003 17:26:10 12.8 C 44 % 0.87 C
1113 27-02-2003 17:30:10 12.8 C 44 % 0.87 C
1114 27-02-2003 17:32:10 12.8 C 44 % 0.87 C
1115 27-02-2003 17:36:10 12.9 C 44 % 0.96 C
1116 27-02-2003 17:38:10 12.9 C 44 % 0.96 C
1117 27-02-2003 17:48:10 12.7 C 45 % 1.09 C
1118 27-02-2003 17:50:10 12.7 C 45 % 1.09 C
1119 27-02-2003 17:54:10 12.4 C 46 % 1.12 C
1120 27-02-2003 17:56:10 12.4 C 46 % 1.12 C
1121 27-02-2003 18:00:10 12.1 C 46 % 0.85 C
1122 27-02-2003 18:02:10 12.1 C 46 % 0.85 C
1123 27-02-2003 18:06:10 11.8 C 47 % 0.87 C
1124 27-02-2003 18:08:10 11.8 C 47 % 0.87 C
1125 27-02-2003 18:12:10 11.6 C 48 % 0.98 C
Sensor: Nr:Datum:Temp:Feuchte:Taupunkt:
Aussen-T/F 1126 27-02-2003 18:14:10 11.6 C 48 % 0.98 C
1127 27-02-2003 18:18:10 11.4 C 48 % 0.79 C
1128 27-02-2003 18:20:10 11.4 C 48 % 0.79 C
1129 27-02-2003 18:24:10 11.1 C 49 % 0.8 C
1130 27-02-2003 18:26:10 11.1 C 49 % 0.8 C
1131 27-02-2003 18:30:10 11 C 49 % 0.71 C
1132 27-02-2003 18:32:10 11 C 49 % 0.71 C
1133 27-02-2003 18:36:10 10.7 C 50 % 0.72 C
1134 27-02-2003 18:38:10 10.7 C 50 % 0.72 C
1135 27-02-2003 18:42:10 10.6 C 50 % 0.62 C
1136 27-02-2003 18:44:10 10.6 C 50 % 0.62 C
1137 27-02-2003 18:48:10 10.4 C 51 % 0.71 C
1138 27-02-2003 18:50:10 10.4 C 51 % 0.71 C
1139 27-02-2003 18:54:10 10.2 C 51 % 0.53 C
1140 27-02-2003 18:56:10 10.2 C 51 % 0.53 C
1141 27-02-2003 19:00:10 10 C 51 % 0.34 C
1142 27-02-2003 19:02:10 10 C 51 % 0.34 C
1143 27-02-2003 19:06:10 9.8 C 53 % 0.69 C
1144 27-02-2003 19:08:10 9.8 C 53 % 0.69 C
1145 27-02-2003 19:12:10 9.7 C 53 % 0.6 C
1146 27-02-2003 19:14:10 9.7 C 53 % 0.6 C
1147 27-02-2003 19:18:10 9.4 C 55 % 0.83 C
1148 27-02-2003 19:20:10 9.4 C 55 % 0.83 C
1149 27-02-2003 19:24:10 9.1 C 55 % 0.55 C
1150 27-02-2003 19:26:10 9.1 C 55 % 0.55 C
Sensor: Nr:Datum:Temp:Feuchte:Taupunkt:
Aussen-T/F 1151 27-02-2003 19:30:10 9 C 56 % 0.71 C
1152 27-02-2003 19:32:10 9 C 56 % 0.71 C
1153 27-02-2003 19:36:10 8.9 C 57 % 0.86 C
1154 27-02-2003 19:38:10 8.9 C 57 % 0.86 C
1155 27-02-2003 19:42:10 9.3 C 56 % 0.99 C
1156 27-02-2003 19:44:10 9.3 C 56 % 0.99 C
1157 27-02-2003 19:48:10 9.2 C 55 % 0.64 C
1158 27-02-2003 19:50:10 9.2 C 55 % 0.64 C
1159 27-02-2003 19:54:10 9 C 56 % 0.71 C
1160 27-02-2003 19:56:10 9 C 56 % 0.71 C
1161 27-02-2003 20:00:10 9 C 56 % 0.71 C
1162 27-02-2003 20:02:10 9 C 56 % 0.71 C
1163 27-02-2003 20:06:10 8.7 C 57 % 0.67 C
1164 27-02-2003 20:08:10 8.7 C 57 % 0.67 C
1165 27-02-2003 20:12:10 8.2 C 59 % 0.68 C
1166 27-02-2003 20:14:10 8.2 C 59 % 0.68 C
1167 27-02-2003 20:18:10 8 C 59 % 0.49 C
1168 27-02-2003 20:20:10 8 C 59 % 0.49 C
1169 27-02-2003 20:24:10 7.8 C 60 % 0.53 C
1170 27-02-2003 20:26:10 7.8 C 60 % 0.53 C
1171 27-02-2003 20:30:10 7.5 C 60 % 0.25 C
1172 27-02-2003 20:32:10 7.5 C 60 % 0.25 C
1173 27-02-2003 20:36:10 7.4 C 61 % 0.38 C
1174 27-02-2003 20:38:10 7.4 C 61 % 0.38 C
1175 27-02-2003 20:42:10 7.1 C 62 % 0.33 C
Sensor: Nr:Datum:Temp:Feuchte:Taupunkt:
Aussen-T/F 1176 27-02-2003 20:44:10 7.1 C 62 % 0.33 C
1177 27-02-2003 20:48:10 7 C 62 % 0.23 C
1178 27-02-2003 20:50:10 7 C 62 % 0.23 C
1179 27-02-2003 20:54:10 6.7 C 64 % 0.38 C
1180 27-02-2003 20:56:10 6.7 C 64 % 0.38 C
1181 27-02-2003 21:00:10 6.4 C 65 % 0.31 C
1182 27-02-2003 21:02:10 6.4 C 65 % 0.31 C
1183 27-02-2003 21:06:10 6.2 C 65 % 0.12 C
1184 27-02-2003 21:08:10 6.2 C 65 % 0.12 C
1185 27-02-2003 21:12:10 6 C 66 % 0.14 C
1186 27-02-2003 21:14:10 6 C 66 % 0.14 C
1187 27-02-2003 21:18:10 5.8 C 68 % 0.36 C
1188 27-02-2003 21:20:10 5.8 C 68 % 0.36 C
1189 27-02-2003 21:24:10 5.7 C 68 % 0.27 C
1190 27-02-2003 21:26:10 5.7 C 68 % 0.27 C
1191 27-02-2003 21:30:10 5.6 C 69 % 0.37 C
1192 27-02-2003 21:32:10 5.6 C 69 % 0.37 C
1193 27-02-2003 21:36:10 5.4 C 69 % 0.18 C
1194 27-02-2003 21:38:10 5.4 C 69 % 0.18 C
1195 27-02-2003 21:42:10 5.4 C 70 % 0.38 C
1196 27-02-2003 21:44:10 5.4 C 70 % 0.38 C
1197 27-02-2003 21:48:10 5.4 C 70 % 0.38 C
1198 27-02-2003 21:50:10 5.4 C 70 % 0.38 C
1199 27-02-2003 21:54:10 5.2 C 70 % 0.19 C
1200 27-02-2003 21:56:10 5.2 C 70 % 0.19 C
Sensor: Nr:Datum:Temp:Feuchte:Taupunkt:
Aussen-T/F 1201 27-02-2003 22:00:10 5 C 70 % 0 C
1202 27-02-2003 22:02:10 5 C 70 % 0 C
1203 27-02-2003 22:06:10 4.9 C 71 % 0.09 C
1204 27-02-2003 22:08:10 4.9 C 71 % 0.09 C
1205 27-02-2003 22:12:10 4.8 C 73 % 0.38 C
1206 27-02-2003 22:14:10 4.8 C 73 % 0.38 C
1207 27-02-2003 22:18:10 4.7 C 72 % 0.09 C
1208 27-02-2003 22:20:10 4.7 C 72 % 0.09 C
1209 27-02-2003 22:24:10 4.7 C 73 % 0.28 C
1210 27-02-2003 22:26:10 4.7 C 73 % 0.28 C
1211 27-02-2003 22:30:10 4.7 C 73 % 0.28 C
1212 27-02-2003 22:32:10 4.7 C 73 % 0.28 C
1213 27-02-2003 22:36:10 4.6 C 72 % 0 C
1214 27-02-2003 22:38:10 4.6 C 72 % 0 C
1215 27-02-2003 22:42:10 4.5 C 72 % -0.1 C
1216 27-02-2003 22:44:10 4.5 C 72 % -0.1 C
1217 27-02-2003 22:48:10 4.3 C 73 % -0.1 C
1218 27-02-2003 22:50:10 4.3 C 73 % -0.1 C
1219 27-02-2003 22:54:10 4.2 C 73 % -0.2 C
1220 27-02-2003 22:56:10 4.2 C 73 % -0.2 C
1221 27-02-2003 23:00:10 4.2 C 74 % -0.01 C
1222 27-02-2003 23:02:10 4.2 C 74 % -0.01 C
1223 27-02-2003 23:06:10 4.3 C 74 % 0.09 C
1224 27-02-2003 23:08:10 4.3 C 74 % 0.09 C
1225 27-02-2003 23:12:10 4.3 C 73 % -0.1 C
Sensor: Nr:Datum:Temp:Feuchte:Taupunkt:
Aussen-T/F 1226 27-02-2003 23:14:10 4.3 C 73 % -0.1 C
1227 27-02-2003 23:18:10 4.4 C 73 % 0 C
1228 27-02-2003 23:20:10 4.4 C 73 % 0 C
1229 27-02-2003 23:24:10 4.4 C 72 % -0.19 C
1230 27-02-2003 23:26:10 4.4 C 72 % -0.19 C
1231 27-02-2003 23:30:10 4.3 C 72 % -0.29 C
1232 27-02-2003 23:32:10 4.3 C 72 % -0.29 C
1233 27-02-2003 23:36:10 4.3 C 72 % -0.29 C
1234 27-02-2003 23:38:10 4.3 C 72 % -0.29 C
1235 27-02-2003 23:42:10 4.4 C 73 % 0 C
1236 27-02-2003 23:44:10 4.4 C 73 % 0 C
1237 27-02-2003 23:48:10 4.4 C 73 % 0 C
1238 27-02-2003 23:50:10 4.4 C 73 % 0 C
1239 27-02-2003 23:54:10 4.5 C 73 % 0.09 C
1240 27-02-2003 23:56:10 4.5 C 73 % 0.09 C
1241 28-02-2003 00:00:10 4.4 C 72 % -0.19 C
1242 28-02-2003 00:02:10 4.4 C 72 % -0.19 C
1243 28-02-2003 00:06:10 4.3 C 72 % -0.29 C
1244 28-02-2003 00:08:10 4.3 C 72 % -0.29 C
1245 28-02-2003 00:12:10 4 C 73 % -0.39 C
1246 28-02-2003 00:14:10 4 C 73 % -0.39 C
1247 28-02-2003 00:18:10 3.8 C 74 % -0.4 C
1248 28-02-2003 00:20:10 3.8 C 74 % -0.4 C
1249 28-02-2003 00:24:10 3.8 C 75 % -0.21 C
1250 28-02-2003 00:26:10 3.8 C 75 % -0.21 C
Sensor: Nr:Datum:Temp:Feuchte:Taupunkt:
Aussen-T/F 1251 28-02-2003 00:30:10 3.8 C 75 % -0.21 C
1252 28-02-2003 00:32:10 3.8 C 75 % -0.21 C
1253 28-02-2003 00:36:10 3.7 C 75 % -0.31 C
1254 28-02-2003 00:38:10 3.7 C 75 % -0.31 C
1255 28-02-2003 00:42:10 3.6 C 75 % -0.41 C
1256 28-02-2003 00:44:10 3.6 C 75 % -0.41 C
1257 28-02-2003 00:48:10 3.5 C 75 % -0.5 C
1258 28-02-2003 00:50:10 3.5 C 75 % -0.5 C
1259 28-02-2003 00:54:10 3.5 C 75 % -0.5 C
1260 28-02-2003 00:56:10 3.5 C 75 % -0.5 C
1261 28-02-2003 01:00:10 3.6 C 75 % -0.41 C
1262 28-02-2003 01:02:10 3.6 C 75 % -0.41 C
1263 28-02-2003 01:06:10 3.6 C 76 % -0.22 C
1264 28-02-2003 01:08:10 3.6 C 76 % -0.22 C
1265 28-02-2003 01:12:10 3.4 C 76 % -0.42 C
1266 28-02-2003 01:14:10 3.4 C 76 % -0.42 C
1267 28-02-2003 01:18:10 3.4 C 76 % -0.42 C
1268 28-02-2003 01:20:10 3.4 C 76 % -0.42 C
1269 28-02-2003 01:24:10 3.6 C 76 % -0.22 C
1270 28-02-2003 01:26:10 3.6 C 76 % -0.22 C
1271 28-02-2003 01:30:10 3.7 C 76 % -0.13 C
1272 28-02-2003 01:32:10 3.7 C 76 % -0.13 C
1273 28-02-2003 01:36:10 3.8 C 76 % -0.03 C
1274 28-02-2003 01:38:10 3.8 C 76 % -0.03 C
1275 28-02-2003 01:42:10 3.8 C 75 % -0.21 C
Sensor: Nr:Datum:Temp:Feuchte:Taupunkt:
Aussen-T/F 1276 28-02-2003 01:44:10 3.8 C 75 % -0.21 C
1277 28-02-2003 01:48:10 4 C 74 % -0.2 C
1278 28-02-2003 01:50:10 4 C 74 % -0.2 C
1279 28-02-2003 01:54:10 4 C 74 % -0.2 C
1280 28-02-2003 01:56:10 4 C 74 % -0.2 C
1281 28-02-2003 02:00:10 4.1 C 73 % -0.29 C
1282 28-02-2003 02:02:10 4.1 C 73 % -0.29 C
1283 28-02-2003 02:06:10 3.8 C 74 % -0.4 C
1284 28-02-2003 02:08:10 3.8 C 74 % -0.4 C
1285 28-02-2003 02:12:10 3.8 C 75 % -0.21 C
1286 28-02-2003 02:14:10 3.8 C 75 % -0.21 C
1287 28-02-2003 02:18:10 3.8 C 75 % -0.21 C
1288 28-02-2003 02:20:10 3.8 C 75 % -0.21 C
1289 28-02-2003 02:24:10 3.9 C 75 % -0.12 C
1290 28-02-2003 02:26:10 3.9 C 75 % -0.12 C
1291 28-02-2003 02:30:10 3.8 C 75 % -0.21 C
1292 28-02-2003 02:32:10 3.8 C 75 % -0.21 C
1293 28-02-2003 02:36:10 3.7 C 75 % -0.31 C
1294 28-02-2003 02:38:10 3.7 C 75 % -0.31 C
1295 28-02-2003 02:42:10 3.6 C 75 % -0.41 C
1296 28-02-2003 02:44:10 3.6 C 75 % -0.41 C
1297 28-02-2003 02:48:10 3.5 C 75 % -0.5 C
1298 28-02-2003 02:50:10 3.5 C 75 % -0.5 C
1299 28-02-2003 02:54:10 3.4 C 75 % -0.6 C
1300 28-02-2003 02:56:10 3.4 C 75 % -0.6 C
Sensor: Nr:Datum:Temp:Feuchte:Taupunkt:
Aussen-T/F 1301 28-02-2003 03:00:10 3.3 C 76 % -0.52 C
1302 28-02-2003 03:02:10 3.3 C 76 % -0.52 C
1303 28-02-2003 03:06:10 3.2 C 76 % -0.61 C
1304 28-02-2003 03:08:10 3.2 C 76 % -0.61 C
1305 28-02-2003 03:12:10 3.1 C 77 % -0.53 C
1306 28-02-2003 03:14:10 3.1 C 77 % -0.53 C
1307 28-02-2003 03:18:10 3.2 C 78 % -0.26 C
1308 28-02-2003 03:20:10 3.2 C 78 % -0.26 C
1309 28-02-2003 03:24:10 3.4 C 77 % -0.24 C
1310 28-02-2003 03:26:10 3.4 C 77 % -0.24 C
1311 28-02-2003 03:30:10 3.4 C 77 % -0.24 C
1312 28-02-2003 03:32:10 3.4 C 77 % -0.24 C
1313 28-02-2003 03:36:10 3.5 C 76 % -0.32 C
1314 28-02-2003 03:38:10 3.5 C 76 % -0.32 C
1315 28-02-2003 03:42:10 3.5 C 76 % -0.32 C
1316 28-02-2003 03:44:10 3.5 C 76 % -0.32 C
1317 28-02-2003 03:48:10 3.6 C 76 % -0.22 C
1318 28-02-2003 03:50:10 3.6 C 76 % -0.22 C
1319 28-02-2003 03:54:10 3.5 C 75 % -0.5 C
1320 28-02-2003 03:56:10 3.5 C 75 % -0.5 C
1321 28-02-2003 04:00:10 3.4 C 76 % -0.42 C
1322 28-02-2003 04:02:10 3.4 C 76 % -0.42 C
1323 28-02-2003 04:06:10 3.4 C 76 % -0.42 C
1324 28-02-2003 04:08:10 3.4 C 76 % -0.42 C
1325 28-02-2003 04:12:10 3.2 C 76 % -0.61 C
Sensor: Nr:Datum:Temp:Feuchte:Taupunkt:
Aussen-T/F 1326 28-02-2003 04:14:10 3.2 C 76 % -0.61 C
1327 28-02-2003 04:18:10 2.9 C 77 % -0.72 C
1328 28-02-2003 04:20:10 2.9 C 77 % -0.72 C
1329 28-02-2003 04:24:10 2.9 C 78 % -0.55 C
1330 28-02-2003 04:26:10 2.9 C 78 % -0.55 C
1331 28-02-2003 04:30:10 3 C 78 % -0.45 C
1332 28-02-2003 04:32:10 3 C 78 % -0.45 C
1333 28-02-2003 04:36:10 3.1 C 78 % -0.35 C
1334 28-02-2003 04:38:10 3.1 C 78 % -0.35 C
1335 28-02-2003 04:42:10 3.3 C 77 % -0.34 C
1336 28-02-2003 04:44:10 3.3 C 77 % -0.34 C
1337 28-02-2003 04:48:10 3.3 C 77 % -0.34 C
1338 28-02-2003 04:50:10 3.3 C 77 % -0.34 C
1339 28-02-2003 04:54:10 3.3 C 77 % -0.34 C
1340 28-02-2003 04:56:10 3.3 C 77 % -0.34 C
1341 28-02-2003 05:00:10 3.4 C 77 % -0.24 C
1342 28-02-2003 05:02:10 3.4 C 77 % -0.24 C
1343 28-02-2003 05:06:10 3.5 C 76 % -0.32 C
1344 28-02-2003 05:08:10 3.5 C 76 % -0.32 C
1345 28-02-2003 05:12:10 3.5 C 76 % -0.32 C
1346 28-02-2003 05:14:10 3.5 C 76 % -0.32 C
1347 28-02-2003 05:18:10 3.5 C 76 % -0.32 C
1348 28-02-2003 05:20:10 3.5 C 76 % -0.32 C
1349 28-02-2003 05:24:10 3.6 C 76 % -0.22 C
1350 28-02-2003 05:26:10 3.6 C 76 % -0.22 C
Sensor: Nr:Datum:Temp:Feuchte:Taupunkt:
Aussen-T/F 1351 28-02-2003 05:30:10 3.5 C 76 % -0.32 C
1352 28-02-2003 05:32:10 3.5 C 76 % -0.32 C
1353 28-02-2003 05:36:10 3.5 C 76 % -0.32 C
1354 28-02-2003 05:38:10 3.5 C 76 % -0.32 C
1355 28-02-2003 05:42:10 3.4 C 76 % -0.42 C
1356 28-02-2003 05:44:10 3.4 C 76 % -0.42 C
1357 28-02-2003 05:48:10 3.4 C 76 % -0.42 C
1358 28-02-2003 05:50:10 3.4 C 76 % -0.42 C
1359 28-02-2003 05:54:10 3.4 C 76 % -0.42 C
1360 28-02-2003 05:56:10 3.4 C 76 % -0.42 C
1361 28-02-2003 06:00:10 3.5 C 76 % -0.32 C
1362 28-02-2003 06:02:10 3.5 C 76 % -0.32 C
1363 28-02-2003 06:06:10 3.5 C 76 % -0.32 C
1364 28-02-2003 06:08:10 3.5 C 76 % -0.32 C
1365 28-02-2003 06:12:10 3.5 C 76 % -0.32 C
1366 28-02-2003 06:14:10 3.5 C 76 % -0.32 C
1367 28-02-2003 06:18:10 3.5 C 76 % -0.32 C
1368 28-02-2003 06:20:10 3.5 C 76 % -0.32 C
1369 28-02-2003 06:24:10 3.5 C 76 % -0.32 C
1370 28-02-2003 06:26:10 3.5 C 76 % -0.32 C
1371 28-02-2003 06:30:10 3.5 C 76 % -0.32 C
1372 28-02-2003 06:32:10 3.5 C 76 % -0.32 C
1373 28-02-2003 06:36:10 3.5 C 76 % -0.32 C
1374 28-02-2003 06:38:10 3.5 C 76 % -0.32 C
1375 28-02-2003 06:42:10 3.5 C 76 % -0.32 C
Sensor: Nr:Datum:Temp:Feuchte:Taupunkt:
Aussen-T/F 1376 28-02-2003 06:44:10 3.5 C 76 % -0.32 C
1377 28-02-2003 06:48:10 3.4 C 76 % -0.42 C
1378 28-02-2003 06:50:10 3.4 C 76 % -0.42 C
1379 28-02-2003 06:54:10 3.4 C 76 % -0.42 C
1380 28-02-2003 06:56:10 3.4 C 76 % -0.42 C
1381 28-02-2003 07:00:10 3.4 C 76 % -0.42 C
1382 28-02-2003 07:02:10 3.4 C 76 % -0.42 C
1383 28-02-2003 07:06:10 3.4 C 77 % -0.24 C
1384 28-02-2003 07:08:10 3.4 C 77 % -0.24 C
1385 28-02-2003 07:12:10 3.4 C 77 % -0.24 C
1386 28-02-2003 07:14:10 3.4 C 77 % -0.24 C
1387 28-02-2003 07:18:10 3.4 C 77 % -0.24 C
1388 28-02-2003 07:20:10 3.4 C 77 % -0.24 C
1389 28-02-2003 07:24:10 3.4 C 77 % -0.24 C
1390 28-02-2003 07:26:10 3.4 C 77 % -0.24 C
1391 28-02-2003 07:30:10 3.4 C 77 % -0.24 C
1392 28-02-2003 07:32:10 3.4 C 77 % -0.24 C
1393 28-02-2003 07:36:10 3.5 C 77 % -0.14 C
1394 28-02-2003 07:38:10 3.5 C 77 % -0.14 C
1395 28-02-2003 07:42:10 3.5 C 77 % -0.14 C
1396 28-02-2003 07:44:10 3.5 C 77 % -0.14 C
1397 28-02-2003 07:48:10 3.5 C 77 % -0.14 C
1398 28-02-2003 07:50:10 3.5 C 77 % -0.14 C
1399 28-02-2003 07:54:10 3.6 C 77 % -0.05 C
1400 28-02-2003 07:56:10 3.6 C 77 % -0.05 C
Sensor: Nr:Datum:Temp:Feuchte:Taupunkt:
Aussen-T/F 1401 28-02-2003 08:00:10 3.7 C 77 % 0.05 C
1402 28-02-2003 08:02:10 3.7 C 77 % 0.05 C
1403 28-02-2003 08:06:10 3.7 C 76 % -0.13 C
1404 28-02-2003 08:08:10 3.7 C 76 % -0.13 C
1405 28-02-2003 08:12:10 3.7 C 76 % -0.13 C
1406 28-02-2003 08:14:10 3.7 C 76 % -0.13 C
1407 28-02-2003 08:18:10 3.8 C 76 % -0.03 C
1408 28-02-2003 08:20:10 3.8 C 76 % -0.03 C
1409 28-02-2003 08:24:10 3.8 C 76 % -0.03 C
1410 28-02-2003 08:26:10 3.8 C 76 % -0.03 C
1411 28-02-2003 08:30:10 3.8 C 76 % -0.03 C
1412 28-02-2003 08:32:10 3.8 C 76 % -0.03 C
1413 28-02-2003 08:36:10 3.9 C 75 % -0.12 C
1414 28-02-2003 08:38:10 3.9 C 75 % -0.12 C
1415 28-02-2003 08:42:10 4 C 74 % -0.2 C
1416 28-02-2003 08:44:10 4 C 74 % -0.2 C
1417 28-02-2003 08:48:10 4.3 C 74 % 0.09 C
1418 28-02-2003 08:50:10 4.3 C 74 % 0.09 C
1419 28-02-2003 08:54:10 4.2 C 74 % -0.01 C
1420 28-02-2003 08:56:10 4.2 C 74 % -0.01 C
1421 28-02-2003 09:00:10 4.3 C 74 % 0.09 C
1422 28-02-2003 09:02:10 4.3 C 74 % 0.09 C
1423 28-02-2003 09:06:10 4.3 C 74 % 0.09 C
1424 28-02-2003 09:08:10 4.3 C 74 % 0.09 C
1425 28-02-2003 09:12:10 4.4 C 74 % 0.18 C
Sensor: Nr:Datum:Temp:Feuchte:Taupunkt:
Aussen-T/F 1426 28-02-2003 09:14:10 4.4 C 74 % 0.18 C
1427 28-02-2003 09:18:10 4.4 C 74 % 0.18 C
1428 28-02-2003 09:20:10 4.4 C 74 % 0.18 C
1429 28-02-2003 09:24:10 4.5 C 74 % 0.28 C
1430 28-02-2003 09:26:10 4.5 C 74 % 0.28 C
1431 28-02-2003 09:30:10 4.6 C 74 % 0.38 C
1432 28-02-2003 09:32:10 4.6 C 74 % 0.38 C
1433 28-02-2003 09:36:10 4.7 C 73 % 0.28 C
1434 28-02-2003 09:38:10 4.7 C 73 % 0.28 C
1435 28-02-2003 09:42:10 4.7 C 73 % 0.28 C
1436 28-02-2003 09:44:10 4.7 C 73 % 0.28 C
1437 28-02-2003 09:48:10 4.8 C 72 % 0.19 C
1438 28-02-2003 09:50:10 4.8 C 72 % 0.19 C
1439 28-02-2003 09:54:10 4.9 C 72 % 0.29 C
1440 28-02-2003 09:56:10 4.9 C 72 % 0.29 C
1441 28-02-2003 10:00:10 4.9 C 72 % 0.29 C
1442 28-02-2003 10:02:10 4.9 C 72 % 0.29 C
1443 28-02-2003 10:06:10 5.1 C 71 % 0.29 C
1444 28-02-2003 10:08:10 5.1 C 71 % 0.29 C
1445 28-02-2003 10:12:10 5.3 C 71 % 0.48 C
1446 28-02-2003 10:14:10 5.3 C 71 % 0.48 C
1447 28-02-2003 10:18:10 5.6 C 70 % 0.57 C
1448 28-02-2003 10:20:10 5.6 C 70 % 0.57 C
1449 28-02-2003 10:24:10 5.8 C 70 % 0.76 C
1450 28-02-2003 10:26:10 5.8 C 70 % 0.76 C
Sensor: Nr:Datum:Temp:Feuchte:Taupunkt:
Aussen-T/F 1451 28-02-2003 10:30:10 6 C 68 % 0.55 C
1452 28-02-2003 10:32:10 6 C 68 % 0.55 C
1453 28-02-2003 10:36:10 6.3 C 67 % 0.64 C
1454 28-02-2003 10:38:10 6.3 C 67 % 0.64 C
1455 28-02-2003 10:42:10 6.5 C 66 % 0.62 C
1456 28-02-2003 10:44:10 6.5 C 66 % 0.62 C
1457 28-02-2003 10:48:10 6.9 C 66 % 1 C
1458 28-02-2003 10:50:10 6.9 C 66 % 1 C
1459 28-02-2003 10:54:10 7.1 C 64 % 0.76 C
1460 28-02-2003 10:56:10 7.1 C 64 % 0.76 C
1461 28-02-2003 11:00:10 7.3 C 63 % 0.74 C
1462 28-02-2003 11:02:10 7.3 C 63 % 0.74 C
1463 28-02-2003 11:06:10 7.4 C 62 % 0.61 C
1464 28-02-2003 11:08:10 7.4 C 62 % 0.61 C
1465 28-02-2003 11:12:10 7.6 C 62 % 0.8 C
1466 28-02-2003 11:14:10 7.6 C 62 % 0.8 C
1467 28-02-2003 11:18:10 7.4 C 61 % 0.38 C
1468 28-02-2003 11:20:10 7.4 C 61 % 0.38 C
1469 28-02-2003 11:24:10 7.5 C 62 % 0.7 C
1470 28-02-2003 11:26:10 7.5 C 62 % 0.7 C
1471 28-02-2003 11:30:10 7.9 C 62 % 1.08 C
1472 28-02-2003 11:32:10 7.9 C 62 % 1.08 C
1473 28-02-2003 11:36:10 8 C 60 % 0.72 C
1474 28-02-2003 11:38:10 8 C 60 % 0.72 C
1475 28-02-2003 11:42:10 8.2 C 60 % 0.91 C
Sensor: Nr:Datum:Temp:Feuchte:Taupunkt:
Aussen-T/F 1476 28-02-2003 11:44:10 8.2 C 60 % 0.91 C
1477 28-02-2003 11:48:10 8.4 C 60 % 1.1 C
1478 28-02-2003 11:50:10 8.4 C 60 % 1.1 C
1479 28-02-2003 11:54:10 8.9 C 60 % 1.57 C
1480 28-02-2003 11:56:10 8.9 C 60 % 1.57 C
1481 28-02-2003 12:00:41 9.1 C 59 % 1.52 C
1482 28-02-2003 12:02:10 9.1 C 59 % 1.52 C
1483 28-02-2003 12:06:41 9.5 C 58 % 1.66 C
1484 28-02-2003 12:08:10 9.5 C 58 % 1.66 C
1485 28-02-2003 12:12:41 9.8 C 57 % 1.7 C
1486 28-02-2003 12:14:10 9.8 C 57 % 1.7 C
1487 28-02-2003 12:18:41 10.1 C 56 % 1.73 C
1488 28-02-2003 12:20:10 10.1 C 56 % 1.73 C
1489 28-02-2003 12:24:41 10.3 C 56 % 1.92 C
1490 28-02-2003 12:26:10 10.3 C 56 % 1.92 C
1491 28-02-2003 12:30:41 10.5 C 56 % 2.11 C
1492 28-02-2003 12:32:10 10.5 C 56 % 2.11 C
1493 28-02-2003 12:36:41 10.8 C 56 % 2.39 C
1494 28-02-2003 12:38:10 10.8 C 56 % 2.39 C
1495 28-02-2003 12:42:41 11 C 54 % 2.06 C
1496 28-02-2003 12:44:10 11 C 54 % 2.06 C
1497 28-02-2003 12:48:41 11.3 C 55 % 2.6 C
1498 28-02-2003 12:50:10 11.3 C 55 % 2.6 C
1499 28-02-2003 12:54:41 11.3 C 55 % 2.6 C
1500 28-02-2003 12:56:10 11.3 C 55 % 2.6 C
Sensor: Nr:Datum:Temp:Feuchte:Taupunkt:
Aussen-T/F 1501 28-02-2003 13:00:41 11.4 C 56 % 2.95 C
1502 28-02-2003 13:02:10 11.4 C 56 % 2.95 C
1503 28-02-2003 13:06:41 11.8 C 56 % 3.32 C
1504 28-02-2003 13:08:10 11.8 C 56 % 3.32 C
1505 28-02-2003 13:12:41 12 C 55 % 3.25 C
1506 28-02-2003 13:14:10 12 C 55 % 3.25 C
1507 28-02-2003 13:18:41 12 C 55 % 3.25 C
1508 28-02-2003 13:20:10 12 C 55 % 3.25 C
1509 28-02-2003 13:24:41 12.1 C 54 % 3.09 C
1510 28-02-2003 13:26:10 12.1 C 54 % 3.09 C
1511 28-02-2003 13:30:41 12.3 C 55 % 3.53 C
1512 28-02-2003 13:32:10 12.3 C 55 % 3.53 C
1513 28-02-2003 13:36:41 12.5 C 55 % 3.72 C
1514 28-02-2003 13:38:10 12.5 C 55 % 3.72 C
1515 28-02-2003 13:42:41 12.3 C 55 % 3.53 C
1516 28-02-2003 13:44:10 12.3 C 55 % 3.53 C
1517 28-02-2003 13:48:41 12.7 C 55 % 3.9 C
1518 28-02-2003 13:50:10 12.7 C 55 % 3.9 C
1519 28-02-2003 13:54:41 12.8 C 55 % 4 C
1520 28-02-2003 13:56:10 12.8 C 55 % 4 C
1521 28-02-2003 14:00:11 12.5 C 55 % 3.72 C
1522 28-02-2003 14:02:10 12.5 C 55 % 3.72 C
1523 28-02-2003 14:06:11 12.7 C 56 % 4.16 C
1524 28-02-2003 14:08:10 12.7 C 56 % 4.16 C
1525 28-02-2003 14:12:11 12.7 C 55 % 3.9 C
Sensor: Nr:Datum:Temp:Feuchte:Taupunkt:
Aussen-T/F 1526 28-02-2003 14:14:10 12.7 C 55 % 3.9 C
1527 28-02-2003 14:18:11 12.8 C 55 % 4 C
1528 28-02-2003 14:20:10 12.8 C 55 % 4 C
1529 28-02-2003 14:24:11 12.9 C 55 % 4.09 C
1530 28-02-2003 14:26:10 12.9 C 55 % 4.09 C
1531 28-02-2003 14:30:11 13 C 54 % 3.92 C
1532 28-02-2003 14:32:10 13 C 54 % 3.92 C
1533 28-02-2003 14:36:11 13.1 C 54 % 4.01 C
1534 28-02-2003 14:38:10 13.1 C 54 % 4.01 C
1535 28-02-2003 14:42:11 13.3 C 54 % 4.2 C
1536 28-02-2003 14:44:10 13.3 C 54 % 4.2 C
1537 28-02-2003 14:48:11 13.2 C 54 % 4.11 C
1538 28-02-2003 14:50:10 13.2 C 54 % 4.11 C
1539 28-02-2003 14:54:11 13.7 C 54 % 4.57 C
1540 28-02-2003 14:56:10 13.7 C 54 % 4.57 C
1541 28-02-2003 15:00:11 13.8 C 53 % 4.4 C
1542 28-02-2003 15:02:10 13.8 C 53 % 4.4 C
1543 28-02-2003 15:06:11 13.7 C 53 % 4.31 C
1544 28-02-2003 15:08:10 13.7 C 53 % 4.31 C
1545 28-02-2003 15:12:11 13.7 C 53 % 4.31 C
1546 28-02-2003 15:14:10 13.7 C 53 % 4.31 C
1547 28-02-2003 15:18:11 13.5 C 54 % 4.39 C
1548 28-02-2003 15:20:10 13.5 C 54 % 4.39 C
1549 28-02-2003 15:24:11 14 C 52 % 4.31 C
1550 28-02-2003 15:26:10 14 C 52 % 4.31 C
Sensor: Nr:Datum:Temp:Feuchte:Taupunkt:
Aussen-T/F 1551 28-02-2003 15:30:11 13.6 C 53 % 4.21 C
1552 28-02-2003 15:32:10 13.6 C 53 % 4.21 C
1553 28-02-2003 15:36:11 13.3 C 55 % 4.46 C
1554 28-02-2003 15:38:10 13.3 C 55 % 4.46 C
1555 28-02-2003 15:42:11 12.8 C 57 % 4.5 C
1556 28-02-2003 15:44:10 12.8 C 57 % 4.5 C
1557 28-02-2003 15:48:11 12.9 C 57 % 4.6 C
1558 28-02-2003 15:50:10 12.9 C 57 % 4.6 C
1559 28-02-2003 15:54:11 13.3 C 55 % 4.46 C
1560 28-02-2003 15:56:10 13.3 C 55 % 4.46 C
1561 28-02-2003 16:00:57 13.8 C 54 % 4.66 C
1562 28-02-2003 16:02:10 13.8 C 54 % 4.66 C
1563 28-02-2003 16:06:57 13.5 C 54 % 4.39 C
1564 28-02-2003 16:08:10 13.5 C 54 % 4.39 C
1565 28-02-2003 16:12:57 13.7 C 55 % 4.83 C
1566 28-02-2003 16:14:10 13.7 C 55 % 4.83 C
1567 28-02-2003 16:18:57 13.8 C 54 % 4.66 C
1568 28-02-2003 16:20:10 13.8 C 54 % 4.66 C
1569 28-02-2003 16:24:57 13.6 C 54 % 4.48 C
1570 28-02-2003 16:26:10 13.6 C 54 % 4.48 C
1571 28-02-2003 16:30:57 13.5 C 55 % 4.65 C
1572 28-02-2003 16:32:10 13.5 C 55 % 4.65 C
1573 28-02-2003 16:36:57 13.3 C 55 % 4.46 C
1574 28-02-2003 16:38:10 13.3 C 55 % 4.46 C
1575 28-02-2003 16:42:57 13.2 C 55 % 4.37 C
Sensor: Nr:Datum:Temp:Feuchte:Taupunkt:
Aussen-T/F 1576 28-02-2003 16:44:10 13.2 C 55 % 4.37 C
1577 28-02-2003 16:48:11 13 C 55 % 4.18 C
1578 28-02-2003 16:50:10 13 C 55 % 4.18 C
1579 28-02-2003 16:54:11 12.8 C 57 % 4.5 C
1580 28-02-2003 16:56:10 12.8 C 57 % 4.5 C
1581 28-02-2003 17:00:11 13 C 56 % 4.44 C
1582 28-02-2003 17:02:10 13 C 56 % 4.44 C
1583 28-02-2003 17:06:11 12.9 C 57 % 4.6 C
1584 28-02-2003 17:08:10 12.9 C 57 % 4.6 C
1585 28-02-2003 17:12:11 12.8 C 57 % 4.5 C
1586 28-02-2003 17:14:10 12.8 C 57 % 4.5 C
1587 28-02-2003 17:18:11 12.5 C 58 % 4.47 C
1588 28-02-2003 17:20:10 12.5 C 58 % 4.47 C
1589 28-02-2003 17:24:11 12.3 C 58 % 4.28 C
1590 28-02-2003 17:26:10 12.3 C 58 % 4.28 C
1591 28-02-2003 17:30:11 12.1 C 59 % 4.34 C
1592 28-02-2003 17:32:10 12.1 C 59 % 4.34 C
1593 28-02-2003 17:36:11 11.8 C 60 % 4.3 C
1594 28-02-2003 17:38:10 11.8 C 60 % 4.3 C
1595 28-02-2003 17:42:11 11.2 C 61 % 3.97 C
1596 28-02-2003 17:44:10 11.2 C 61 % 3.97 C
1597 28-02-2003 17:48:11 11.1 C 61 % 3.87 C
1598 28-02-2003 17:50:10 11.1 C 61 % 3.87 C
1599 28-02-2003 17:54:11 10.7 C 63 % 3.95 C
1600 28-02-2003 17:56:10 10.7 C 63 % 3.95 C
Sensor: Nr:Datum:Temp:Feuchte:Taupunkt:
Aussen-T/F 1601 28-02-2003 18:00:11 10.6 C 63 % 3.86 C
1602 28-02-2003 18:02:10 10.6 C 63 % 3.86 C
1603 28-02-2003 18:06:11 10.5 C 63 % 3.77 C
1604 28-02-2003 18:08:10 10.5 C 63 % 3.77 C
1605 28-02-2003 18:12:11 10.4 C 64 % 3.89 C
1606 28-02-2003 18:14:10 10.4 C 64 % 3.89 C
1607 28-02-2003 18:18:11 10.3 C 64 % 3.8 C
1608 28-02-2003 18:20:10 10.3 C 64 % 3.8 C
1609 28-02-2003 18:24:11 10.2 C 63 % 3.48 C
1610 28-02-2003 18:26:10 10.2 C 63 % 3.48 C
1611 28-02-2003 18:30:11 10 C 64 % 3.51 C
1612 28-02-2003 18:32:10 10 C 64 % 3.51 C
1613 28-02-2003 18:36:11 10 C 64 % 3.51 C
1614 28-02-2003 18:38:10 10 C 64 % 3.51 C
1615 28-02-2003 18:42:11 10 C 64 % 3.51 C
1616 28-02-2003 18:44:10 10 C 64 % 3.51 C
1617 28-02-2003 18:48:11 9.9 C 65 % 3.64 C
1618 28-02-2003 18:50:10 9.9 C 65 % 3.64 C
1619 28-02-2003 18:54:11 9.9 C 66 % 3.86 C
1620 28-02-2003 18:56:10 9.9 C 66 % 3.86 C
1621 28-02-2003 19:00:11 9.9 C 66 % 3.86 C
1622 28-02-2003 19:02:10 9.9 C 66 % 3.86 C
1623 28-02-2003 19:06:11 9.8 C 65 % 3.54 C
1624 28-02-2003 19:08:10 9.8 C 65 % 3.54 C
1625 28-02-2003 19:12:11 9.6 C 66 % 3.57 C
Sensor: Nr:Datum:Temp:Feuchte:Taupunkt:
Aussen-T/F 1626 28-02-2003 19:14:10 9.6 C 66 % 3.57 C
1627 28-02-2003 19:24:11 9.1 C 66 % 3.09 C
1628 28-02-2003 19:26:10 9.1 C 66 % 3.09 C
1629 28-02-2003 19:30:11 8.8 C 68 % 3.23 C
1630 28-02-2003 19:32:10 8.8 C 68 % 3.23 C
1631 28-02-2003 19:36:11 8.7 C 69 % 3.34 C
1632 28-02-2003 19:38:10 8.7 C 69 % 3.34 C
1633 28-02-2003 19:42:11 8.5 C 69 % 3.15 C
1634 28-02-2003 19:44:10 8.5 C 69 % 3.15 C
1635 28-02-2003 19:48:11 8.2 C 70 % 3.06 C
1636 28-02-2003 19:50:10 8.2 C 70 % 3.06 C
1637 28-02-2003 19:54:11 8 C 70 % 2.87 C
1638 28-02-2003 19:56:10 8 C 70 % 2.87 C
1639 28-02-2003 20:01:10 7.9 C 72 % 3.17 C
1640 28-02-2003 20:02:10 7.9 C 72 % 3.17 C
1641 28-02-2003 20:07:10 8 C 71 % 3.07 C
1642 28-02-2003 20:08:10 8 C 71 % 3.07 C
1643 28-02-2003 20:13:10 7.8 C 72 % 3.08 C
1644 28-02-2003 20:14:10 7.8 C 72 % 3.08 C
1645 28-02-2003 20:19:10 7.7 C 72 % 2.98 C
1646 28-02-2003 20:20:10 7.7 C 72 % 2.98 C
1647 28-02-2003 20:25:10 7.5 C 73 % 2.98 C
1648 28-02-2003 20:26:10 7.5 C 73 % 2.98 C
1649 28-02-2003 20:31:10 7.3 C 73 % 2.79 C
1650 28-02-2003 20:32:10 7.3 C 73 % 2.79 C
Sensor: Nr:Datum:Temp:Feuchte:Taupunkt:
Aussen-T/F 1651 28-02-2003 20:37:10 7.2 C 73 % 2.69 C
1652 28-02-2003 20:38:10 7.2 C 73 % 2.69 C
1653 28-02-2003 20:43:10 7.1 C 74 % 2.79 C
1654 28-02-2003 20:44:10 7.1 C 74 % 2.79 C
1655 28-02-2003 20:49:10 7 C 74 % 2.69 C
1656 28-02-2003 20:50:10 7 C 74 % 2.69 C
1657 28-02-2003 20:55:10 6.9 C 75 % 2.78 C
1658 28-02-2003 20:56:10 6.9 C 75 % 2.78 C
1659 28-02-2003 21:01:10 6.8 C 75 % 2.69 C
1660 28-02-2003 21:02:10 6.8 C 75 % 2.69 C
1661 28-02-2003 21:07:10 6.7 C 76 % 2.78 C
1662 28-02-2003 21:08:10 6.7 C 76 % 2.78 C
1663 28-02-2003 21:13:10 6.6 C 76 % 2.68 C
1664 28-02-2003 21:14:10 6.6 C 76 % 2.68 C
1665 28-02-2003 21:19:10 6.5 C 77 % 2.77 C
1666 28-02-2003 21:20:10 6.5 C 77 % 2.77 C
1667 28-02-2003 21:25:10 6.4 C 77 % 2.67 C
1668 28-02-2003 21:26:10 6.4 C 77 % 2.67 C
1669 28-02-2003 21:31:10 6.2 C 77 % 2.48 C
1670 28-02-2003 21:32:10 6.2 C 77 % 2.48 C
1671 28-02-2003 21:37:10 6 C 76 % 2.1 C
1672 28-02-2003 21:38:10 6 C 76 % 2.1 C
1673 28-02-2003 21:43:10 5.8 C 78 % 2.27 C
1674 28-02-2003 21:44:10 5.8 C 78 % 2.27 C
1675 28-02-2003 21:49:10 5.7 C 79 % 2.35 C
Sensor: Nr:Datum:Temp:Feuchte:Taupunkt:
Aussen-T/F 1676 28-02-2003 21:50:10 5.7 C 79 % 2.35 C
1677 28-02-2003 21:55:10 5.6 C 79 % 2.25 C
1678 28-02-2003 21:56:10 5.6 C 79 % 2.25 C
1679 28-02-2003 22:01:10 5.6 C 80 % 2.43 C
1680 28-02-2003 22:02:10 5.6 C 80 % 2.43 C
1681 28-02-2003 22:07:10 5.5 C 80 % 2.33 C
1682 28-02-2003 22:08:10 5.5 C 80 % 2.33 C
1683 28-02-2003 22:13:10 5.4 C 81 % 2.41 C
1684 28-02-2003 22:14:10 5.4 C 81 % 2.41 C
1685 28-02-2003 22:19:10 5.4 C 81 % 2.41 C
1686 28-02-2003 22:20:10 5.4 C 81 % 2.41 C
1687 28-02-2003 22:25:10 5.3 C 81 % 2.31 C
1688 28-02-2003 22:26:10 5.3 C 81 % 2.31 C
1689 28-02-2003 22:31:10 5.4 C 82 % 2.58 C
1690 28-02-2003 22:32:10 5.4 C 82 % 2.58 C
1691 28-02-2003 22:37:10 5.4 C 82 % 2.58 C
1692 28-02-2003 22:38:10 5.4 C 82 % 2.58 C
1693 28-02-2003 22:43:10 5.4 C 82 % 2.58 C
1694 28-02-2003 22:44:10 5.4 C 82 % 2.58 C
1695 28-02-2003 22:49:10 5.5 C 82 % 2.68 C
1696 28-02-2003 22:50:10 5.5 C 82 % 2.68 C
1697 28-02-2003 22:55:10 5.4 C 81 % 2.41 C
1698 28-02-2003 22:56:10 5.4 C 81 % 2.41 C
1699 28-02-2003 23:01:10 5.4 C 81 % 2.41 C
1700 28-02-2003 23:02:10 5.4 C 81 % 2.41 C
Sensor: Nr:Datum:Temp:Feuchte:Taupunkt:
Aussen-T/F 1701 28-02-2003 23:07:10 5.4 C 80 % 2.23 C
1702 28-02-2003 23:08:10 5.4 C 80 % 2.23 C
1703 28-02-2003 23:13:10 5.2 C 80 % 2.04 C
1704 28-02-2003 23:14:10 5.2 C 80 % 2.04 C
1705 28-02-2003 23:19:10 5.2 C 82 % 2.39 C
1706 28-02-2003 23:20:10 5.2 C 82 % 2.39 C
1707 28-02-2003 23:25:10 5.3 C 82 % 2.48 C
1708 28-02-2003 23:26:10 5.3 C 82 % 2.48 C
1709 28-02-2003 23:31:10 5.3 C 82 % 2.48 C
1710 28-02-2003 23:32:10 5.3 C 82 % 2.48 C
1711 28-02-2003 23:37:10 5.3 C 82 % 2.48 C
1712 28-02-2003 23:38:10 5.3 C 82 % 2.48 C
1713 28-02-2003 23:43:10 5.4 C 82 % 2.58 C
1714 28-02-2003 23:44:10 5.4 C 82 % 2.58 C
1715 28-02-2003 23:49:10 5.4 C 82 % 2.58 C
1716 28-02-2003 23:50:10 5.4 C 82 % 2.58 C
1717 28-02-2003 23:55:10 5.4 C 82 % 2.58 C
1718 28-02-2003 23:56:10 5.4 C 82 % 2.58 C
1719 01-03-2003 00:01:10 5.2 C 81 % 2.21 C
1720 01-03-2003 00:02:10 5.2 C 81 % 2.21 C
1721 01-03-2003 00:07:10 5.2 C 82 % 2.39 C
1722 01-03-2003 00:08:10 5.2 C 82 % 2.39 C
1723 01-03-2003 00:13:10 5.1 C 82 % 2.29 C
1724 01-03-2003 00:14:10 5.1 C 82 % 2.29 C
1725 01-03-2003 00:19:10 4.7 C 82 % 1.9 C
Sensor: Nr:Datum:Temp:Feuchte:Taupunkt:
Aussen-T/F 1726 01-03-2003 00:20:10 4.7 C 82 % 1.9 C
1727 01-03-2003 00:25:10 4.5 C 82 % 1.7 C
1728 01-03-2003 00:26:10 4.5 C 82 % 1.7 C
1729 01-03-2003 00:31:10 4.5 C 83 % 1.87 C
1730 01-03-2003 00:32:10 4.5 C 83 % 1.87 C
1731 01-03-2003 00:37:10 4.4 C 84 % 1.94 C
1732 01-03-2003 00:38:10 4.4 C 84 % 1.94 C
1733 01-03-2003 00:43:10 4.5 C 85 % 2.2 C
1734 01-03-2003 00:44:10 4.5 C 85 % 2.2 C
1735 01-03-2003 00:49:10 4.5 C 85 % 2.2 C
1736 01-03-2003 00:50:10 4.5 C 85 % 2.2 C
1737 01-03-2003 00:55:10 4.5 C 84 % 2.04 C
1738 01-03-2003 00:56:10 4.5 C 84 % 2.04 C
1739 01-03-2003 01:01:10 4.4 C 83 % 1.77 C
1740 01-03-2003 01:02:10 4.4 C 83 % 1.77 C
1741 01-03-2003 01:07:10 4.3 C 83 % 1.67 C
1742 01-03-2003 01:08:10 4.3 C 83 % 1.67 C
1743 01-03-2003 01:13:10 4.2 C 83 % 1.58 C
1744 01-03-2003 01:14:10 4.2 C 83 % 1.58 C
1745 01-03-2003 01:19:10 4.2 C 83 % 1.58 C
1746 01-03-2003 01:20:10 4.2 C 83 % 1.58 C
1747 01-03-2003 01:25:10 4.3 C 83 % 1.67 C
1748 01-03-2003 01:26:10 4.3 C 83 % 1.67 C
1749 01-03-2003 01:31:10 4.3 C 83 % 1.67 C
1750 01-03-2003 01:32:10 4.3 C 83 % 1.67 C
Sensor: Nr:Datum:Temp:Feuchte:Taupunkt:
Aussen-T/F 1751 01-03-2003 01:37:10 4.2 C 83 % 1.58 C
1752 01-03-2003 01:38:10 4.2 C 83 % 1.58 C
1753 01-03-2003 01:43:10 4.2 C 83 % 1.58 C
1754 01-03-2003 01:44:10 4.2 C 83 % 1.58 C
1755 01-03-2003 01:49:10 4.3 C 83 % 1.67 C
1756 01-03-2003 01:50:10 4.3 C 83 % 1.67 C
1757 01-03-2003 01:55:10 4.3 C 83 % 1.67 C
1758 01-03-2003 01:56:10 4.3 C 83 % 1.67 C
1759 01-03-2003 02:01:10 4.3 C 83 % 1.67 C
1760 01-03-2003 02:02:10 4.3 C 83 % 1.67 C
1761 01-03-2003 02:07:10 4.4 C 83 % 1.77 C
1762 01-03-2003 02:08:10 4.4 C 83 % 1.77 C
1763 01-03-2003 02:13:10 4.4 C 83 % 1.77 C
1764 01-03-2003 02:14:10 4.4 C 83 % 1.77 C
1765 01-03-2003 02:19:10 4.5 C 83 % 1.87 C
1766 01-03-2003 02:20:10 4.5 C 83 % 1.87 C
1767 01-03-2003 02:25:10 4.5 C 82 % 1.7 C
1768 01-03-2003 02:26:10 4.5 C 82 % 1.7 C
1769 01-03-2003 02:31:10 4.6 C 83 % 1.97 C
1770 01-03-2003 02:32:10 4.6 C 83 % 1.97 C
1771 01-03-2003 02:37:10 4.7 C 82 % 1.9 C
1772 01-03-2003 02:38:10 4.7 C 82 % 1.9 C
1773 01-03-2003 02:43:10 4.7 C 82 % 1.9 C
1774 01-03-2003 02:44:10 4.7 C 82 % 1.9 C
1775 01-03-2003 02:49:10 4.6 C 83 % 1.97 C
Sensor: Nr:Datum:Temp:Feuchte:Taupunkt:
Aussen-T/F 1776 01-03-2003 02:50:10 4.6 C 83 % 1.97 C
1777 01-03-2003 02:50:37 4.6 C 83 % 1.97 C
1778 01-03-2003 02:55:10 4.7 C 83 % 2.07 C
1779 01-03-2003 02:56:37 4.7 C 83 % 2.07 C
1780 01-03-2003 03:01:10 4.6 C 84 % 2.14 C
1781 01-03-2003 03:02:37 4.6 C 84 % 2.14 C
1782 01-03-2003 03:07:10 4.5 C 85 % 2.2 C
1783 01-03-2003 03:08:37 4.5 C 85 % 2.2 C
1784 01-03-2003 03:13:10 4.4 C 86 % 2.27 C
1785 01-03-2003 03:14:37 4.4 C 86 % 2.27 C
1786 01-03-2003 03:19:10 4.3 C 86 % 2.17 C
1787 01-03-2003 03:20:37 4.3 C 86 % 2.17 C
1788 01-03-2003 03:25:10 4.3 C 87 % 2.33 C
1789 01-03-2003 03:26:37 4.3 C 87 % 2.33 C
1790 01-03-2003 03:31:10 4.3 C 88 % 2.49 C
1791 01-03-2003 03:32:37 4.3 C 88 % 2.49 C
1792 01-03-2003 03:37:10 4.4 C 88 % 2.59 C
1793 01-03-2003 03:38:37 4.4 C 88 % 2.59 C
1794 01-03-2003 03:43:10 4.4 C 89 % 2.75 C
1795 01-03-2003 03:44:37 4.4 C 89 % 2.75 C
1796 01-03-2003 03:49:10 4.5 C 89 % 2.85 C
1797 01-03-2003 03:50:37 4.5 C 89 % 2.85 C
1798 01-03-2003 03:55:10 4.4 C 89 % 2.75 C
1799 01-03-2003 03:56:37 4.4 C 89 % 2.75 C
1800 01-03-2003 04:01:10 4.4 C 90 % 2.91 C
Sensor: Nr:Datum:Temp:Feuchte:Taupunkt:
Aussen-T/F 1801 01-03-2003 04:02:37 4.4 C 90 % 2.91 C
1802 01-03-2003 04:07:10 4.3 C 90 % 2.81 C
1803 01-03-2003 04:08:37 4.3 C 90 % 2.81 C
1804 01-03-2003 04:13:10 4.3 C 90 % 2.81 C
1805 01-03-2003 04:14:37 4.3 C 90 % 2.81 C
1806 01-03-2003 04:19:10 4.4 C 91 % 3.06 C
1807 01-03-2003 04:20:37 4.4 C 91 % 3.06 C
1808 01-03-2003 04:25:10 4.4 C 91 % 3.06 C
1809 01-03-2003 04:26:37 4.4 C 91 % 3.06 C
1810 01-03-2003 04:31:10 4.4 C 91 % 3.06 C
1811 01-03-2003 04:32:37 4.4 C 91 % 3.06 C
1812 01-03-2003 04:37:10 4.6 C 91 % 3.26 C
1813 01-03-2003 04:38:37 4.6 C 91 % 3.26 C
1814 01-03-2003 04:43:10 4.6 C 92 % 3.42 C
1815 01-03-2003 04:44:37 4.6 C 92 % 3.42 C
1816 01-03-2003 04:49:10 4.7 C 92 % 3.51 C
1817 01-03-2003 04:50:37 4.7 C 92 % 3.51 C
1818 01-03-2003 04:55:10 4.7 C 92 % 3.51 C
1819 01-03-2003 04:56:37 4.7 C 92 % 3.51 C
1820 01-03-2003 05:01:10 4.6 C 92 % 3.42 C
1821 01-03-2003 05:02:37 4.6 C 92 % 3.42 C
1822 01-03-2003 05:07:10 4.7 C 92 % 3.51 C
1823 01-03-2003 05:08:37 4.7 C 92 % 3.51 C
1824 01-03-2003 05:13:10 4.6 C 92 % 3.42 C
1825 01-03-2003 05:14:37 4.6 C 92 % 3.42 C
Sensor: Nr:Datum:Temp:Feuchte:Taupunkt:
Aussen-T/F 1826 01-03-2003 05:19:10 4.7 C 92 % 3.51 C
1827 01-03-2003 05:20:37 4.7 C 92 % 3.51 C
1828 01-03-2003 05:25:10 4.5 C 92 % 3.32 C
1829 01-03-2003 05:26:37 4.5 C 92 % 3.32 C
1830 01-03-2003 05:31:10 4.4 C 92 % 3.22 C
1831 01-03-2003 05:32:37 4.4 C 92 % 3.22 C
1832 01-03-2003 05:37:10 4.4 C 92 % 3.22 C
1833 01-03-2003 05:38:37 4.4 C 92 % 3.22 C
1834 01-03-2003 05:43:10 4.3 C 92 % 3.12 C
1835 01-03-2003 05:44:37 4.3 C 92 % 3.12 C
1836 01-03-2003 05:49:10 4.3 C 92 % 3.12 C
1837 01-03-2003 05:50:37 4.3 C 92 % 3.12 C
1838 01-03-2003 05:55:10 4.3 C 92 % 3.12 C
1839 01-03-2003 05:56:37 4.3 C 92 % 3.12 C
1840 01-03-2003 06:01:10 4.5 C 92 % 3.32 C
1841 01-03-2003 06:02:37 4.5 C 92 % 3.32 C
1842 01-03-2003 06:07:10 4.5 C 92 % 3.32 C
1843 01-03-2003 06:08:37 4.5 C 92 % 3.32 C
1844 01-03-2003 06:13:10 4.8 C 93 % 3.77 C
1845 01-03-2003 06:14:37 4.8 C 93 % 3.77 C
1846 01-03-2003 06:19:10 5 C 92 % 3.81 C
1847 01-03-2003 06:20:37 5 C 92 % 3.81 C
1848 01-03-2003 06:25:10 4.9 C 93 % 3.87 C
1849 01-03-2003 06:26:37 4.9 C 93 % 3.87 C
1850 01-03-2003 06:31:10 5.1 C 92 % 3.91 C
Sensor: Nr:Datum:Temp:Feuchte:Taupunkt:
Aussen-T/F 1851 01-03-2003 06:32:37 5.1 C 92 % 3.91 C
1852 01-03-2003 06:37:10 5.2 C 92 % 4.01 C
1853 01-03-2003 06:38:37 5.2 C 92 % 4.01 C
1854 01-03-2003 06:43:10 5.4 C 92 % 4.21 C
1855 01-03-2003 06:44:37 5.4 C 92 % 4.21 C
1856 01-03-2003 06:49:10 5.7 C 93 % 4.66 C
1857 01-03-2003 06:50:37 5.7 C 93 % 4.66 C
1858 01-03-2003 06:55:10 6 C 93 % 4.96 C
1859 01-03-2003 06:56:37 6 C 93 % 4.96 C
1860 01-03-2003 07:01:10 6.3 C 93 % 5.25 C
1861 01-03-2003 07:02:37 6.3 C 93 % 5.25 C
1862 01-03-2003 07:07:10 6.5 C 92 % 5.3 C
1863 01-03-2003 07:08:37 6.5 C 92 % 5.3 C
1864 01-03-2003 07:13:10 6.7 C 91 % 5.34 C
1865 01-03-2003 07:14:37 6.7 C 91 % 5.34 C
1866 01-03-2003 07:19:10 6.8 C 91 % 5.44 C
1867 01-03-2003 07:20:37 6.8 C 91 % 5.44 C
1868 01-03-2003 07:25:10 7 C 90 % 5.48 C
1869 01-03-2003 07:26:37 7 C 90 % 5.48 C
1870 01-03-2003 07:31:10 7.3 C 89 % 5.61 C
1871 01-03-2003 07:32:37 7.3 C 89 % 5.61 C
1872 01-03-2003 07:37:10 7.6 C 88 % 5.74 C
1873 01-03-2003 07:38:37 7.6 C 88 % 5.74 C
1874 01-03-2003 07:43:10 7.7 C 87 % 5.68 C
1875 01-03-2003 07:44:37 7.7 C 87 % 5.68 C
Sensor: Nr:Datum:Temp:Feuchte:Taupunkt:
Aussen-T/F 1876 01-03-2003 07:49:10 7.8 C 86 % 5.61 C
1877 01-03-2003 07:50:37 7.8 C 86 % 5.61 C
1878 01-03-2003 07:55:10 7.9 C 85 % 5.54 C
1879 01-03-2003 07:56:37 7.9 C 85 % 5.54 C
1880 01-03-2003 08:01:10 8 C 84 % 5.47 C
1881 01-03-2003 08:02:37 8 C 84 % 5.47 C
1882 01-03-2003 08:07:10 8 C 83 % 5.29 C
1883 01-03-2003 08:08:37 8 C 83 % 5.29 C
1884 01-03-2003 08:13:10 8.1 C 83 % 5.39 C
1885 01-03-2003 08:14:37 8.1 C 83 % 5.39 C
1886 01-03-2003 08:19:10 8.1 C 83 % 5.39 C
1887 01-03-2003 08:20:37 8.1 C 83 % 5.39 C
1888 01-03-2003 08:25:10 8.2 C 82 % 5.32 C
1889 01-03-2003 08:26:37 8.2 C 82 % 5.32 C
1890 01-03-2003 08:31:10 8.1 C 83 % 5.39 C
1891 01-03-2003 08:32:37 8.1 C 83 % 5.39 C
1892 01-03-2003 08:37:10 8.1 C 83 % 5.39 C
1893 01-03-2003 08:38:37 8.1 C 83 % 5.39 C
1894 01-03-2003 08:43:10 8 C 83 % 5.29 C
1895 01-03-2003 08:44:37 8 C 83 % 5.29 C
1896 01-03-2003 08:49:10 7.9 C 85 % 5.54 C
1897 01-03-2003 08:50:37 7.9 C 85 % 5.54 C
1898 01-03-2003 08:55:10 7.8 C 85 % 5.44 C
1899 01-03-2003 08:56:37 7.8 C 85 % 5.44 C
1900 01-03-2003 09:01:10 7.8 C 86 % 5.61 C
Sensor: Nr:Datum:Temp:Feuchte:Taupunkt:
Aussen-T/F 1901 01-03-2003 09:02:37 7.8 C 86 % 5.61 C
1902 01-03-2003 09:07:10 7.9 C 86 % 5.71 C
1903 01-03-2003 09:08:37 7.9 C 86 % 5.71 C
1904 01-03-2003 09:13:10 7.9 C 86 % 5.71 C
1905 01-03-2003 09:14:37 7.9 C 86 % 5.71 C
1906 01-03-2003 09:19:10 8 C 84 % 5.47 C
1907 01-03-2003 09:20:37 8 C 84 % 5.47 C
1908 01-03-2003 09:25:10 8.1 C 84 % 5.56 C
1909 01-03-2003 09:26:37 8.1 C 84 % 5.56 C
1910 01-03-2003 09:31:10 8.2 C 84 % 5.66 C
1911 01-03-2003 09:32:37 8.2 C 84 % 5.66 C
1912 01-03-2003 09:37:10 8.2 C 84 % 5.66 C
1913 01-03-2003 09:38:37 8.2 C 84 % 5.66 C
1914 01-03-2003 09:43:10 8.3 C 83 % 5.59 C
1915 01-03-2003 09:44:37 8.3 C 83 % 5.59 C
1916 01-03-2003 09:49:10 8.4 C 83 % 5.69 C
1917 01-03-2003 09:50:37 8.4 C 83 % 5.69 C
1918 01-03-2003 09:55:10 8.5 C 83 % 5.78 C
1919 01-03-2003 09:56:37 8.5 C 83 % 5.78 C
1920 01-03-2003 10:01:10 8.7 C 82 % 5.8 C
1921 01-03-2003 10:02:37 8.7 C 82 % 5.8 C
1922 01-03-2003 10:07:10 8.8 C 82 % 5.9 C
1923 01-03-2003 10:08:37 8.8 C 82 % 5.9 C
1924 01-03-2003 10:13:10 8.9 C 81 % 5.82 C
1925 01-03-2003 10:14:37 8.9 C 81 % 5.82 C
Sensor: Nr:Datum:Temp:Feuchte:Taupunkt:
Aussen-T/F 1926 01-03-2003 10:19:10 8.9 C 81 % 5.82 C
1927 01-03-2003 10:20:37 8.9 C 81 % 5.82 C
1928 01-03-2003 10:25:10 8.9 C 81 % 5.82 C
1929 01-03-2003 10:26:37 8.9 C 81 % 5.82 C
1930 01-03-2003 10:31:10 8.9 C 81 % 5.82 C
1931 01-03-2003 10:32:37 8.9 C 81 % 5.82 C
1932 01-03-2003 10:37:10 8.9 C 81 % 5.82 C
1933 01-03-2003 10:38:37 8.9 C 81 % 5.82 C
1934 01-03-2003 10:43:10 8.9 C 81 % 5.82 C
1935 01-03-2003 10:44:37 8.9 C 81 % 5.82 C
1936 01-03-2003 10:49:10 9 C 79 % 5.56 C
1937 01-03-2003 10:50:37 9 C 79 % 5.56 C
1938 01-03-2003 10:55:10 9 C 79 % 5.56 C
1939 01-03-2003 10:56:37 9 C 79 % 5.56 C
1940 01-03-2003 11:01:10 9.1 C 79 % 5.66 C
1941 01-03-2003 11:02:37 9.1 C 79 % 5.66 C
1942 01-03-2003 11:07:10 9.2 C 79 % 5.75 C
1943 01-03-2003 11:08:37 9.2 C 79 % 5.75 C
1944 01-03-2003 11:13:10 9.3 C 78 % 5.67 C
1945 01-03-2003 11:14:37 9.3 C 78 % 5.67 C
1946 01-03-2003 11:19:10 9.3 C 78 % 5.67 C
1947 01-03-2003 11:20:37 9.3 C 78 % 5.67 C
1948 01-03-2003 11:25:10 9.4 C 78 % 5.76 C
1949 01-03-2003 11:26:37 9.4 C 78 % 5.76 C
1950 01-03-2003 11:31:10 9.4 C 78 % 5.76 C
Sensor: Nr:Datum:Temp:Feuchte:Taupunkt:
Aussen-T/F 1951 01-03-2003 11:32:37 9.4 C 78 % 5.76 C
1952 01-03-2003 11:37:10 9.6 C 77 % 5.77 C
1953 01-03-2003 11:38:37 9.6 C 77 % 5.77 C
1954 01-03-2003 11:43:10 9.6 C 77 % 5.77 C
1955 01-03-2003 11:44:37 9.6 C 77 % 5.77 C
1956 01-03-2003 11:49:10 9.6 C 77 % 5.77 C
1957 01-03-2003 11:50:37 9.6 C 77 % 5.77 C
1958 01-03-2003 11:55:10 9.7 C 76 % 5.68 C
1959 01-03-2003 11:56:37 9.7 C 76 % 5.68 C
1960 01-03-2003 12:01:10 9.7 C 76 % 5.68 C
1961 01-03-2003 12:02:37 9.7 C 76 % 5.68 C
1962 01-03-2003 12:07:10 9.8 C 76 % 5.78 C
1963 01-03-2003 12:08:37 9.8 C 76 % 5.78 C
1964 01-03-2003 12:13:10 9.8 C 76 % 5.78 C
1965 01-03-2003 12:14:37 9.8 C 76 % 5.78 C
1966 01-03-2003 12:19:10 9.9 C 75 % 5.68 C
1967 01-03-2003 12:20:37 9.9 C 75 % 5.68 C
1968 01-03-2003 12:25:10 10 C 73 % 5.39 C
1969 01-03-2003 12:26:37 10 C 73 % 5.39 C
1970 01-03-2003 12:31:10 9.9 C 75 % 5.68 C
1971 01-03-2003 12:32:37 9.9 C 75 % 5.68 C
1972 01-03-2003 12:37:10 9.8 C 75 % 5.59 C
1973 01-03-2003 12:38:37 9.8 C 75 % 5.59 C
1974 01-03-2003 12:43:10 9.8 C 75 % 5.59 C
1975 01-03-2003 12:44:37 9.8 C 75 % 5.59 C
Sensor: Nr:Datum:Temp:Feuchte:Taupunkt:
Aussen-T/F 1976 01-03-2003 12:49:10 9.9 C 75 % 5.68 C
1977 01-03-2003 12:50:37 9.9 C 75 % 5.68 C
1978 01-03-2003 12:55:10 10 C 74 % 5.59 C
1979 01-03-2003 12:56:37 10 C 74 % 5.59 C
1980 01-03-2003 13:01:10 10.1 C 73 % 5.49 C
1981 01-03-2003 13:02:37 10.1 C 73 % 5.49 C
1982 01-03-2003 13:07:10 10 C 73 % 5.39 C
1983 01-03-2003 13:08:37 10 C 73 % 5.39 C
1984 01-03-2003 13:13:10 10 C 73 % 5.39 C
1985 01-03-2003 13:14:37 10 C 73 % 5.39 C
1986 01-03-2003 13:19:10 10 C 73 % 5.39 C
1987 01-03-2003 13:20:37 10 C 73 % 5.39 C
1988 01-03-2003 13:25:10 10 C 73 % 5.39 C
1989 01-03-2003 13:26:37 10 C 73 % 5.39 C
1990 01-03-2003 13:31:10 10 C 73 % 5.39 C
1991 01-03-2003 13:32:37 10 C 73 % 5.39 C
1992 01-03-2003 13:37:10 10.1 C 74 % 5.68 C
1993 01-03-2003 13:38:37 10.1 C 74 % 5.68 C
1994 01-03-2003 13:43:10 10.1 C 73 % 5.49 C
1995 01-03-2003 13:44:37 10.1 C 73 % 5.49 C
1996 01-03-2003 13:49:10 10.2 C 73 % 5.58 C
1997 01-03-2003 13:50:37 10.2 C 73 % 5.58 C
1998 01-03-2003 13:55:10 10.2 C 73 % 5.58 C
1999 01-03-2003 13:56:37 10.2 C 73 % 5.58 C
2000 01-03-2003 14:01:10 10.2 C 72 % 5.39 C
Sensor: Nr:Datum:Temp:Feuchte:Taupunkt:
Aussen-T/F 2001 01-03-2003 14:02:37 10.2 C 72 % 5.39 C
2002 01-03-2003 14:07:10 10.4 C 72 % 5.58 C
2003 01-03-2003 14:08:37 10.4 C 72 % 5.58 C
2004 01-03-2003 14:13:10 10.5 C 72 % 5.67 C
2005 01-03-2003 14:14:37 10.5 C 72 % 5.67 C
2006 01-03-2003 14:19:10 10.6 C 72 % 5.77 C
2007 01-03-2003 14:20:37 10.6 C 72 % 5.77 C
2008 01-03-2003 14:25:10 10.9 C 71 % 5.86 C
2009 01-03-2003 14:26:37 10.9 C 71 % 5.86 C
2010 01-03-2003 14:31:10 11 C 70 % 5.75 C
2011 01-03-2003 14:32:37 11 C 70 % 5.75 C
2012 01-03-2003 14:37:10 11.1 C 70 % 5.84 C
2013 01-03-2003 14:38:37 11.1 C 70 % 5.84 C
2014 01-03-2003 14:43:10 11.3 C 69 % 5.83 C
2015 01-03-2003 14:44:37 11.3 C 69 % 5.83 C
2016 01-03-2003 14:49:10 11.5 C 69 % 6.02 C
2017 01-03-2003 14:50:37 11.5 C 69 % 6.02 C
2018 01-03-2003 14:55:10 11.6 C 68 % 5.9 C
2019 01-03-2003 14:56:37 11.6 C 68 % 5.9 C
2020 01-03-2003 15:01:10 11.7 C 68 % 6 C
2021 01-03-2003 15:02:37 11.7 C 68 % 6 C
2022 01-03-2003 15:07:10 11.7 C 68 % 6 C
2023 01-03-2003 15:08:37 11.7 C 68 % 6 C
2024 01-03-2003 15:13:10 11.8 C 68 % 6.09 C
2025 01-03-2003 15:14:37 11.8 C 68 % 6.09 C
Sensor: Nr:Datum:Temp:Feuchte:Taupunkt:
Aussen-T/F 2026 01-03-2003 15:19:10 11.7 C 69 % 6.21 C
2027 01-03-2003 15:20:37 11.7 C 69 % 6.21 C
2028 01-03-2003 15:25:10 11.8 C 68 % 6.09 C
2029 01-03-2003 15:26:37 11.8 C 68 % 6.09 C
2030 01-03-2003 15:31:10 11.9 C 68 % 6.19 C
2031 01-03-2003 15:32:37 11.9 C 68 % 6.19 C
2032 01-03-2003 15:37:10 11.8 C 66 % 5.66 C
2033 01-03-2003 15:38:37 11.8 C 66 % 5.66 C
2034 01-03-2003 15:43:10 11.7 C 67 % 5.78 C
2035 01-03-2003 15:44:37 11.7 C 67 % 5.78 C
2036 01-03-2003 15:49:10 11.7 C 67 % 5.78 C
2037 01-03-2003 15:50:37 11.7 C 67 % 5.78 C
2038 01-03-2003 15:55:10 11.6 C 67 % 5.69 C
2039 01-03-2003 15:56:37 11.6 C 67 % 5.69 C
2040 01-03-2003 16:01:11 11.6 C 68 % 5.9 C
2041 01-03-2003 16:02:37 11.6 C 68 % 5.9 C
2042 01-03-2003 16:07:11 11.5 C 67 % 5.59 C
2043 01-03-2003 16:08:37 11.5 C 67 % 5.59 C
2044 01-03-2003 16:13:11 11.5 C 68 % 5.81 C
2045 01-03-2003 16:14:37 11.5 C 68 % 5.81 C
2046 01-03-2003 16:19:11 11.4 C 68 % 5.71 C
2047 01-03-2003 16:20:37 11.4 C 68 % 5.71 C
2048 01-03-2003 16:25:11 11.4 C 67 % 5.5 C
2049 01-03-2003 16:26:37 11.4 C 67 % 5.5 C
2050 01-03-2003 16:31:11 11.4 C 67 % 5.5 C
Sensor: Nr:Datum:Temp:Feuchte:Taupunkt:
Aussen-T/F 2051 01-03-2003 16:32:37 11.4 C 67 % 5.5 C
2052 01-03-2003 16:37:11 11.4 C 67 % 5.5 C
2053 01-03-2003 16:38:37 11.4 C 67 % 5.5 C
2054 01-03-2003 16:43:11 11.2 C 67 % 5.31 C
2055 01-03-2003 16:44:37 11.2 C 67 % 5.31 C
2056 01-03-2003 16:49:11 11.2 C 68 % 5.52 C
2057 01-03-2003 16:50:37 11.2 C 68 % 5.52 C
2058 01-03-2003 16:55:11 11.2 C 68 % 5.52 C
2059 01-03-2003 16:56:37 11.2 C 68 % 5.52 C
2060 01-03-2003 17:01:11 11.1 C 68 % 5.43 C
2061 01-03-2003 17:02:37 11.1 C 68 % 5.43 C
2062 01-03-2003 17:07:11 11 C 69 % 5.54 C
2063 01-03-2003 17:08:37 11 C 69 % 5.54 C
2064 01-03-2003 17:13:11 10.9 C 70 % 5.65 C
2065 01-03-2003 17:14:37 10.9 C 70 % 5.65 C
2066 01-03-2003 17:19:11 10.8 C 71 % 5.76 C
2067 01-03-2003 17:20:37 10.8 C 71 % 5.76 C
2068 01-03-2003 17:25:11 10.7 C 71 % 5.66 C
2069 01-03-2003 17:26:37 10.7 C 71 % 5.66 C
2070 01-03-2003 17:31:11 10.5 C 71 % 5.47 C
2071 01-03-2003 17:32:37 10.5 C 71 % 5.47 C
2072 01-03-2003 17:37:11 10.5 C 72 % 5.67 C
2073 01-03-2003 17:38:37 10.5 C 72 % 5.67 C
2074 01-03-2003 17:43:11 10.4 C 72 % 5.58 C
2075 01-03-2003 17:44:37 10.4 C 72 % 5.58 C
Sensor: Nr:Datum:Temp:Feuchte:Taupunkt:
Aussen-T/F 2076 01-03-2003 17:49:11 10.4 C 71 % 5.38 C
2077 01-03-2003 17:50:37 10.4 C 71 % 5.38 C
2078 01-03-2003 17:55:11 10.3 C 71 % 5.28 C
2079 01-03-2003 17:56:37 10.3 C 71 % 5.28 C
2080 01-03-2003 18:01:11 10.2 C 72 % 5.39 C
2081 01-03-2003 18:02:37 10.2 C 72 % 5.39 C
2082 01-03-2003 18:07:11 10.1 C 72 % 5.29 C
2083 01-03-2003 18:08:37 10.1 C 72 % 5.29 C
2084 01-03-2003 18:13:11 10 C 72 % 5.19 C
2085 01-03-2003 18:14:37 10 C 72 % 5.19 C
2086 01-03-2003 18:19:11 9.9 C 74 % 5.49 C
2087 01-03-2003 18:20:37 9.9 C 74 % 5.49 C
2088 01-03-2003 18:25:11 9.8 C 74 % 5.39 C
2089 01-03-2003 18:26:37 9.8 C 74 % 5.39 C
2090 01-03-2003 18:31:11 9.8 C 74 % 5.39 C
2091 01-03-2003 18:32:37 9.8 C 74 % 5.39 C
2092 01-03-2003 18:37:11 9.7 C 74 % 5.3 C
2093 01-03-2003 18:38:37 9.7 C 74 % 5.3 C
2094 01-03-2003 18:43:11 9.6 C 75 % 5.39 C
2095 01-03-2003 18:44:37 9.6 C 75 % 5.39 C
2096 01-03-2003 18:49:11 9.6 C 75 % 5.39 C
2097 01-03-2003 18:50:37 9.6 C 75 % 5.39 C
2098 01-03-2003 18:55:11 9.6 C 75 % 5.39 C
2099 01-03-2003 18:56:37 9.6 C 75 % 5.39 C
2100 01-03-2003 19:01:11 9.6 C 75 % 5.39 C
Sensor: Nr:Datum:Temp:Feuchte:Taupunkt:
Aussen-T/F 2101 01-03-2003 19:02:37 9.6 C 75 % 5.39 C
2102 01-03-2003 19:07:11 9.5 C 75 % 5.3 C
2103 01-03-2003 19:08:37 9.5 C 75 % 5.3 C
2104 01-03-2003 19:13:11 9.5 C 76 % 5.49 C
2105 01-03-2003 19:14:37 9.5 C 76 % 5.49 C
2106 01-03-2003 19:19:11 9.5 C 76 % 5.49 C
2107 01-03-2003 19:20:37 9.5 C 76 % 5.49 C
2108 01-03-2003 19:25:11 9.4 C 76 % 5.39 C
2109 01-03-2003 19:26:37 9.4 C 76 % 5.39 C
2110 01-03-2003 19:31:11 9.4 C 76 % 5.39 C
2111 01-03-2003 19:32:37 9.4 C 76 % 5.39 C
2112 01-03-2003 19:37:11 9.4 C 76 % 5.39 C
2113 01-03-2003 19:38:37 9.4 C 76 % 5.39 C
2114 01-03-2003 19:43:11 9.4 C 76 % 5.39 C
2115 01-03-2003 19:44:37 9.4 C 76 % 5.39 C
2116 01-03-2003 19:49:11 9.4 C 76 % 5.39 C
2117 01-03-2003 19:50:37 9.4 C 76 % 5.39 C
2118 01-03-2003 19:55:11 9.4 C 76 % 5.39 C
2119 01-03-2003 19:56:37 9.4 C 76 % 5.39 C
2120 01-03-2003 20:02:11 9.3 C 76 % 5.29 C
2121 01-03-2003 20:02:37 9.3 C 76 % 5.29 C
2122 01-03-2003 20:08:11 9.4 C 76 % 5.39 C
2123 01-03-2003 20:08:37 9.4 C 76 % 5.39 C
2124 01-03-2003 20:14:11 9.3 C 76 % 5.29 C
2125 01-03-2003 20:14:37 9.3 C 76 % 5.29 C
Sensor: Nr:Datum:Temp:Feuchte:Taupunkt:
Aussen-T/F 2126 01-03-2003 20:20:11 9.3 C 76 % 5.29 C
2127 01-03-2003 20:20:37 9.3 C 76 % 5.29 C
2128 01-03-2003 20:26:11 9.3 C 77 % 5.48 C
2129 01-03-2003 20:26:37 9.3 C 77 % 5.48 C
2130 01-03-2003 20:32:11 9.3 C 77 % 5.48 C
2131 01-03-2003 20:32:37 9.3 C 77 % 5.48 C
2132 01-03-2003 20:38:11 9.2 C 77 % 5.38 C
2133 01-03-2003 20:38:37 9.2 C 77 % 5.38 C
2134 01-03-2003 20:44:11 9.1 C 77 % 5.29 C
2135 01-03-2003 20:44:37 9.1 C 77 % 5.29 C
2136 01-03-2003 20:50:11 9.1 C 77 % 5.29 C
2137 01-03-2003 20:50:37 9.1 C 77 % 5.29 C
2138 01-03-2003 21:02:11 9 C 78 % 5.38 C
2139 01-03-2003 21:02:37 9 C 78 % 5.38 C
2140 01-03-2003 21:08:11 9 C 78 % 5.38 C
2141 01-03-2003 21:08:37 9 C 78 % 5.38 C
2142 01-03-2003 21:14:11 8.9 C 79 % 5.46 C
2143 01-03-2003 21:14:37 8.9 C 79 % 5.46 C
2144 01-03-2003 21:20:11 8.8 C 80 % 5.55 C
2145 01-03-2003 21:20:37 8.8 C 80 % 5.55 C
2146 01-03-2003 21:26:11 8.8 C 81 % 5.72 C
2147 01-03-2003 21:26:37 8.8 C 81 % 5.72 C
2148 01-03-2003 21:32:11 8.7 C 81 % 5.63 C
2149 01-03-2003 21:32:37 8.7 C 81 % 5.63 C
2150 01-03-2003 21:38:11 8.8 C 81 % 5.72 C
Sensor: Nr:Datum:Temp:Feuchte:Taupunkt:
Aussen-T/F 2151 01-03-2003 21:38:37 8.8 C 81 % 5.72 C
2152 01-03-2003 21:44:11 8.7 C 82 % 5.8 C
2153 01-03-2003 21:44:37 8.7 C 82 % 5.8 C
2154 01-03-2003 21:50:11 8.6 C 82 % 5.71 C
2155 01-03-2003 21:50:37 8.6 C 82 % 5.71 C
2156 01-03-2003 21:56:11 8.5 C 83 % 5.78 C
2157 01-03-2003 21:56:37 8.5 C 83 % 5.78 C
2158 01-03-2003 22:02:11 8.5 C 83 % 5.78 C
2159 01-03-2003 22:02:37 8.5 C 83 % 5.78 C
2160 01-03-2003 22:08:11 8.4 C 84 % 5.86 C
2161 01-03-2003 22:08:37 8.4 C 84 % 5.86 C
2162 01-03-2003 22:14:11 8.4 C 84 % 5.86 C
2163 01-03-2003 22:14:37 8.4 C 84 % 5.86 C
2164 01-03-2003 22:20:11 8.3 C 84 % 5.76 C
2165 01-03-2003 22:20:37 8.3 C 84 % 5.76 C
2166 01-03-2003 22:26:11 8.4 C 85 % 6.03 C
2167 01-03-2003 22:26:37 8.4 C 85 % 6.03 C
2168 01-03-2003 22:32:11 8.4 C 85 % 6.03 C
2169 01-03-2003 22:32:37 8.4 C 85 % 6.03 C
2170 01-03-2003 22:38:11 8.3 C 86 % 6.1 C
2171 01-03-2003 22:38:37 8.3 C 86 % 6.1 C
2172 01-03-2003 22:44:11 8.3 C 86 % 6.1 C
2173 01-03-2003 22:44:37 8.3 C 86 % 6.1 C
2174 01-03-2003 22:50:11 8.3 C 86 % 6.1 C
2175 01-03-2003 22:50:37 8.3 C 86 % 6.1 C
Sensor: Nr:Datum:Temp:Feuchte:Taupunkt:
Aussen-T/F 2176 01-03-2003 22:56:11 8.2 C 86 % 6 C
2177 01-03-2003 22:56:37 8.2 C 86 % 6 C
2178 01-03-2003 23:02:11 8.3 C 86 % 6.1 C
2179 01-03-2003 23:02:37 8.3 C 86 % 6.1 C
2180 01-03-2003 23:08:11 8.3 C 87 % 6.27 C
2181 01-03-2003 23:08:37 8.3 C 87 % 6.27 C
2182 01-03-2003 23:14:11 8.2 C 87 % 6.17 C
2183 01-03-2003 23:14:37 8.2 C 87 % 6.17 C
2184 01-03-2003 23:20:11 8.2 C 88 % 6.33 C
2185 01-03-2003 23:20:37 8.2 C 88 % 6.33 C
2186 01-03-2003 23:26:11 8.2 C 88 % 6.33 C
2187 01-03-2003 23:26:37 8.2 C 88 % 6.33 C
2188 01-03-2003 23:32:11 8.1 C 88 % 6.24 C
2189 01-03-2003 23:32:37 8.1 C 88 % 6.24 C
2190 01-03-2003 23:38:11 8.1 C 88 % 6.24 C
2191 01-03-2003 23:38:37 8.1 C 88 % 6.24 C
2192 01-03-2003 23:44:11 8.1 C 88 % 6.24 C
2193 01-03-2003 23:44:37 8.1 C 88 % 6.24 C
2194 01-03-2003 23:50:11 8.1 C 88 % 6.24 C
2195 01-03-2003 23:50:37 8.1 C 88 % 6.24 C
2196 01-03-2003 23:56:11 8.1 C 88 % 6.24 C
2197 01-03-2003 23:56:37 8.1 C 88 % 6.24 C
2198 02-03-2003 00:02:11 8 C 88 % 6.14 C
2199 02-03-2003 00:02:37 8 C 88 % 6.14 C
2200 02-03-2003 00:08:11 8.1 C 88 % 6.24 C
Sensor: Nr:Datum:Temp:Feuchte:Taupunkt:
Aussen-T/F 2201 02-03-2003 00:08:37 8.1 C 88 % 6.24 C
2202 02-03-2003 00:14:11 8 C 89 % 6.3 C
2203 02-03-2003 00:14:37 8 C 89 % 6.3 C
2204 02-03-2003 00:20:11 7.9 C 90 % 6.36 C
2205 02-03-2003 00:20:37 7.9 C 90 % 6.36 C
2206 02-03-2003 00:26:11 7.9 C 90 % 6.36 C
2207 02-03-2003 00:26:37 7.9 C 90 % 6.36 C
2208 02-03-2003 00:32:11 7.9 C 90 % 6.36 C
2209 02-03-2003 00:32:37 7.9 C 90 % 6.36 C
2210 02-03-2003 00:38:11 7.8 C 90 % 6.27 C
2211 02-03-2003 00:38:37 7.8 C 90 % 6.27 C
2212 02-03-2003 00:44:11 7.8 C 90 % 6.27 C
2213 02-03-2003 00:44:37 7.8 C 90 % 6.27 C
2214 02-03-2003 00:50:11 7.8 C 91 % 6.43 C
2215 02-03-2003 00:50:37 7.8 C 91 % 6.43 C
2216 02-03-2003 00:56:11 7.9 C 90 % 6.36 C
2217 02-03-2003 00:56:37 7.9 C 90 % 6.36 C
2218 02-03-2003 01:02:11 7.9 C 90 % 6.36 C
2219 02-03-2003 01:02:37 7.9 C 90 % 6.36 C
2220 02-03-2003 01:08:11 7.8 C 90 % 6.27 C
2221 02-03-2003 01:08:37 7.8 C 90 % 6.27 C
2222 02-03-2003 01:14:11 7.8 C 90 % 6.27 C
2223 02-03-2003 01:14:37 7.8 C 90 % 6.27 C
2224 02-03-2003 01:20:11 7.8 C 91 % 6.43 C
2225 02-03-2003 01:20:37 7.8 C 91 % 6.43 C
Sensor: Nr:Datum:Temp:Feuchte:Taupunkt:
Aussen-T/F 2226 02-03-2003 01:26:11 7.7 C 91 % 6.33 C
2227 02-03-2003 01:26:37 7.7 C 91 % 6.33 C
2228 02-03-2003 01:32:11 7.8 C 91 % 6.43 C
2229 02-03-2003 01:32:37 7.8 C 91 % 6.43 C
2230 02-03-2003 01:38:11 7.8 C 91 % 6.43 C
2231 02-03-2003 01:38:37 7.8 C 91 % 6.43 C
2232 02-03-2003 01:44:11 7.8 C 91 % 6.43 C
2233 02-03-2003 01:44:37 7.8 C 91 % 6.43 C
2234 02-03-2003 01:50:11 7.7 C 91 % 6.33 C
2235 02-03-2003 01:50:37 7.7 C 91 % 6.33 C
2236 02-03-2003 01:56:11 7.8 C 91 % 6.43 C
2237 02-03-2003 01:56:37 7.8 C 91 % 6.43 C
2238 02-03-2003 02:02:11 7.8 C 91 % 6.43 C
2239 02-03-2003 02:02:37 7.8 C 91 % 6.43 C
2240 02-03-2003 02:08:11 7.7 C 91 % 6.33 C
2241 02-03-2003 02:08:37 7.7 C 91 % 6.33 C
2242 02-03-2003 02:14:11 7.6 C 91 % 6.23 C
2243 02-03-2003 02:14:37 7.6 C 91 % 6.23 C
2244 02-03-2003 02:20:11 7.6 C 91 % 6.23 C
2245 02-03-2003 02:20:37 7.6 C 91 % 6.23 C
2246 02-03-2003 02:26:11 7.6 C 91 % 6.23 C
2247 02-03-2003 02:26:37 7.6 C 91 % 6.23 C
2248 02-03-2003 02:32:11 7.7 C 91 % 6.33 C
2249 02-03-2003 02:32:37 7.7 C 91 % 6.33 C
2250 02-03-2003 02:38:11 7.8 C 91 % 6.43 C
Sensor: Nr:Datum:Temp:Feuchte:Taupunkt:
Aussen-T/F 2251 02-03-2003 02:38:37 7.8 C 91 % 6.43 C
2252 02-03-2003 02:44:11 7.7 C 91 % 6.33 C
2253 02-03-2003 02:44:37 7.7 C 91 % 6.33 C
2254 02-03-2003 02:50:11 7.7 C 91 % 6.33 C
2255 02-03-2003 02:50:37 7.7 C 91 % 6.33 C
2256 02-03-2003 02:56:11 7.8 C 90 % 6.27 C
2257 02-03-2003 02:56:37 7.8 C 90 % 6.27 C
2258 02-03-2003 03:02:11 7.8 C 90 % 6.27 C
2259 02-03-2003 03:02:37 7.8 C 90 % 6.27 C
2260 02-03-2003 03:08:11 8 C 89 % 6.3 C
2261 02-03-2003 03:08:37 8 C 89 % 6.3 C
2262 02-03-2003 03:14:11 7.8 C 89 % 6.1 C
2263 02-03-2003 03:14:37 7.8 C 89 % 6.1 C
2264 02-03-2003 03:20:11 7.7 C 89 % 6 C
2265 02-03-2003 03:20:37 7.7 C 89 % 6 C
2266 02-03-2003 03:26:11 7.7 C 89 % 6 C
2267 02-03-2003 03:26:37 7.7 C 89 % 6 C
2268 02-03-2003 03:32:11 7.7 C 90 % 6.17 C
2269 02-03-2003 03:32:37 7.7 C 90 % 6.17 C
2270 02-03-2003 03:38:11 7.7 C 90 % 6.17 C
2271 02-03-2003 03:38:37 7.7 C 90 % 6.17 C
2272 02-03-2003 03:44:11 7.6 C 90 % 6.07 C
2273 02-03-2003 03:44:37 7.6 C 90 % 6.07 C
2274 02-03-2003 03:50:11 7.6 C 90 % 6.07 C
2275 02-03-2003 03:50:37 7.6 C 90 % 6.07 C
Sensor: Nr:Datum:Temp:Feuchte:Taupunkt:
Aussen-T/F 2276 02-03-2003 03:56:11 7.5 C 90 % 5.97 C
2277 02-03-2003 03:56:37 7.5 C 90 % 5.97 C
2278 02-03-2003 04:02:11 7.5 C 90 % 5.97 C
2279 02-03-2003 04:02:37 7.5 C 90 % 5.97 C
2280 02-03-2003 04:08:11 7.5 C 90 % 5.97 C
2281 02-03-2003 04:08:37 7.5 C 90 % 5.97 C
2282 02-03-2003 04:14:11 7.6 C 90 % 6.07 C
2283 02-03-2003 04:14:37 7.6 C 90 % 6.07 C
2284 02-03-2003 04:20:11 7.6 C 90 % 6.07 C
2285 02-03-2003 04:20:37 7.6 C 90 % 6.07 C
2286 02-03-2003 04:26:11 7.5 C 89 % 5.81 C
2287 02-03-2003 04:26:37 7.5 C 89 % 5.81 C
2288 02-03-2003 04:32:11 7.5 C 90 % 5.97 C
2289 02-03-2003 04:32:37 7.5 C 90 % 5.97 C
2290 02-03-2003 04:38:11 7.5 C 90 % 5.97 C
2291 02-03-2003 04:38:37 7.5 C 90 % 5.97 C
2292 02-03-2003 04:44:11 7.4 C 90 % 5.87 C
2293 02-03-2003 04:44:37 7.4 C 90 % 5.87 C
2294 02-03-2003 04:50:11 7.4 C 90 % 5.87 C
2295 02-03-2003 04:50:37 7.4 C 90 % 5.87 C
2296 02-03-2003 04:56:11 7.4 C 90 % 5.87 C
2297 02-03-2003 04:56:37 7.4 C 90 % 5.87 C
2298 02-03-2003 05:02:11 7.5 C 90 % 5.97 C
2299 02-03-2003 05:02:37 7.5 C 90 % 5.97 C
2300 02-03-2003 05:08:11 7.5 C 90 % 5.97 C
Sensor: Nr:Datum:Temp:Feuchte:Taupunkt:
Aussen-T/F 2301 02-03-2003 05:08:37 7.5 C 90 % 5.97 C
2302 02-03-2003 05:14:11 7.5 C 90 % 5.97 C
2303 02-03-2003 05:14:37 7.5 C 90 % 5.97 C
2304 02-03-2003 05:20:11 7.5 C 90 % 5.97 C
2305 02-03-2003 05:20:37 7.5 C 90 % 5.97 C
2306 02-03-2003 05:26:11 7.4 C 90 % 5.87 C
2307 02-03-2003 05:26:37 7.4 C 90 % 5.87 C
2308 02-03-2003 05:32:11 7.3 C 90 % 5.77 C
2309 02-03-2003 05:32:37 7.3 C 90 % 5.77 C
2310 02-03-2003 05:38:11 7.3 C 90 % 5.77 C
2311 02-03-2003 05:38:37 7.3 C 90 % 5.77 C
2312 02-03-2003 05:44:11 7.1 C 90 % 5.57 C
2313 02-03-2003 05:44:37 7.1 C 90 % 5.57 C
2314 02-03-2003 05:50:11 7.1 C 90 % 5.57 C
2315 02-03-2003 05:50:37 7.1 C 90 % 5.57 C
2316 02-03-2003 05:56:11 7.2 C 91 % 5.83 C
2317 02-03-2003 05:56:37 7.2 C 91 % 5.83 C
2318 02-03-2003 06:02:11 7.3 C 91 % 5.93 C
2319 02-03-2003 06:02:37 7.3 C 91 % 5.93 C
2320 02-03-2003 06:08:11 7.3 C 91 % 5.93 C
2321 02-03-2003 06:08:37 7.3 C 91 % 5.93 C
2322 02-03-2003 06:14:11 7.2 C 91 % 5.83 C
2323 02-03-2003 06:14:37 7.2 C 91 % 5.83 C
2324 02-03-2003 06:20:11 7.2 C 91 % 5.83 C
2325 02-03-2003 06:20:37 7.2 C 91 % 5.83 C
Sensor: Nr:Datum:Temp:Feuchte:Taupunkt:
Aussen-T/F 2326 02-03-2003 06:26:11 7.2 C 91 % 5.83 C
2327 02-03-2003 06:26:37 7.2 C 91 % 5.83 C
2328 02-03-2003 06:32:11 7.2 C 91 % 5.83 C
2329 02-03-2003 06:32:37 7.2 C 91 % 5.83 C
2330 02-03-2003 06:38:11 7.3 C 91 % 5.93 C
2331 02-03-2003 06:38:37 7.3 C 91 % 5.93 C
2332 02-03-2003 06:44:11 7.4 C 92 % 6.19 C
2333 02-03-2003 06:44:37 7.4 C 92 % 6.19 C
2334 02-03-2003 06:50:11 7.3 C 92 % 6.09 C
2335 02-03-2003 06:50:37 7.3 C 92 % 6.09 C
2336 02-03-2003 06:56:11 7.3 C 92 % 6.09 C
2337 02-03-2003 06:56:37 7.3 C 92 % 6.09 C
2338 02-03-2003 07:02:11 7.2 C 91 % 5.83 C
2339 02-03-2003 07:02:37 7.2 C 91 % 5.83 C
2340 02-03-2003 07:08:11 7.3 C 91 % 5.93 C
2341 02-03-2003 07:08:37 7.3 C 91 % 5.93 C
2342 02-03-2003 07:14:11 7.3 C 92 % 6.09 C
2343 02-03-2003 07:14:37 7.3 C 92 % 6.09 C
2344 02-03-2003 07:20:11 7.4 C 92 % 6.19 C
2345 02-03-2003 07:20:37 7.4 C 92 % 6.19 C
2346 02-03-2003 07:26:11 7.3 C 92 % 6.09 C
2347 02-03-2003 07:26:37 7.3 C 92 % 6.09 C
2348 02-03-2003 07:32:11 7.4 C 92 % 6.19 C
2349 02-03-2003 07:32:37 7.4 C 92 % 6.19 C
2350 02-03-2003 07:38:11 7.3 C 92 % 6.09 C
Sensor: Nr:Datum:Temp:Feuchte:Taupunkt:
Aussen-T/F 2351 02-03-2003 07:38:37 7.3 C 92 % 6.09 C
2352 02-03-2003 07:44:11 7.4 C 92 % 6.19 C
2353 02-03-2003 07:44:37 7.4 C 92 % 6.19 C
2354 02-03-2003 07:50:11 7.4 C 92 % 6.19 C
2355 02-03-2003 07:50:37 7.4 C 92 % 6.19 C
2356 02-03-2003 07:56:11 7.5 C 92 % 6.29 C
2357 02-03-2003 07:56:37 7.5 C 92 % 6.29 C
2358 02-03-2003 08:02:11 7.5 C 92 % 6.29 C
2359 02-03-2003 08:02:37 7.5 C 92 % 6.29 C
2360 02-03-2003 08:08:11 7.3 C 91 % 5.93 C
2361 02-03-2003 08:08:37 7.3 C 91 % 5.93 C
2362 02-03-2003 08:14:11 7.5 C 91 % 6.13 C
2363 02-03-2003 08:14:37 7.5 C 91 % 6.13 C
2364 02-03-2003 08:20:11 7.5 C 91 % 6.13 C
2365 02-03-2003 08:20:37 7.5 C 91 % 6.13 C
2366 02-03-2003 08:26:11 7.4 C 91 % 6.03 C
2367 02-03-2003 08:26:37 7.4 C 91 % 6.03 C
2368 02-03-2003 08:32:11 7.5 C 91 % 6.13 C
2369 02-03-2003 08:32:37 7.5 C 91 % 6.13 C
2370 02-03-2003 08:38:11 7.6 C 91 % 6.23 C
2371 02-03-2003 08:38:37 7.6 C 91 % 6.23 C
2372 02-03-2003 08:44:11 7.6 C 91 % 6.23 C
2373 02-03-2003 08:44:37 7.6 C 91 % 6.23 C
2374 02-03-2003 08:50:11 7.7 C 91 % 6.33 C
2375 02-03-2003 08:50:37 7.7 C 91 % 6.33 C
Sensor: Nr:Datum:Temp:Feuchte:Taupunkt:
Aussen-T/F 2376 02-03-2003 08:56:11 7.8 C 91 % 6.43 C
2377 02-03-2003 08:56:37 7.8 C 91 % 6.43 C
2378 02-03-2003 09:02:11 7.7 C 91 % 6.33 C
2379 02-03-2003 09:02:37 7.7 C 91 % 6.33 C
2380 02-03-2003 09:08:11 7.9 C 91 % 6.52 C
2381 02-03-2003 09:08:37 7.9 C 91 % 6.52 C
2382 02-03-2003 09:14:11 8.1 C 91 % 6.72 C
2383 02-03-2003 09:14:37 8.1 C 91 % 6.72 C
2384 02-03-2003 09:20:11 8.2 C 91 % 6.82 C
2385 02-03-2003 09:20:37 8.2 C 91 % 6.82 C
2386 02-03-2003 09:26:11 8.6 C 91 % 7.22 C
2387 02-03-2003 09:26:37 8.6 C 91 % 7.22 C
2388 02-03-2003 09:32:11 8.8 C 91 % 7.41 C
2389 02-03-2003 09:32:37 8.8 C 91 % 7.41 C
2390 02-03-2003 09:38:11 9 C 89 % 7.29 C
2391 02-03-2003 09:38:37 9 C 89 % 7.29 C
2392 02-03-2003 09:44:11 9.1 C 89 % 7.39 C
2393 02-03-2003 09:44:37 9.1 C 89 % 7.39 C
2394 02-03-2003 09:50:11 9.5 C 89 % 7.78 C
2395 02-03-2003 09:50:37 9.5 C 89 % 7.78 C
2396 02-03-2003 09:56:11 9.6 C 88 % 7.71 C
2397 02-03-2003 09:56:37 9.6 C 88 % 7.71 C
2398 02-03-2003 10:02:11 10.1 C 81 % 6.99 C
2399 02-03-2003 10:02:37 10.1 C 81 % 6.99 C
2400 02-03-2003 10:08:11 10.2 C 79 % 6.73 C
Sensor: Nr:Datum:Temp:Feuchte:Taupunkt:
Aussen-T/F 2401 02-03-2003 10:08:37 10.2 C 79 % 6.73 C
2402 02-03-2003 10:14:11 10.4 C 79 % 6.92 C
2403 02-03-2003 10:14:37 10.4 C 79 % 6.92 C
2404 02-03-2003 10:20:11 10.8 C 79 % 7.31 C
2405 02-03-2003 10:20:37 10.8 C 79 % 7.31 C
2406 02-03-2003 10:26:11 11.1 C 79 % 7.6 C
2407 02-03-2003 10:26:37 11.1 C 79 % 7.6 C
2408 02-03-2003 10:32:11 11.3 C 75 % 7.04 C
2409 02-03-2003 10:32:37 11.3 C 75 % 7.04 C
2410 02-03-2003 10:38:11 11.4 C 74 % 6.94 C
2411 02-03-2003 10:38:37 11.4 C 74 % 6.94 C
2412 02-03-2003 10:44:11 11.5 C 72 % 6.63 C
2413 02-03-2003 10:44:37 11.5 C 72 % 6.63 C
2414 02-03-2003 10:50:11 11.4 C 69 % 5.92 C
2415 02-03-2003 10:50:37 11.4 C 69 % 5.92 C
2416 02-03-2003 10:56:11 11.1 C 68 % 5.43 C
2417 02-03-2003 10:56:37 11.1 C 68 % 5.43 C
2418 02-03-2003 11:02:11 11.2 C 69 % 5.73 C
2419 02-03-2003 11:02:37 11.2 C 69 % 5.73 C
2420 02-03-2003 11:08:11 11.2 C 68 % 5.52 C
2421 02-03-2003 11:08:37 11.2 C 68 % 5.52 C
2422 02-03-2003 11:14:11 11.2 C 68 % 5.52 C
2423 02-03-2003 11:14:37 11.2 C 68 % 5.52 C
2424 02-03-2003 11:20:11 11.1 C 67 % 5.21 C
2425 02-03-2003 11:20:37 11.1 C 67 % 5.21 C
Sensor: Nr:Datum:Temp:Feuchte:Taupunkt:
Aussen-T/F 2426 02-03-2003 11:26:11 11.2 C 67 % 5.31 C
2427 02-03-2003 11:26:37 11.2 C 67 % 5.31 C
2428 02-03-2003 11:32:11 11.3 C 66 % 5.19 C
2429 02-03-2003 11:32:37 11.3 C 66 % 5.19 C
2430 02-03-2003 11:38:11 11.5 C 67 % 5.59 C
2431 02-03-2003 11:38:37 11.5 C 67 % 5.59 C
2432 02-03-2003 11:44:11 11.8 C 67 % 5.88 C
2433 02-03-2003 11:44:37 11.8 C 67 % 5.88 C
2434 02-03-2003 11:50:11 11.9 C 66 % 5.76 C
2435 02-03-2003 11:50:37 11.9 C 66 % 5.76 C
2436 02-03-2003 11:56:11 11.7 C 66 % 5.57 C
2437 02-03-2003 11:56:37 11.7 C 66 % 5.57 C
2438 02-03-2003 12:02:37 11.3 C 68 % 5.62 C
2439 02-03-2003 12:02:54 11.3 C 68 % 5.62 C
2440 02-03-2003 12:08:37 11 C 70 % 5.75 C
2441 02-03-2003 12:08:54 11 C 70 % 5.75 C
2442 02-03-2003 12:14:37 10.4 C 73 % 5.78 C
2443 02-03-2003 12:14:54 10.4 C 73 % 5.78 C
2444 02-03-2003 12:20:37 10.2 C 76 % 6.16 C
2445 02-03-2003 12:20:54 10.2 C 76 % 6.16 C
2446 02-03-2003 12:26:37 10 C 77 % 6.16 C
2447 02-03-2003 12:26:54 10 C 77 % 6.16 C
2448 02-03-2003 12:32:37 9.6 C 79 % 6.14 C
2449 02-03-2003 12:32:54 9.6 C 79 % 6.14 C
2450 02-03-2003 12:38:37 9.7 C 82 % 6.78 C
Sensor: Nr:Datum:Temp:Feuchte:Taupunkt:
Aussen-T/F 2451 02-03-2003 12:38:54 9.7 C 82 % 6.78 C
2452 02-03-2003 12:44:37 10.1 C 82 % 7.17 C
2453 02-03-2003 12:44:54 10.1 C 82 % 7.17 C
2454 02-03-2003 12:50:37 10.4 C 81 % 7.28 C
2455 02-03-2003 12:50:54 10.4 C 81 % 7.28 C
2456 02-03-2003 12:56:37 10.5 C 79 % 7.02 C
2457 02-03-2003 12:56:54 10.5 C 79 % 7.02 C
2458 02-03-2003 13:02:37 10.6 C 78 % 6.93 C
2459 02-03-2003 13:02:54 10.6 C 78 % 6.93 C
2460 02-03-2003 13:08:37 10.6 C 76 % 6.55 C
2461 02-03-2003 13:08:54 10.6 C 76 % 6.55 C
2462 02-03-2003 13:14:37 10.7 C 74 % 6.26 C
2463 02-03-2003 13:14:54 10.7 C 74 % 6.26 C
2464 02-03-2003 13:20:37 11 C 76 % 6.94 C
2465 02-03-2003 13:20:54 11 C 76 % 6.94 C
2466 02-03-2003 13:26:37 11.1 C 72 % 6.25 C
2467 02-03-2003 13:26:54 11.1 C 72 % 6.25 C
2468 02-03-2003 13:32:37 11.1 C 72 % 6.25 C
2469 02-03-2003 13:32:54 11.1 C 72 % 6.25 C
2470 02-03-2003 13:38:37 11 C 72 % 6.15 C
2471 02-03-2003 13:38:54 11 C 72 % 6.15 C
2472 02-03-2003 13:44:37 11.1 C 75 % 6.84 C
2473 02-03-2003 13:44:54 11.1 C 75 % 6.84 C
2474 02-03-2003 13:50:37 10.8 C 77 % 6.94 C
2475 02-03-2003 13:50:54 10.8 C 77 % 6.94 C
Sensor: Nr:Datum:Temp:Feuchte:Taupunkt:
Aussen-T/F 2476 02-03-2003 13:56:37 10.6 C 77 % 6.74 C
2477 02-03-2003 13:56:54 10.6 C 77 % 6.74 C
2478 02-03-2003 14:02:37 10.2 C 77 % 6.35 C
2479 02-03-2003 14:02:54 10.2 C 77 % 6.35 C
2480 02-03-2003 14:08:37 10.2 C 77 % 6.35 C
2481 02-03-2003 14:08:54 10.2 C 77 % 6.35 C
2482 02-03-2003 14:14:37 9.9 C 82 % 6.98 C
2483 02-03-2003 14:14:54 9.9 C 82 % 6.98 C
2484 02-03-2003 14:20:37 9.7 C 83 % 6.96 C
2485 02-03-2003 14:20:54 9.7 C 83 % 6.96 C
2486 02-03-2003 14:26:37 10 C 83 % 7.25 C
2487 02-03-2003 14:26:54 10 C 83 % 7.25 C
2488 02-03-2003 14:32:37 10.1 C 80 % 6.81 C
2489 02-03-2003 14:32:54 10.1 C 80 % 6.81 C
2490 02-03-2003 14:38:37 10.1 C 77 % 6.26 C
2491 02-03-2003 14:38:54 10.1 C 77 % 6.26 C
2492 02-03-2003 14:44:37 9.8 C 78 % 6.15 C
2493 02-03-2003 14:44:54 9.8 C 78 % 6.15 C
2494 02-03-2003 14:50:37 9.6 C 78 % 5.96 C
2495 02-03-2003 14:50:54 9.6 C 78 % 5.96 C
2496 02-03-2003 14:56:37 9.6 C 79 % 6.14 C
2497 02-03-2003 14:56:54 9.6 C 79 % 6.14 C
2498 02-03-2003 15:02:37 9.4 C 78 % 5.76 C
2499 02-03-2003 15:02:54 9.4 C 78 % 5.76 C
2500 02-03-2003 15:08:10 9.5 C 78 % 5.86 C
Sensor: Nr:Datum:Temp:Feuchte:Taupunkt:
Aussen-T/F 2501 02-03-2003 15:08:37 9.5 C 78 % 5.86 C
2502 02-03-2003 15:14:10 9.6 C 80 % 6.32 C
2503 02-03-2003 15:14:37 9.6 C 80 % 6.32 C
2504 02-03-2003 15:20:10 9.4 C 76 % 5.39 C
2505 02-03-2003 15:20:37 9.4 C 76 % 5.39 C
2506 02-03-2003 15:26:10 9.5 C 73 % 4.91 C
2507 02-03-2003 15:26:37 9.5 C 73 % 4.91 C
2508 02-03-2003 15:32:10 9.7 C 72 % 4.9 C
2509 02-03-2003 15:32:37 9.7 C 72 % 4.9 C
2510 02-03-2003 15:38:10 9.6 C 71 % 4.61 C
2511 02-03-2003 15:38:37 9.6 C 71 % 4.61 C
2512 02-03-2003 15:44:10 9.9 C 73 % 5.29 C
2513 02-03-2003 15:44:37 9.9 C 73 % 5.29 C
2514 02-03-2003 15:50:10 10 C 70 % 4.79 C
2515 02-03-2003 15:50:37 10 C 70 % 4.79 C
2516 02-03-2003 15:56:10 10 C 70 % 4.79 C
2517 02-03-2003 15:56:37 10 C 70 % 4.79 C
2518 02-03-2003 16:02:02 9.9 C 70 % 4.69 C
2519 02-03-2003 16:02:37 9.9 C 70 % 4.69 C
2520 02-03-2003 16:08:02 9.7 C 70 % 4.5 C
2521 02-03-2003 16:08:37 9.7 C 70 % 4.5 C
2522 02-03-2003 16:14:02 9.7 C 72 % 4.9 C
2523 02-03-2003 16:14:37 9.7 C 72 % 4.9 C
2524 02-03-2003 16:20:02 9.7 C 71 % 4.7 C
2525 02-03-2003 16:20:37 9.7 C 71 % 4.7 C
Sensor: Nr:Datum:Temp:Feuchte:Taupunkt:
Aussen-T/F 2526 02-03-2003 16:26:02 9.7 C 71 % 4.7 C
2527 02-03-2003 16:26:37 9.7 C 71 % 4.7 C
2528 02-03-2003 16:32:02 9.8 C 71 % 4.8 C
2529 02-03-2003 16:32:37 9.8 C 71 % 4.8 C
2530 02-03-2003 16:38:02 10.1 C 69 % 4.68 C
2531 02-03-2003 16:38:37 10.1 C 69 % 4.68 C
2532 02-03-2003 16:44:02 10.1 C 67 % 4.26 C
2533 02-03-2003 16:44:37 10.1 C 67 % 4.26 C
2534 02-03-2003 16:50:02 10 C 67 % 4.16 C
2535 02-03-2003 16:50:37 10 C 67 % 4.16 C
2536 02-03-2003 16:56:02 9.9 C 69 % 4.49 C
2537 02-03-2003 16:56:37 9.9 C 69 % 4.49 C
2538 02-03-2003 17:02:02 9.8 C 69 % 4.39 C
2539 02-03-2003 17:02:37 9.8 C 69 % 4.39 C
2540 02-03-2003 17:08:02 9.7 C 71 % 4.7 C
2541 02-03-2003 17:08:37 9.7 C 71 % 4.7 C
2542 02-03-2003 17:14:02 9.6 C 69 % 4.2 C
2543 02-03-2003 17:14:37 9.6 C 69 % 4.2 C
2544 02-03-2003 17:20:02 9.6 C 69 % 4.2 C
2545 02-03-2003 17:20:37 9.6 C 69 % 4.2 C
2546 02-03-2003 17:26:02 9.5 C 69 % 4.11 C
2547 02-03-2003 17:26:37 9.5 C 69 % 4.11 C
2548 02-03-2003 17:32:02 9.3 C 69 % 3.91 C
2549 02-03-2003 17:32:37 9.3 C 69 % 3.91 C
2550 02-03-2003 17:38:02 9.2 C 69 % 3.82 C
Sensor: Nr:Datum:Temp:Feuchte:Taupunkt:
Aussen-T/F 2551 02-03-2003 17:38:37 9.2 C 69 % 3.82 C
2552 02-03-2003 17:44:32 9.3 C 69 % 3.91 C
2553 02-03-2003 17:44:37 9.3 C 69 % 3.91 C
2554 02-03-2003 17:50:32 9.3 C 69 % 3.91 C
2555 02-03-2003 17:50:37 9.3 C 69 % 3.91 C
2556 02-03-2003 17:56:37 9.2 C 69 % 3.82 C
2557 02-03-2003 18:02:37 9.1 C 68 % 3.52 C
2558 02-03-2003 18:08:37 9 C 68 % 3.42 C
2559 02-03-2003 18:14:37 8.9 C 69 % 3.53 C
2560 02-03-2003 18:20:37 8.6 C 69 % 3.24 C
2561 02-03-2003 18:26:37 8.3 C 71 % 3.36 C
2562 02-03-2003 18:32:37 8.2 C 71 % 3.26 C
2563 02-03-2003 18:38:37 8.1 C 71 % 3.17 C
2564 02-03-2003 18:44:37 8 C 71 % 3.07 C
2565 02-03-2003 18:50:37 7.9 C 73 % 3.37 C
2566 02-03-2003 18:56:37 7.8 C 74 % 3.46 C
2567 02-03-2003 19:02:37 7.7 C 74 % 3.37 C
2568 02-03-2003 19:08:37 7.8 C 73 % 3.27 C
2569 02-03-2003 19:14:37 7.8 C 74 % 3.46 C
2570 02-03-2003 19:20:37 7.7 C 74 % 3.37 C
2571 02-03-2003 19:26:37 7.5 C 75 % 3.36 C
2572 02-03-2003 19:32:37 7.5 C 75 % 3.36 C
2573 02-03-2003 19:38:37 7.4 C 76 % 3.45 C
2574 02-03-2003 19:44:37 7.5 C 75 % 3.36 C
2575 02-03-2003 19:50:37 7.7 C 74 % 3.37 C
Sensor: Nr:Datum:Temp:Feuchte:Taupunkt:
Aussen-T/F 2576 02-03-2003 19:56:37 7.6 C 73 % 3.08 C
2577 02-03-2003 20:02:37 7.5 C 74 % 3.17 C
2578 02-03-2003 20:08:37 7.5 C 74 % 3.17 C
2579 02-03-2003 20:14:37 7.5 C 74 % 3.17 C
2580 02-03-2003 20:20:37 7.4 C 74 % 3.08 C
2581 02-03-2003 20:26:37 7.3 C 74 % 2.98 C
2582 02-03-2003 20:32:37 7 C 75 % 2.88 C
2583 02-03-2003 20:38:37 6.9 C 76 % 2.97 C
2584 02-03-2003 20:44:37 6.6 C 77 % 2.86 C
2585 02-03-2003 20:51:11 6.3 C 78 % 2.75 C
2586 02-03-2003 20:57:11 6 C 79 % 2.64 C
2587 02-03-2003 21:03:11 5.9 C 80 % 2.72 C
2588 02-03-2003 21:09:11 5.9 C 81 % 2.9 C
2589 02-03-2003 21:15:11 6 C 80 % 2.82 C
2590 02-03-2003 21:21:11 6 C 80 % 2.82 C
2591 02-03-2003 21:27:11 5.9 C 81 % 2.9 C
2592 02-03-2003 21:33:11 5.9 C 81 % 2.9 C
2593 02-03-2003 21:39:11 6 C 80 % 2.82 C
2594 02-03-2003 21:45:11 6 C 80 % 2.82 C
2595 02-03-2003 21:51:11 5.9 C 81 % 2.9 C
2596 02-03-2003 21:57:11 5.9 C 82 % 3.07 C
2597 02-03-2003 22:03:11 6 C 81 % 2.99 C
2598 02-03-2003 22:09:11 6.3 C 80 % 3.11 C
2599 02-03-2003 22:15:11 6.7 C 79 % 3.32 C
2600 02-03-2003 22:21:11 6.7 C 78 % 3.14 C
Sensor: Nr:Datum:Temp:Feuchte:Taupunkt:
Aussen-T/F 2601 02-03-2003 22:27:11 6.7 C 78 % 3.14 C
2602 02-03-2003 22:39:11 6.8 C 77 % 3.06 C
2603 02-03-2003 22:45:11 6.9 C 77 % 3.16 C
2604 02-03-2003 22:51:11 6.9 C 77 % 3.16 C
2605 02-03-2003 22:57:11 6.8 C 76 % 2.87 C
2606 02-03-2003 23:03:11 6.7 C 77 % 2.96 C
2607 02-03-2003 23:09:11 6.8 C 77 % 3.06 C
2608 02-03-2003 23:15:11 6.8 C 77 % 3.06 C
2609 02-03-2003 23:21:11 6.8 C 77 % 3.06 C
2610 02-03-2003 23:27:11 6.7 C 77 % 2.96 C
2611 02-03-2003 23:33:11 6.7 C 77 % 2.96 C
2612 02-03-2003 23:39:11 6.7 C 77 % 2.96 C
2613 02-03-2003 23:45:11 6.7 C 78 % 3.14 C
2614 02-03-2003 23:51:11 6.7 C 78 % 3.14 C
2615 02-03-2003 23:57:11 6.5 C 78 % 2.95 C
2616 03-03-2003 00:03:11 6.4 C 79 % 3.03 C
2617 03-03-2003 00:09:11 6.2 C 80 % 3.01 C
2618 03-03-2003 00:15:11 6 C 82 % 3.17 C
2619 03-03-2003 00:21:11 5.8 C 85 % 3.48 C
2620 03-03-2003 00:27:11 5.8 C 86 % 3.64 C
2621 03-03-2003 00:33:11 5.7 C 87 % 3.71 C
2622 03-03-2003 00:39:11 5.6 C 88 % 3.77 C
2623 03-03-2003 00:45:11 5.6 C 88 % 3.77 C
2624 03-03-2003 00:51:11 5.6 C 88 % 3.77 C
2625 03-03-2003 00:57:11 5.6 C 88 % 3.77 C
Sensor: Nr:Datum:Temp:Feuchte:Taupunkt:
Aussen-T/F 2626 03-03-2003 01:03:11 5.6 C 88 % 3.77 C
2627 03-03-2003 01:09:11 5.6 C 88 % 3.77 C
2628 03-03-2003 01:15:11 5.6 C 88 % 3.77 C
2629 03-03-2003 01:21:11 5.6 C 87 % 3.61 C
2630 03-03-2003 01:27:11 5.5 C 87 % 3.51 C
2631 03-03-2003 01:33:11 5.6 C 87 % 3.61 C
2632 03-03-2003 01:39:11 5.6 C 87 % 3.61 C
2633 03-03-2003 01:45:11 5.6 C 87 % 3.61 C
2634 03-03-2003 01:51:11 5.6 C 87 % 3.61 C
2635 03-03-2003 01:57:11 5.6 C 87 % 3.61 C
2636 03-03-2003 02:03:11 5.6 C 87 % 3.61 C
2637 03-03-2003 02:09:11 5.7 C 87 % 3.71 C
2638 03-03-2003 02:15:11 5.7 C 86 % 3.55 C
2639 03-03-2003 02:21:11 5.7 C 86 % 3.55 C
2640 03-03-2003 02:27:11 5.7 C 86 % 3.55 C
2641 03-03-2003 02:33:11 5.7 C 86 % 3.55 C
2642 03-03-2003 02:39:11 5.7 C 86 % 3.55 C
2643 03-03-2003 02:45:11 5.7 C 85 % 3.38 C
2644 03-03-2003 02:51:11 5.8 C 85 % 3.48 C
2645 03-03-2003 02:57:11 5.8 C 85 % 3.48 C
2646 03-03-2003 03:03:11 5.9 C 84 % 3.41 C
2647 03-03-2003 03:09:11 5.9 C 83 % 3.24 C
2648 03-03-2003 03:15:11 5.9 C 83 % 3.24 C
2649 03-03-2003 03:21:11 5.8 C 83 % 3.14 C
2650 03-03-2003 03:27:11 5.8 C 84 % 3.31 C
Sensor: Nr:Datum:Temp:Feuchte:Taupunkt:
Aussen-T/F 2651 03-03-2003 03:33:11 5.8 C 81 % 2.8 C
2652 03-03-2003 03:39:11 5.9 C 81 % 2.9 C
2653 03-03-2003 03:45:11 5.8 C 81 % 2.8 C
2654 03-03-2003 03:51:11 5.8 C 80 % 2.62 C
2655 03-03-2003 03:57:11 5.7 C 79 % 2.35 C
2656 03-03-2003 04:03:11 5.7 C 79 % 2.35 C
2657 03-03-2003 04:09:11 5.7 C 79 % 2.35 C
2658 03-03-2003 04:15:11 5.8 C 78 % 2.27 C
2659 03-03-2003 04:21:11 5.7 C 78 % 2.17 C
2660 03-03-2003 04:27:11 5.8 C 78 % 2.27 C
2661 03-03-2003 04:33:11 5.7 C 78 % 2.17 C
2662 03-03-2003 04:39:11 5.7 C 78 % 2.17 C
2663 03-03-2003 04:45:11 5.7 C 78 % 2.17 C
2664 03-03-2003 04:51:11 5.7 C 79 % 2.35 C
2665 03-03-2003 04:57:11 5.7 C 79 % 2.35 C
2666 03-03-2003 05:03:11 5.7 C 79 % 2.35 C
2667 03-03-2003 05:09:11 5.6 C 79 % 2.25 C
2668 03-03-2003 05:15:11 5.6 C 78 % 2.07 C
2669 03-03-2003 05:21:11 5.5 C 79 % 2.16 C
2670 03-03-2003 05:27:11 5.4 C 78 % 1.88 C
2671 03-03-2003 05:33:11 5.3 C 79 % 1.96 C
2672 03-03-2003 05:39:11 5.2 C 80 % 2.04 C
2673 03-03-2003 05:45:11 5.1 C 81 % 2.12 C
2674 03-03-2003 05:51:11 5.2 C 81 % 2.21 C
2675 03-03-2003 05:57:11 5.2 C 81 % 2.21 C
Sensor: Nr:Datum:Temp:Feuchte:Taupunkt:
Aussen-T/F 2676 03-03-2003 06:03:11 5.1 C 81 % 2.12 C
2677 03-03-2003 06:09:11 5.1 C 81 % 2.12 C
2678 03-03-2003 06:15:11 5.1 C 81 % 2.12 C
2679 03-03-2003 06:21:11 5.1 C 82 % 2.29 C
2680 03-03-2003 06:27:11 5 C 82 % 2.19 C
2681 03-03-2003 06:33:11 5 C 81 % 2.02 C
2682 03-03-2003 06:39:11 5 C 82 % 2.19 C
2683 03-03-2003 06:45:11 4.8 C 83 % 2.16 C
2684 03-03-2003 06:51:11 4.7 C 84 % 2.23 C
2685 03-03-2003 06:57:11 4.7 C 84 % 2.23 C
2686 03-03-2003 07:03:11 4.7 C 84 % 2.23 C
2687 03-03-2003 07:09:11 4.7 C 84 % 2.23 C
2688 03-03-2003 07:15:11 4.7 C 85 % 2.4 C
2689 03-03-2003 07:21:11 4.6 C 85 % 2.3 C
2690 03-03-2003 07:27:11 4.6 C 85 % 2.3 C
2691 03-03-2003 07:33:11 4.6 C 86 % 2.47 C
2692 03-03-2003 07:39:11 4.6 C 85 % 2.3 C
2693 03-03-2003 07:45:11 4.6 C 86 % 2.47 C
2694 03-03-2003 07:51:11 4.5 C 86 % 2.37 C
2695 03-03-2003 07:57:11 4.5 C 86 % 2.37 C
2696 03-03-2003 08:03:11 4.6 C 86 % 2.47 C
2697 03-03-2003 08:09:11 4.7 C 86 % 2.56 C
2698 03-03-2003 08:15:11 4.7 C 86 % 2.56 C
2699 03-03-2003 08:21:11 4.8 C 85 % 2.5 C
2700 03-03-2003 08:27:11 4.9 C 85 % 2.6 C
Sensor: Nr:Datum:Temp:Feuchte:Taupunkt:
Aussen-T/F 2701 03-03-2003 08:33:11 5 C 84 % 2.53 C
2702 03-03-2003 08:39:11 5 C 84 % 2.53 C
2703 03-03-2003 08:45:11 5 C 83 % 2.36 C
2704 03-03-2003 08:51:11 5 C 83 % 2.36 C
2705 03-03-2003 08:57:11 4.9 C 84 % 2.43 C
2706 03-03-2003 09:03:11 4.9 C 85 % 2.6 C
2707 03-03-2003 09:09:11 4.9 C 85 % 2.6 C
2708 03-03-2003 09:15:11 4.9 C 85 % 2.6 C
2709 03-03-2003 09:21:11 4.9 C 86 % 2.76 C
2710 03-03-2003 09:27:11 4.9 C 86 % 2.76 C
2711 03-03-2003 09:33:11 4.9 C 86 % 2.76 C
2712 03-03-2003 09:39:11 4.9 C 86 % 2.76 C
2713 03-03-2003 09:45:11 4.9 C 86 % 2.76 C
2714 03-03-2003 09:51:11 4.9 C 86 % 2.76 C
2715 03-03-2003 09:57:11 4.9 C 86 % 2.76 C
2716 03-03-2003 10:03:11 4.9 C 86 % 2.76 C
2717 03-03-2003 10:09:11 4.9 C 86 % 2.76 C
2718 03-03-2003 10:15:11 4.9 C 86 % 2.76 C
2719 03-03-2003 10:21:11 5 C 85 % 2.69 C
2720 03-03-2003 10:27:11 5 C 85 % 2.69 C
2721 03-03-2003 10:33:11 5 C 85 % 2.69 C
2722 03-03-2003 10:39:11 5.1 C 85 % 2.79 C
2723 03-03-2003 10:45:11 5.1 C 84 % 2.63 C
2724 03-03-2003 10:51:11 5.2 C 84 % 2.72 C
2725 03-03-2003 10:57:11 5.2 C 84 % 2.72 C
Sensor: Nr:Datum:Temp:Feuchte:Taupunkt:
Aussen-T/F 2726 03-03-2003 11:03:11 5.3 C 84 % 2.82 C
2727 03-03-2003 11:09:11 5.4 C 84 % 2.92 C
2728 03-03-2003 11:15:11 5.4 C 84 % 2.92 C
2729 03-03-2003 11:21:11 5.4 C 83 % 2.75 C
2730 03-03-2003 11:27:11 5.5 C 82 % 2.68 C
2731 03-03-2003 11:33:11 5.6 C 82 % 2.78 C
2732 03-03-2003 11:39:11 5.6 C 81 % 2.6 C
2733 03-03-2003 11:45:11 5.7 C 82 % 2.87 C
2734 03-03-2003 11:51:11 5.7 C 81 % 2.7 C
2735 03-03-2003 11:57:11 5.7 C 81 % 2.7 C
2736 03-03-2003 12:03:25 5.7 C 81 % 2.7 C
2737 03-03-2003 12:09:25 5.8 C 81 % 2.8 C
2738 03-03-2003 12:15:25 5.7 C 80 % 2.53 C
2739 03-03-2003 12:21:25 5.7 C 80 % 2.53 C
2740 03-03-2003 12:27:25 5.7 C 80 % 2.53 C
2741 03-03-2003 12:33:25 5.7 C 80 % 2.53 C
2742 03-03-2003 12:39:25 5.7 C 80 % 2.53 C
2743 03-03-2003 12:45:25 5.7 C 80 % 2.53 C
2744 03-03-2003 12:51:25 5.7 C 80 % 2.53 C
2745 03-03-2003 12:57:25 5.6 C 80 % 2.43 C
2746 03-03-2003 13:03:25 5.6 C 80 % 2.43 C
2747 03-03-2003 13:09:25 5.6 C 81 % 2.6 C
2748 03-03-2003 13:15:25 5.6 C 81 % 2.6 C
2749 03-03-2003 13:21:25 5.6 C 81 % 2.6 C
2750 03-03-2003 13:27:25 5.6 C 80 % 2.43 C
Sensor: Nr:Datum:Temp:Feuchte:Taupunkt:
Aussen-T/F 2751 03-03-2003 13:33:25 5.6 C 80 % 2.43 C
2752 03-03-2003 13:39:25 5.6 C 81 % 2.6 C
2753 03-03-2003 13:45:25 5.6 C 81 % 2.6 C
2754 03-03-2003 13:51:25 5.6 C 81 % 2.6 C
2755 03-03-2003 13:57:25 5.6 C 81 % 2.6 C
2756 03-03-2003 14:03:25 5.7 C 81 % 2.7 C
2757 03-03-2003 14:09:25 5.7 C 81 % 2.7 C
2758 03-03-2003 14:15:25 5.7 C 81 % 2.7 C
2759 03-03-2003 14:21:25 5.7 C 81 % 2.7 C
2760 03-03-2003 14:27:25 5.7 C 80 % 2.53 C
2761 03-03-2003 14:33:25 5.7 C 81 % 2.7 C
2762 03-03-2003 14:39:25 5.8 C 81 % 2.8 C
2763 03-03-2003 14:45:11 5.8 C 81 % 2.8 C
2764 03-03-2003 14:51:11 5.8 C 81 % 2.8 C
2765 03-03-2003 14:57:11 5.8 C 81 % 2.8 C
2766 03-03-2003 15:03:11 5.8 C 81 % 2.8 C
2767 03-03-2003 15:09:11 5.8 C 81 % 2.8 C
2768 03-03-2003 15:15:11 5.8 C 81 % 2.8 C
2769 03-03-2003 15:21:11 5.8 C 81 % 2.8 C
2770 03-03-2003 15:27:11 5.8 C 81 % 2.8 C
2771 03-03-2003 15:33:11 5.8 C 81 % 2.8 C
2772 03-03-2003 15:39:11 5.8 C 81 % 2.8 C
2773 03-03-2003 15:45:11 6.1 C 78 % 2.56 C
2774 03-03-2003 15:51:11 6.1 C 78 % 2.56 C
2775 03-03-2003 15:57:11 6.2 C 79 % 2.84 C
Sensor: Nr:Datum:Temp:Feuchte:Taupunkt:
Aussen-T/F 2776 03-03-2003 16:09:10 6.3 C 79 % 2.93 C
2777 03-03-2003 16:15:10 6.5 C 78 % 2.95 C
2778 03-03-2003 16:21:10 6.5 C 78 % 2.95 C
2779 03-03-2003 16:27:10 6.5 C 78 % 2.95 C
2780 03-03-2003 16:33:10 6.5 C 78 % 2.95 C
2781 03-03-2003 16:39:10 6.5 C 78 % 2.95 C
2782 03-03-2003 16:45:10 6.5 C 78 % 2.95 C
2783 03-03-2003 16:51:10 6.5 C 78 % 2.95 C
2784 03-03-2003 16:57:10 6.3 C 78 % 2.75 C
2785 03-03-2003 17:03:10 6.3 C 78 % 2.75 C
2786 03-03-2003 17:09:10 6.3 C 78 % 2.75 C
2787 03-03-2003 17:15:10 6 C 78 % 2.46 C
2788 03-03-2003 17:21:10 6 C 78 % 2.46 C
2789 03-03-2003 17:27:10 6 C 78 % 2.46 C
2790 03-03-2003 17:33:10 6 C 78 % 2.46 C
2791 03-03-2003 17:39:10 6 C 78 % 2.46 C
2792 03-03-2003 17:51:10 6 C 78 % 2.46 C
2793 03-03-2003 17:57:10 6 C 78 % 2.46 C
2794 03-03-2003 18:03:10 5.8 C 80 % 2.62 C
2795 03-03-2003 18:09:10 5.8 C 80 % 2.62 C
2796 03-03-2003 18:15:10 5.7 C 80 % 2.53 C
2797 03-03-2003 18:21:10 5.7 C 79 % 2.35 C
2798 03-03-2003 18:27:10 5.7 C 79 % 2.35 C
2799 03-03-2003 18:33:10 5.7 C 79 % 2.35 C
2800 03-03-2003 18:39:10 5.7 C 79 % 2.35 C
Sensor: Nr:Datum:Temp:Feuchte:Taupunkt:
Aussen-T/F 2801 03-03-2003 18:45:10 5.7 C 79 % 2.35 C
2802 03-03-2003 18:51:10 5.5 C 81 % 2.51 C
2803 03-03-2003 18:57:10 5.5 C 81 % 2.51 C
2804 03-03-2003 19:03:10 5.5 C 81 % 2.51 C
2805 03-03-2003 19:09:10 5.5 C 81 % 2.51 C
2806 03-03-2003 19:15:10 5.4 C 80 % 2.23 C
2807 03-03-2003 19:21:10 5.4 C 80 % 2.23 C
2808 03-03-2003 19:27:10 5.4 C 81 % 2.41 C
2809 03-03-2003 19:33:10 5.3 C 81 % 2.31 C
2810 03-03-2003 19:39:10 5.3 C 81 % 2.31 C
2811 03-03-2003 19:45:10 5.2 C 82 % 2.39 C
2812 03-03-2003 19:51:10 5.2 C 82 % 2.39 C
2813 03-03-2003 19:57:10 5.2 C 82 % 2.39 C
2814 03-03-2003 20:04:10 5.2 C 82 % 2.39 C
2815 03-03-2003 20:10:10 5.2 C 82 % 2.39 C
2816 03-03-2003 20:16:10 5.2 C 82 % 2.39 C
2817 03-03-2003 20:22:10 5.1 C 81 % 2.12 C
2818 03-03-2003 20:28:10 5.2 C 82 % 2.39 C
2819 03-03-2003 20:34:10 5.2 C 82 % 2.39 C
2820 03-03-2003 20:40:10 5.2 C 82 % 2.39 C
2821 03-03-2003 20:46:10 5.2 C 82 % 2.39 C
2822 03-03-2003 20:52:10 5.1 C 82 % 2.29 C
2823 03-03-2003 20:58:10 5.1 C 82 % 2.29 C
2824 03-03-2003 21:04:10 5.1 C 82 % 2.29 C
2825 03-03-2003 21:10:10 5 C 82 % 2.19 C
Sensor: Nr:Datum:Temp:Feuchte:Taupunkt:
Aussen-T/F 2826 03-03-2003 21:16:10 5 C 83 % 2.36 C
2827 03-03-2003 21:22:10 5 C 83 % 2.36 C
2828 03-03-2003 21:28:10 5 C 83 % 2.36 C
2829 03-03-2003 21:34:10 5 C 83 % 2.36 C
2830 03-03-2003 21:40:10 5 C 82 % 2.19 C
2831 03-03-2003 21:46:10 4.9 C 83 % 2.26 C
2832 03-03-2003 21:52:10 4.9 C 83 % 2.26 C
2833 03-03-2003 21:58:10 4.9 C 83 % 2.26 C
2834 03-03-2003 22:04:10 4.9 C 83 % 2.26 C
2835 03-03-2003 22:10:10 4.9 C 83 % 2.26 C
2836 03-03-2003 22:16:10 4.9 C 83 % 2.26 C
2837 03-03-2003 22:22:10 4.8 C 83 % 2.16 C
2838 03-03-2003 22:28:10 4.8 C 83 % 2.16 C
2839 03-03-2003 22:34:10 4.8 C 84 % 2.33 C
2840 03-03-2003 22:40:10 4.8 C 84 % 2.33 C
2841 03-03-2003 22:46:10 4.8 C 84 % 2.33 C
2842 03-03-2003 22:52:10 4.7 C 84 % 2.23 C
2843 03-03-2003 22:58:10 4.7 C 84 % 2.23 C
2844 03-03-2003 23:04:10 4.7 C 84 % 2.23 C
2845 03-03-2003 23:10:10 4.7 C 84 % 2.23 C
2846 03-03-2003 23:16:10 4.7 C 84 % 2.23 C
2847 03-03-2003 23:22:10 4.7 C 84 % 2.23 C
2848 03-03-2003 23:28:10 4.7 C 84 % 2.23 C
2849 03-03-2003 23:34:10 4.6 C 84 % 2.14 C
2850 03-03-2003 23:40:10 4.6 C 84 % 2.14 C
Sensor: Nr:Datum:Temp:Feuchte:Taupunkt:
Aussen-T/F 2851 03-03-2003 23:46:10 4.6 C 84 % 2.14 C
2852 03-03-2003 23:52:10 4.6 C 84 % 2.14 C
2853 03-03-2003 23:58:10 4.6 C 84 % 2.14 C
2854 04-03-2003 00:04:10 4.6 C 84 % 2.14 C
2855 04-03-2003 00:10:10 4.6 C 84 % 2.14 C
2856 04-03-2003 00:16:10 4.6 C 84 % 2.14 C
2857 04-03-2003 00:22:10 4.6 C 84 % 2.14 C
2858 04-03-2003 00:28:10 4.6 C 84 % 2.14 C
2859 04-03-2003 00:34:10 4.6 C 84 % 2.14 C
2860 04-03-2003 00:40:10 4.5 C 84 % 2.04 C
2861 04-03-2003 00:46:10 4.5 C 84 % 2.04 C
2862 04-03-2003 00:52:10 4.5 C 84 % 2.04 C
2863 04-03-2003 00:58:10 4.6 C 84 % 2.14 C
2864 04-03-2003 01:04:10 4.6 C 84 % 2.14 C
2865 04-03-2003 01:10:10 4.5 C 84 % 2.04 C
2866 04-03-2003 01:16:10 4.6 C 84 % 2.14 C
2867 04-03-2003 01:22:10 4.5 C 84 % 2.04 C
2868 04-03-2003 01:28:10 4.5 C 84 % 2.04 C
2869 04-03-2003 01:34:10 4.5 C 84 % 2.04 C
2870 04-03-2003 01:40:10 4.5 C 84 % 2.04 C
2871 04-03-2003 01:46:10 4.5 C 84 % 2.04 C
2872 04-03-2003 01:52:10 4.5 C 84 % 2.04 C
2873 04-03-2003 01:58:10 4.5 C 84 % 2.04 C
2874 04-03-2003 02:04:10 4.5 C 84 % 2.04 C
2875 04-03-2003 02:10:10 4.5 C 84 % 2.04 C
Sensor: Nr:Datum:Temp:Feuchte:Taupunkt:
Aussen-T/F 2876 04-03-2003 02:16:10 4.5 C 84 % 2.04 C
2877 04-03-2003 02:22:10 4.5 C 84 % 2.04 C
2878 04-03-2003 02:28:10 4.5 C 84 % 2.04 C
2879 04-03-2003 02:34:10 4.4 C 84 % 1.94 C
2880 04-03-2003 02:40:10 4.4 C 84 % 1.94 C
2881 04-03-2003 02:46:10 4.4 C 84 % 1.94 C
2882 04-03-2003 02:52:10 4.4 C 84 % 1.94 C
2883 04-03-2003 02:58:10 4.4 C 84 % 1.94 C
2884 04-03-2003 03:04:10 4.3 C 84 % 1.84 C
2885 04-03-2003 03:10:10 4.3 C 84 % 1.84 C
2886 04-03-2003 03:16:10 4.4 C 84 % 1.94 C
2887 04-03-2003 03:22:10 4.3 C 84 % 1.84 C
2888 04-03-2003 03:28:10 4.2 C 84 % 1.74 C
2889 04-03-2003 03:34:10 4.2 C 84 % 1.74 C
2890 04-03-2003 03:40:10 4.2 C 85 % 1.91 C
2891 04-03-2003 03:46:10 4.1 C 85 % 1.81 C
2892 04-03-2003 03:52:10 4 C 85 % 1.71 C
2893 04-03-2003 03:58:10 4 C 85 % 1.71 C
2894 04-03-2003 04:04:10 4 C 85 % 1.71 C
2895 04-03-2003 04:10:10 3.8 C 85 % 1.52 C
2896 04-03-2003 04:16:10 3.6 C 85 % 1.32 C
2897 04-03-2003 04:22:10 3.5 C 85 % 1.22 C
2898 04-03-2003 04:28:10 3.2 C 84 % 0.76 C
2899 04-03-2003 04:34:10 2.9 C 85 % 0.63 C
2900 04-03-2003 04:40:10 2.7 C 85 % 0.44 C
Sensor: Nr:Datum:Temp:Feuchte:Taupunkt:
Aussen-T/F 2901 04-03-2003 04:46:10 2.6 C 85 % 0.34 C
2902 04-03-2003 04:52:10 2.5 C 85 % 0.24 C
2903 04-03-2003 04:58:10 2.4 C 85 % 0.14 C
2904 04-03-2003 05:04:10 2.3 C 85 % 0.04 C
2905 04-03-2003 05:10:10 2.2 C 85 % -0.05 C
2906 04-03-2003 05:16:10 2 C 85 % -0.25 C
2907 04-03-2003 05:22:10 1.9 C 86 % -0.19 C
2908 04-03-2003 05:28:10 1.8 C 86 % -0.29 C
2909 04-03-2003 05:34:10 1.8 C 86 % -0.29 C
2910 04-03-2003 05:40:10 1.8 C 86 % -0.29 C
2911 04-03-2003 05:46:10 1.7 C 86 % -0.38 C
2912 04-03-2003 05:52:10 1.5 C 86 % -0.58 C
2913 04-03-2003 05:58:10 1.5 C 86 % -0.58 C
2914 04-03-2003 06:04:10 1.5 C 86 % -0.58 C
2915 04-03-2003 06:10:10 1.3 C 86 % -0.78 C
2916 04-03-2003 06:16:10 1.4 C 87 % -0.52 C
2917 04-03-2003 06:22:10 1.4 C 87 % -0.52 C
2918 04-03-2003 06:28:10 1.4 C 88 % -0.36 C
2919 04-03-2003 06:34:10 1.5 C 88 % -0.27 C
2920 04-03-2003 06:40:10 1.5 C 88 % -0.27 C
2921 04-03-2003 06:46:10 1.5 C 88 % -0.27 C
2922 04-03-2003 06:52:10 1.5 C 88 % -0.27 C
2923 04-03-2003 06:58:10 1.5 C 88 % -0.27 C
2924 04-03-2003 07:04:10 1.6 C 88 % -0.17 C
2925 04-03-2003 07:10:10 1.5 C 88 % -0.27 C
Sensor: Nr:Datum:Temp:Feuchte:Taupunkt:
Aussen-T/F 2926 04-03-2003 07:16:10 1.5 C 88 % -0.27 C
2927 04-03-2003 07:22:10 1.4 C 88 % -0.36 C
2928 04-03-2003 07:28:10 1.4 C 89 % -0.21 C
2929 04-03-2003 07:34:10 1.1 C 89 % -0.51 C
2930 04-03-2003 07:40:10 1.1 C 89 % -0.51 C
2931 04-03-2003 07:46:10 1 C 89 % -0.6 C
2932 04-03-2003 07:52:10 1 C 90 % -0.45 C
2933 04-03-2003 07:58:10 1 C 90 % -0.45 C
2934 04-03-2003 08:04:10 0.9 C 91 % -0.4 C
2935 04-03-2003 08:10:10 0.9 C 91 % -0.4 C
2936 04-03-2003 08:16:10 1 C 91 % -0.3 C
2937 04-03-2003 08:22:10 1.1 C 91 % -0.2 C
2938 04-03-2003 08:28:10 1.1 C 91 % -0.2 C
2939 04-03-2003 08:34:10 1.1 C 91 % -0.2 C
2940 04-03-2003 08:40:10 1 C 90 % -0.45 C
2941 04-03-2003 08:46:10 1.3 C 91 % 0 C
2942 04-03-2003 08:52:10 1.5 C 91 % 0.19 C
2943 04-03-2003 08:58:10 1.7 C 90 % 0.24 C
2944 04-03-2003 09:04:10 1.8 C 89 % 0.19 C
2945 04-03-2003 09:10:10 1.9 C 89 % 0.28 C
2946 04-03-2003 09:16:10 2 C 88 % 0.23 C
2947 04-03-2003 09:22:10 1.8 C 88 % 0.03 C
2948 04-03-2003 09:28:10 1.8 C 88 % 0.03 C
2949 04-03-2003 09:34:10 2.1 C 87 % 0.17 C
2950 04-03-2003 09:40:10 2.4 C 87 % 0.46 C
Sensor: Nr:Datum:Temp:Feuchte:Taupunkt:
Aussen-T/F 2951 04-03-2003 09:46:10 2.7 C 87 % 0.76 C
2952 04-03-2003 09:52:10 2.8 C 86 % 0.7 C
2953 04-03-2003 09:58:10 2.5 C 84 % 0.08 C
2954 04-03-2003 10:04:10 2.6 C 84 % 0.18 C
2955 04-03-2003 10:10:10 3 C 84 % 0.57 C
2956 04-03-2003 10:16:10 3.2 C 84 % 0.76 C
2957 04-03-2003 10:22:10 3.5 C 83 % 0.89 C
2958 04-03-2003 10:28:10 3.7 C 82 % 0.92 C
2959 04-03-2003 10:34:10 3.8 C 81 % 0.85 C
2960 04-03-2003 10:40:10 3.9 C 81 % 0.95 C
2961 04-03-2003 10:46:10 4.1 C 80 % 0.97 C
2962 04-03-2003 10:52:10 4.2 C 80 % 1.07 C
2963 04-03-2003 10:58:10 4.3 C 81 % 1.34 C
2964 04-03-2003 11:04:10 4.3 C 81 % 1.34 C
2965 04-03-2003 11:10:10 4.2 C 82 % 1.41 C
2966 04-03-2003 11:16:10 4.2 C 82 % 1.41 C
2967 04-03-2003 11:22:10 4.5 C 82 % 1.7 C
2968 04-03-2003 11:28:10 4.9 C 83 % 2.26 C
2969 04-03-2003 11:34:10 5.1 C 82 % 2.29 C
2970 04-03-2003 11:40:10 5.8 C 81 % 2.8 C
2971 04-03-2003 11:46:10 6.6 C 76 % 2.68 C
2972 04-03-2003 11:52:10 7 C 73 % 2.5 C
2973 04-03-2003 11:58:10 7 C 73 % 2.5 C
2974 04-03-2003 12:04:11 8.1 C 68 % 2.56 C
2975 04-03-2003 12:10:11 8.3 C 64 % 1.9 C
Sensor: Nr:Datum:Temp:Feuchte:Taupunkt:
Aussen-T/F 2976 04-03-2003 12:16:11 8.5 C 64 % 2.09 C
2977 04-03-2003 12:22:11 9.1 C 60 % 1.76 C
2978 04-03-2003 12:28:11 9.1 C 60 % 1.76 C
2979 04-03-2003 12:34:11 9.7 C 57 % 1.61 C
2980 04-03-2003 12:40:11 10.1 C 54 % 1.23 C
2981 04-03-2003 12:46:11 10.1 C 54 % 1.23 C
2982 04-03-2003 12:52:11 10.1 C 54 % 1.23 C
2983 04-03-2003 12:58:11 10.4 C 52 % 0.98 C
2984 04-03-2003 13:04:11 10.7 C 54 % 1.78 C
2985 04-03-2003 13:10:11 10.5 C 50 % 0.53 C
2986 04-03-2003 13:16:11 11 C 51 % 1.27 C
2987 04-03-2003 13:22:11 11.1 C 50 % 1.08 C
2988 04-03-2003 13:28:11 11.5 C 48 % 0.89 C
2989 04-03-2003 13:34:11 11.7 C 48 % 1.07 C
2990 04-03-2003 13:40:11 11.6 C 46 % 0.39 C
2991 04-03-2003 13:46:11 11.4 C 46 % 0.21 C
2992 04-03-2003 13:52:11 11.4 C 46 % 0.21 C
2993 04-03-2003 13:58:11 11.4 C 47 % 0.5 C
2994 04-03-2003 14:04:11 11.5 C 47 % 0.6 C
2995 04-03-2003 14:10:11 11.8 C 46 % 0.57 C
2996 04-03-2003 14:16:11 12.2 C 46 % 0.94 C
2997 04-03-2003 14:22:11 12.1 C 43 % -0.08 C
2998 04-03-2003 14:28:11 12.2 C 44 % 0.32 C
2999 04-03-2003 14:34:11 12.6 C 43 % 0.37 C
3000 04-03-2003 14:40:11 12.7 C 42 % 0.13 C
Sensor: Nr:Datum:Temp:Feuchte:Taupunkt:
Aussen-T/F 3001 04-03-2003 14:46:11 13 C 42 % 0.41 C
3002 04-03-2003 14:52:11 12.8 C 41 % -0.11 C
3003 04-03-2003 14:58:11 12.6 C 42 % 0.04 C
3004 04-03-2003 15:04:11 12.5 C 43 % 0.28 C
3005 04-03-2003 15:10:11 12.7 C 42 % 0.13 C
3006 04-03-2003 15:16:11 12.9 C 42 % 0.31 C
3007 04-03-2003 15:22:11 13.3 C 42 % 0.68 C
3008 04-03-2003 15:28:11 13.2 C 42 % 0.59 C
3009 04-03-2003 15:34:11 13.6 C 42 % 0.95 C
3010 04-03-2003 15:40:11 13.4 C 41 % 0.43 C
3011 04-03-2003 15:46:11 13.4 C 41 % 0.43 C
3012 04-03-2003 15:52:11 13.3 C 41 % 0.34 C
3013 04-03-2003 15:58:11 13.2 C 41 % 0.25 C
3014 04-03-2003 16:04:11 13.2 C 42 % 0.59 C
3015 04-03-2003 16:10:11 13.3 C 41 % 0.34 C
3016 04-03-2003 16:16:11 13.2 C 42 % 0.59 C
3017 04-03-2003 16:22:11 13.2 C 42 % 0.59 C
3018 04-03-2003 16:28:11 12.6 C 43 % 0.37 C
3019 04-03-2003 16:34:11 12.2 C 45 % 0.63 C
3020 04-03-2003 16:40:11 12 C 46 % 0.75 C
3021 04-03-2003 16:46:11 11.8 C 48 % 1.16 C
3022 04-03-2003 16:52:11 11.7 C 48 % 1.07 C
3023 04-03-2003 16:58:11 11.5 C 49 % 1.17 C
3024 04-03-2003 17:04:11 11.3 C 50 % 1.27 C
3025 04-03-2003 17:10:11 11.2 C 50 % 1.18 C
Sensor: Nr:Datum:Temp:Feuchte:Taupunkt:
Aussen-T/F 3026 04-03-2003 17:16:11 11 C 51 % 1.27 C
3027 04-03-2003 17:22:11 10.8 C 52 % 1.35 C
3028 04-03-2003 17:28:11 10.7 C 52 % 1.26 C
3029 04-03-2003 17:34:11 10.4 C 53 % 1.25 C
3030 04-03-2003 17:40:11 10.3 C 54 % 1.41 C
3031 04-03-2003 17:46:11 10.1 C 55 % 1.48 C
3032 04-03-2003 17:52:11 9.9 C 55 % 1.3 C
3033 04-03-2003 17:58:11 9.7 C 57 % 1.61 C
3034 04-03-2003 18:04:11 9.6 C 58 % 1.75 C
3035 04-03-2003 18:10:11 9.3 C 58 % 1.47 C
3036 04-03-2003 18:16:11 9.2 C 58 % 1.38 C
3037 04-03-2003 18:22:11 8.8 C 63 % 2.16 C
3038 04-03-2003 18:28:11 8.7 C 63 % 2.06 C
3039 04-03-2003 18:34:11 8.4 C 64 % 2 C
3040 04-03-2003 18:40:11 8.4 C 63 % 1.78 C
3041 04-03-2003 18:46:11 8.4 C 62 % 1.55 C
3042 04-03-2003 18:52:11 8.2 C 64 % 1.81 C
3043 04-03-2003 18:58:11 8.2 C 63 % 1.59 C
3044 04-03-2003 19:04:11 8.2 C 63 % 1.59 C
3045 04-03-2003 19:10:11 8.2 C 65 % 2.02 C
3046 04-03-2003 19:16:11 8.2 C 64 % 1.81 C
3047 04-03-2003 19:28:11 8.4 C 62 % 1.55 C
3048 04-03-2003 19:34:11 8.5 C 62 % 1.65 C
3049 04-03-2003 19:40:11 8.5 C 62 % 1.65 C
3050 04-03-2003 19:46:11 8.6 C 60 % 1.29 C
Sensor: Nr:Datum:Temp:Feuchte:Taupunkt:
Aussen-T/F 3051 04-03-2003 19:52:11 8.7 C 61 % 1.61 C
3052 04-03-2003 19:58:11 8.6 C 62 % 1.74 C
3053 04-03-2003 20:05:12 8.6 C 63 % 1.97 C
3054 04-03-2003 20:11:12 8.6 C 63 % 1.97 C
3055 04-03-2003 20:17:12 8.6 C 63 % 1.97 C
3056 04-03-2003 20:23:12 8.6 C 62 % 1.74 C
3057 04-03-2003 20:29:12 8.6 C 62 % 1.74 C
3058 04-03-2003 20:35:12 8.5 C 62 % 1.65 C
3059 04-03-2003 20:41:12 8.5 C 61 % 1.42 C
3060 04-03-2003 20:47:12 8.5 C 63 % 1.87 C
3061 04-03-2003 20:53:12 8.4 C 64 % 2 C
3062 04-03-2003 20:59:12 8.4 C 64 % 2 C
3063 04-03-2003 21:05:12 8.4 C 63 % 1.78 C
3064 04-03-2003 21:11:12 8.4 C 64 % 2 C
3065 04-03-2003 21:17:12 8.3 C 64 % 1.9 C
3066 04-03-2003 21:23:12 8.3 C 63 % 1.68 C
3067 04-03-2003 21:29:12 8.2 C 64 % 1.81 C
3068 04-03-2003 21:35:12 8.3 C 64 % 1.9 C
3069 04-03-2003 21:41:12 8.3 C 64 % 1.9 C
3070 04-03-2003 21:47:12 8.3 C 63 % 1.68 C
3071 04-03-2003 21:53:12 8.3 C 65 % 2.12 C
3072 04-03-2003 21:59:12 8.2 C 64 % 1.81 C
3073 04-03-2003 22:05:12 8.2 C 64 % 1.81 C
3074 04-03-2003 22:11:12 8.2 C 63 % 1.59 C
3075 04-03-2003 22:17:12 8.4 C 61 % 1.33 C
Sensor: Nr:Datum:Temp:Feuchte:Taupunkt:
Aussen-T/F 3076 04-03-2003 22:23:12 8.5 C 61 % 1.42 C
3077 04-03-2003 22:29:12 8.6 C 60 % 1.29 C
3078 04-03-2003 22:35:12 8.6 C 61 % 1.52 C
3079 04-03-2003 22:41:12 8.5 C 62 % 1.65 C
3080 04-03-2003 22:47:12 8.5 C 62 % 1.65 C
3081 04-03-2003 22:53:12 8.5 C 63 % 1.87 C
3082 04-03-2003 22:59:12 8.4 C 63 % 1.78 C
3083 04-03-2003 23:05:12 8.4 C 63 % 1.78 C
3084 04-03-2003 23:11:12 8.3 C 65 % 2.12 C
3085 04-03-2003 23:17:12 8.3 C 65 % 2.12 C
3086 04-03-2003 23:23:12 8.2 C 65 % 2.02 C
3087 04-03-2003 23:29:12 8.2 C 65 % 2.02 C
3088 04-03-2003 23:35:12 8.2 C 65 % 2.02 C
3089 04-03-2003 23:41:12 8.2 C 66 % 2.24 C
3090 04-03-2003 23:47:12 8 C 66 % 2.05 C
3091 04-03-2003 23:53:12 8 C 66 % 2.05 C
3092 04-03-2003 23:59:12 7.9 C 66 % 1.95 C
3093 05-03-2003 00:05:12 7.9 C 68 % 2.37 C
3094 05-03-2003 00:11:12 7.9 C 68 % 2.37 C
3095 05-03-2003 00:17:12 7.9 C 67 % 2.16 C
3096 05-03-2003 00:23:12 7.9 C 68 % 2.37 C
3097 05-03-2003 00:29:12 7.9 C 68 % 2.37 C
3098 05-03-2003 00:35:12 7.9 C 67 % 2.16 C
3099 05-03-2003 00:41:12 7.9 C 66 % 1.95 C
3100 05-03-2003 00:47:12 7.8 C 67 % 2.07 C
Sensor: Nr:Datum:Temp:Feuchte:Taupunkt:
Aussen-T/F 3101 05-03-2003 00:53:12 7.8 C 67 % 2.07 C
3102 05-03-2003 00:59:12 7.7 C 68 % 2.18 C
3103 05-03-2003 01:05:12 7.7 C 68 % 2.18 C
3104 05-03-2003 01:11:12 7.8 C 68 % 2.27 C
3105 05-03-2003 01:17:12 7.7 C 69 % 2.38 C
3106 05-03-2003 01:23:12 7.8 C 68 % 2.27 C
3107 05-03-2003 01:29:12 7.7 C 67 % 1.97 C
3108 05-03-2003 01:35:12 7.6 C 67 % 1.88 C
3109 05-03-2003 01:41:12 7.4 C 69 % 2.1 C
3110 05-03-2003 01:47:12 7.4 C 69 % 2.1 C
3111 05-03-2003 01:53:12 7.5 C 69 % 2.19 C
3112 05-03-2003 01:59:12 7.5 C 69 % 2.19 C
3113 05-03-2003 02:05:12 7.6 C 69 % 2.29 C
3114 05-03-2003 02:11:12 7.6 C 69 % 2.29 C
3115 05-03-2003 02:17:12 7.5 C 69 % 2.19 C
3116 05-03-2003 02:23:12 7.4 C 70 % 2.3 C
3117 05-03-2003 02:29:12 7.3 C 70 % 2.2 C
3118 05-03-2003 02:35:12 7.2 C 71 % 2.3 C
3119 05-03-2003 02:41:12 7.2 C 71 % 2.3 C
3120 05-03-2003 02:47:12 7.3 C 71 % 2.4 C
3121 05-03-2003 02:53:12 7.4 C 70 % 2.3 C
3122 05-03-2003 02:59:12 7.4 C 70 % 2.3 C
3123 05-03-2003 03:05:12 7.4 C 71 % 2.5 C
3124 05-03-2003 03:11:12 7.3 C 71 % 2.4 C
3125 05-03-2003 03:17:12 7.2 C 70 % 2.11 C
Sensor: Nr:Datum:Temp:Feuchte:Taupunkt:
Aussen-T/F 3126 05-03-2003 03:23:12 7.1 C 71 % 2.21 C
3127 05-03-2003 03:29:12 7.1 C 72 % 2.4 C
3128 05-03-2003 03:35:12 7.1 C 72 % 2.4 C
3129 05-03-2003 03:41:12 7.1 C 71 % 2.21 C
3130 05-03-2003 03:47:12 7.1 C 71 % 2.21 C
3131 05-03-2003 03:53:12 7 C 72 % 2.31 C
3132 05-03-2003 03:59:12 7 C 72 % 2.31 C
3133 05-03-2003 04:05:12 7 C 71 % 2.11 C
3134 05-03-2003 04:11:12 7 C 70 % 1.91 C
3135 05-03-2003 04:17:12 6.9 C 72 % 2.21 C
3136 05-03-2003 04:23:12 6.9 C 72 % 2.21 C
3137 05-03-2003 04:29:12 6.9 C 72 % 2.21 C
3138 05-03-2003 04:35:12 7 C 72 % 2.31 C
3139 05-03-2003 04:41:12 7 C 72 % 2.31 C
3140 05-03-2003 04:47:12 7.1 C 72 % 2.4 C
3141 05-03-2003 04:53:12 7.2 C 71 % 2.3 C
3142 05-03-2003 04:59:12 7.2 C 71 % 2.3 C
3143 05-03-2003 05:05:12 7.1 C 71 % 2.21 C
3144 05-03-2003 05:11:12 7.1 C 71 % 2.21 C
3145 05-03-2003 05:17:12 7.1 C 72 % 2.4 C
3146 05-03-2003 05:23:12 7.1 C 72 % 2.4 C
3147 05-03-2003 05:29:12 7.1 C 72 % 2.4 C
3148 05-03-2003 05:35:12 7.1 C 71 % 2.21 C
3149 05-03-2003 05:41:12 7 C 72 % 2.31 C
3150 05-03-2003 05:47:12 7.1 C 72 % 2.4 C
Sensor: Nr:Datum:Temp:Feuchte:Taupunkt:
Aussen-T/F 3151 05-03-2003 05:53:12 7.1 C 72 % 2.4 C
3152 05-03-2003 05:59:12 7.1 C 72 % 2.4 C
3153 05-03-2003 06:05:12 7.1 C 72 % 2.4 C
3154 05-03-2003 06:11:12 7 C 72 % 2.31 C
3155 05-03-2003 06:17:12 6.9 C 74 % 2.6 C
3156 05-03-2003 06:23:12 6.9 C 75 % 2.78 C
3157 05-03-2003 06:29:12 6.9 C 75 % 2.78 C
3158 05-03-2003 06:35:12 6.8 C 75 % 2.69 C
3159 05-03-2003 06:41:12 6.9 C 76 % 2.97 C
3160 05-03-2003 06:47:12 6.9 C 76 % 2.97 C
3161 05-03-2003 06:53:12 7 C 75 % 2.88 C
3162 05-03-2003 06:59:12 7.1 C 76 % 3.16 C
3163 05-03-2003 07:05:12 6.9 C 77 % 3.16 C
3164 05-03-2003 07:11:12 6.8 C 77 % 3.06 C
3165 05-03-2003 07:17:12 6.8 C 79 % 3.42 C
3166 05-03-2003 07:23:12 6.7 C 79 % 3.32 C
3167 05-03-2003 07:29:12 6.6 C 80 % 3.4 C
3168 05-03-2003 07:35:12 6.6 C 80 % 3.4 C
3169 05-03-2003 07:41:12 6.5 C 82 % 3.66 C
3170 05-03-2003 07:47:12 6.4 C 83 % 3.73 C
3171 05-03-2003 07:53:12 6.6 C 84 % 4.1 C
3172 05-03-2003 07:59:12 6.5 C 85 % 4.17 C
3173 05-03-2003 08:05:12 6.4 C 85 % 4.07 C
3174 05-03-2003 08:11:12 6.4 C 85 % 4.07 C
3175 05-03-2003 08:17:12 6.4 C 85 % 4.07 C
Sensor: Nr:Datum:Temp:Feuchte:Taupunkt:
Aussen-T/F 3176 05-03-2003 08:23:12 6.6 C 86 % 4.43 C
3177 05-03-2003 08:29:12 6.7 C 86 % 4.53 C
3178 05-03-2003 08:35:12 6.9 C 87 % 4.89 C
3179 05-03-2003 08:41:12 7.2 C 86 % 5.02 C
3180 05-03-2003 08:47:12 7.4 C 85 % 5.05 C
3181 05-03-2003 08:53:12 7.5 C 84 % 4.98 C
3182 05-03-2003 08:59:12 7.8 C 83 % 5.1 C
3183 05-03-2003 09:05:12 8.1 C 81 % 5.04 C
3184 05-03-2003 09:11:12 8.3 C 80 % 5.06 C
3185 05-03-2003 09:17:12 8.5 C 80 % 5.25 C
3186 05-03-2003 09:23:12 8.6 C 78 % 4.99 C
3187 05-03-2003 09:29:12 8.5 C 77 % 4.71 C
3188 05-03-2003 09:35:12 8.7 C 78 % 5.08 C
3189 05-03-2003 09:41:12 8.9 C 78 % 5.28 C
3190 05-03-2003 09:47:12 9.2 C 77 % 5.38 C
3191 05-03-2003 09:53:12 9.4 C 76 % 5.39 C
3192 05-03-2003 09:59:12 9.5 C 76 % 5.49 C
3193 05-03-2003 10:05:12 9.6 C 74 % 5.2 C
3194 05-03-2003 10:11:12 9.8 C 74 % 5.39 C
3195 05-03-2003 10:17:12 10 C 73 % 5.39 C
3196 05-03-2003 10:23:12 10.3 C 72 % 5.48 C
3197 05-03-2003 10:29:12 10.5 C 72 % 5.67 C
3198 05-03-2003 10:35:12 10.5 C 71 % 5.47 C
3199 05-03-2003 10:41:12 10.8 C 71 % 5.76 C
3200 05-03-2003 10:47:12 11 C 70 % 5.75 C
Sensor: Nr:Datum:Temp:Feuchte:Taupunkt:
Aussen-T/F 3201 05-03-2003 10:53:12 11 C 69 % 5.54 C
3202 05-03-2003 10:59:12 11 C 70 % 5.75 C
3203 05-03-2003 11:05:12 11.3 C 70 % 6.03 C
3204 05-03-2003 11:11:12 11.5 C 69 % 6.02 C
3205 05-03-2003 11:17:12 11.9 C 69 % 6.4 C
3206 05-03-2003 11:23:12 11.8 C 67 % 5.88 C
3207 05-03-2003 11:29:12 11.8 C 68 % 6.09 C
3208 05-03-2003 11:35:12 12.2 C 68 % 6.48 C
3209 05-03-2003 11:41:12 12.4 C 67 % 6.45 C
3210 05-03-2003 11:47:12 12.4 C 67 % 6.45 C
3211 05-03-2003 11:53:12 12.4 C 67 % 6.45 C
3212 05-03-2003 11:59:12 12.4 C 67 % 6.45 C
3213 05-03-2003 12:05:12 12.5 C 67 % 6.55 C
3214 05-03-2003 12:11:12 12.6 C 67 % 6.64 C
3215 05-03-2003 12:17:12 12.8 C 67 % 6.83 C
3216 05-03-2003 12:23:12 12.9 C 66 % 6.71 C
3217 05-03-2003 12:29:12 13.2 C 64 % 6.55 C
3218 05-03-2003 12:35:12 13.4 C 62 % 6.28 C
3219 05-03-2003 12:41:12 13.8 C 61 % 6.42 C
3220 05-03-2003 12:47:12 13.8 C 60 % 6.18 C
3221 05-03-2003 12:53:12 13.8 C 60 % 6.18 C
3222 05-03-2003 12:59:12 14.2 C 59 % 6.31 C
3223 05-03-2003 13:05:12 14.2 C 57 % 5.81 C
3224 05-03-2003 13:11:12 14 C 57 % 5.63 C
3225 05-03-2003 13:17:12 14 C 57 % 5.63 C
Sensor: Nr:Datum:Temp:Feuchte:Taupunkt:
Aussen-T/F 3226 05-03-2003 13:23:12 14.3 C 58 % 6.16 C
3227 05-03-2003 13:29:12 14.3 C 57 % 5.91 C
3228 05-03-2003 13:35:12 13.9 C 58 % 5.78 C
3229 05-03-2003 13:41:12 13.8 C 59 % 5.94 C
3230 05-03-2003 13:47:12 13.7 C 58 % 5.6 C
3231 05-03-2003 13:53:12 13.6 C 59 % 5.75 C
3232 05-03-2003 13:59:12 13.7 C 59 % 5.84 C
3233 05-03-2003 14:05:12 13.8 C 58 % 5.69 C
3234 05-03-2003 14:11:12 14 C 59 % 6.12 C
3235 05-03-2003 14:17:12 13.9 C 58 % 5.78 C
3236 05-03-2003 14:23:12 13.8 C 59 % 5.94 C
3237 05-03-2003 14:29:12 13.7 C 58 % 5.6 C
3238 05-03-2003 14:35:12 13.8 C 58 % 5.69 C
3239 05-03-2003 14:41:12 14.3 C 55 % 5.39 C
3240 05-03-2003 14:47:12 14.3 C 55 % 5.39 C
3241 05-03-2003 14:53:12 14.2 C 55 % 5.3 C
3242 05-03-2003 14:59:12 14 C 55 % 5.11 C
3243 05-03-2003 15:05:12 14 C 55 % 5.11 C
3244 05-03-2003 15:11:12 14 C 56 % 5.37 C
3245 05-03-2003 15:17:12 14 C 55 % 5.11 C
3246 05-03-2003 15:23:12 14 C 54 % 4.85 C
3247 05-03-2003 15:29:12 13.8 C 54 % 4.66 C
3248 05-03-2003 15:35:12 13.8 C 55 % 4.93 C
3249 05-03-2003 15:41:12 13.6 C 54 % 4.48 C
3250 05-03-2003 15:47:12 13.6 C 55 % 4.74 C
Sensor: Nr:Datum:Temp:Feuchte:Taupunkt:
Aussen-T/F 3251 05-03-2003 15:53:12 13.5 C 54 % 4.39 C
3252 05-03-2003 15:59:12 13.5 C 55 % 4.65 C
3253 05-03-2003 16:05:13 13.4 C 54 % 4.29 C
3254 05-03-2003 16:11:13 13.4 C 54 % 4.29 C
3255 05-03-2003 16:17:13 13.4 C 55 % 4.55 C
3256 05-03-2003 16:23:13 13.4 C 54 % 4.29 C
3257 05-03-2003 16:29:13 13.4 C 54 % 4.29 C
3258 05-03-2003 16:35:13 13.4 C 54 % 4.29 C
3259 05-03-2003 16:41:13 13.4 C 54 % 4.29 C
3260 05-03-2003 16:47:13 13.5 C 56 % 4.91 C
3261 05-03-2003 16:53:13 13.5 C 57 % 5.16 C
3262 05-03-2003 16:59:13 13.5 C 57 % 5.16 C
3263 05-03-2003 17:05:13 13.5 C 57 % 5.16 C
3264 05-03-2003 17:11:13 13.5 C 57 % 5.16 C
3265 05-03-2003 17:17:13 13.1 C 58 % 5.03 C
3266 05-03-2003 17:23:13 13.1 C 58 % 5.03 C
3267 05-03-2003 17:29:13 12.9 C 60 % 5.33 C
3268 05-03-2003 17:35:13 12.7 C 61 % 5.38 C
3269 05-03-2003 17:41:13 12.5 C 62 % 5.43 C
3270 05-03-2003 17:47:13 12.4 C 62 % 5.33 C
3271 05-03-2003 17:53:13 12.2 C 63 % 5.37 C
3272 05-03-2003 17:59:13 12.1 C 63 % 5.28 C
3273 05-03-2003 18:05:13 12.1 C 64 % 5.51 C
3274 05-03-2003 18:11:13 12 C 64 % 5.41 C
3275 05-03-2003 18:17:13 11.8 C 65 % 5.44 C
Sensor: Nr:Datum:Temp:Feuchte:Taupunkt:
Aussen-T/F 3276 05-03-2003 18:23:13 11.7 C 66 % 5.57 C
3277 05-03-2003 18:29:13 11.6 C 66 % 5.47 C
3278 05-03-2003 18:35:13 11.5 C 67 % 5.59 C
3279 05-03-2003 18:41:13 11.4 C 67 % 5.5 C
3280 05-03-2003 18:47:13 11.4 C 67 % 5.5 C
3281 05-03-2003 18:53:13 11.3 C 68 % 5.62 C
3282 05-03-2003 18:59:13 11.3 C 68 % 5.62 C
3283 05-03-2003 19:05:13 11.2 C 68 % 5.52 C
3284 05-03-2003 19:11:13 11.3 C 68 % 5.62 C
3285 05-03-2003 19:17:13 11.2 C 68 % 5.52 C
3286 05-03-2003 19:23:13 11.2 C 68 % 5.52 C
3287 05-03-2003 19:29:13 11.3 C 68 % 5.62 C
3288 05-03-2003 19:35:13 11.3 C 69 % 5.83 C
3289 05-03-2003 19:41:13 11.1 C 69 % 5.64 C
3290 05-03-2003 19:47:13 11.1 C 69 % 5.64 C
3291 05-03-2003 19:53:13 11.1 C 69 % 5.64 C
3292 05-03-2003 19:59:13 11.1 C 69 % 5.64 C
3293 05-03-2003 20:06:12 11.1 C 69 % 5.64 C
3294 05-03-2003 20:12:12 11.1 C 69 % 5.64 C
3295 05-03-2003 20:18:12 11.1 C 69 % 5.64 C
3296 05-03-2003 20:24:12 11 C 69 % 5.54 C
3297 05-03-2003 20:30:12 10.9 C 70 % 5.65 C
3298 05-03-2003 20:36:12 10.9 C 70 % 5.65 C
3299 05-03-2003 20:42:12 10.9 C 70 % 5.65 C
3300 05-03-2003 20:48:12 10.9 C 70 % 5.65 C
Sensor: Nr:Datum:Temp:Feuchte:Taupunkt:
Aussen-T/F 3301 05-03-2003 20:54:12 10.9 C 70 % 5.65 C
3302 05-03-2003 21:06:12 11 C 69 % 5.54 C
3303 05-03-2003 21:12:12 10.9 C 70 % 5.65 C
3304 05-03-2003 21:18:12 10.9 C 70 % 5.65 C
3305 05-03-2003 21:24:12 10.8 C 70 % 5.56 C
3306 05-03-2003 21:30:12 10.9 C 70 % 5.65 C
3307 05-03-2003 21:36:12 11 C 68 % 5.33 C
3308 05-03-2003 21:42:12 11 C 68 % 5.33 C
3309 05-03-2003 21:48:12 11 C 68 % 5.33 C
3310 05-03-2003 21:54:12 10.9 C 68 % 5.23 C
3311 05-03-2003 22:00:12 10.8 C 68 % 5.14 C
3312 05-03-2003 22:06:12 10.5 C 69 % 5.06 C
3313 05-03-2003 22:12:12 10.3 C 69 % 4.87 C
3314 05-03-2003 22:18:12 10 C 70 % 4.79 C
3315 05-03-2003 22:24:12 10.2 C 70 % 4.98 C
3316 05-03-2003 22:30:12 10.2 C 70 % 4.98 C
3317 05-03-2003 22:36:12 10.2 C 70 % 4.98 C
3318 05-03-2003 22:42:12 10.2 C 69 % 4.78 C
3319 05-03-2003 22:48:12 10.2 C 69 % 4.78 C
3320 05-03-2003 22:54:12 10.1 C 69 % 4.68 C
3321 05-03-2003 23:00:12 10.2 C 68 % 4.57 C
3322 05-03-2003 23:06:12 10.2 C 69 % 4.78 C
3323 05-03-2003 23:12:12 10.2 C 69 % 4.78 C
3324 05-03-2003 23:18:12 10.1 C 69 % 4.68 C
3325 05-03-2003 23:24:12 10.1 C 69 % 4.68 C
Sensor: Nr:Datum:Temp:Feuchte:Taupunkt:
Aussen-T/F 3326 05-03-2003 23:30:12 9.6 C 70 % 4.41 C
3327 05-03-2003 23:36:12 9.4 C 71 % 4.42 C
3328 05-03-2003 23:42:12 9.2 C 71 % 4.22 C
3329 05-03-2003 23:48:12 9.2 C 70 % 4.02 C
3330 05-03-2003 23:54:12 9 C 71 % 4.03 C
3331 06-03-2003 00:00:12 9.1 C 71 % 4.13 C
3332 06-03-2003 00:06:12 9.3 C 70 % 4.12 C
3333 06-03-2003 00:12:12 9.3 C 70 % 4.12 C
3334 06-03-2003 00:18:12 9.5 C 69 % 4.11 C
3335 06-03-2003 00:24:12 9.4 C 69 % 4.01 C
3336 06-03-2003 00:30:12 9.4 C 69 % 4.01 C
3337 06-03-2003 00:36:12 9.4 C 69 % 4.01 C
3338 06-03-2003 00:42:12 9.5 C 69 % 4.11 C
3339 06-03-2003 00:48:12 9.6 C 69 % 4.2 C
3340 06-03-2003 00:54:12 9.7 C 68 % 4.09 C
3341 06-03-2003 01:00:12 9.6 C 68 % 3.99 C
3342 06-03-2003 01:06:12 9.7 C 67 % 3.88 C
3343 06-03-2003 01:12:12 9.8 C 67 % 3.97 C
3344 06-03-2003 01:18:12 9.8 C 66 % 3.76 C
3345 06-03-2003 01:24:12 9.6 C 67 % 3.78 C
3346 06-03-2003 01:30:12 9.9 C 66 % 3.86 C
3347 06-03-2003 01:36:12 10 C 63 % 3.29 C
3348 06-03-2003 01:42:12 10.1 C 63 % 3.39 C
3349 06-03-2003 01:48:12 10.1 C 63 % 3.39 C
3350 06-03-2003 01:54:12 10 C 63 % 3.29 C
Sensor: Nr:Datum:Temp:Feuchte:Taupunkt:
Aussen-T/F 3351 06-03-2003 02:00:12 10 C 63 % 3.29 C
3352 06-03-2003 02:06:12 10.1 C 62 % 3.16 C
3353 06-03-2003 02:12:12 10.1 C 62 % 3.16 C
3354 06-03-2003 02:18:12 10.1 C 62 % 3.16 C
3355 06-03-2003 02:24:12 10 C 62 % 3.07 C
3356 06-03-2003 02:30:12 10.1 C 62 % 3.16 C
3357 06-03-2003 02:36:12 10.1 C 61 % 2.93 C
3358 06-03-2003 02:42:12 10 C 61 % 2.84 C
3359 06-03-2003 02:48:12 10.2 C 60 % 2.79 C
3360 06-03-2003 02:54:12 10.1 C 60 % 2.7 C
3361 06-03-2003 03:00:12 10.2 C 60 % 2.79 C
3362 06-03-2003 03:06:12 10.2 C 59 % 2.56 C
3363 06-03-2003 03:12:12 10.2 C 58 % 2.32 C
3364 06-03-2003 03:18:12 10.2 C 58 % 2.32 C
3365 06-03-2003 03:24:12 10.1 C 58 % 2.22 C
3366 06-03-2003 03:30:12 10 C 58 % 2.13 C
3367 06-03-2003 03:36:12 9.9 C 59 % 2.27 C
3368 06-03-2003 03:42:12 9.9 C 59 % 2.27 C
3369 06-03-2003 03:48:12 9.8 C 59 % 2.18 C
3370 06-03-2003 03:54:12 9.7 C 60 % 2.32 C
3371 06-03-2003 04:00:12 9.6 C 60 % 2.23 C
3372 06-03-2003 04:06:12 9.6 C 60 % 2.23 C
3373 06-03-2003 04:12:12 9.6 C 60 % 2.23 C
3374 06-03-2003 04:18:12 9.6 C 60 % 2.23 C
3375 06-03-2003 04:24:12 9.6 C 59 % 1.99 C
Sensor: Nr:Datum:Temp:Feuchte:Taupunkt:
Aussen-T/F 3376 06-03-2003 04:30:12 9.5 C 60 % 2.13 C
3377 06-03-2003 04:36:12 9.4 C 60 % 2.04 C
3378 06-03-2003 04:42:12 9.5 C 60 % 2.13 C
3379 06-03-2003 04:48:12 9.5 C 59 % 1.9 C
3380 06-03-2003 04:54:12 9.4 C 60 % 2.04 C
3381 06-03-2003 05:00:12 9.5 C 60 % 2.13 C
3382 06-03-2003 05:06:12 9.4 C 60 % 2.04 C
3383 06-03-2003 05:12:12 9.4 C 60 % 2.04 C
3384 06-03-2003 05:18:12 9.4 C 60 % 2.04 C
3385 06-03-2003 05:24:12 9.3 C 60 % 1.95 C
3386 06-03-2003 05:30:12 9.3 C 60 % 1.95 C
3387 06-03-2003 05:36:12 9.2 C 60 % 1.85 C
3388 06-03-2003 05:42:12 9.1 C 60 % 1.76 C
3389 06-03-2003 05:48:12 9 C 60 % 1.66 C
3390 06-03-2003 05:54:12 8.7 C 62 % 1.84 C
3391 06-03-2003 06:00:12 8.6 C 62 % 1.74 C
3392 06-03-2003 06:06:12 8.5 C 62 % 1.65 C
3393 06-03-2003 06:12:12 8.4 C 63 % 1.78 C
3394 06-03-2003 06:18:12 8.5 C 63 % 1.87 C
3395 06-03-2003 06:24:12 8.6 C 62 % 1.74 C
3396 06-03-2003 06:30:12 8.7 C 62 % 1.84 C
3397 06-03-2003 06:36:12 8.6 C 62 % 1.74 C
3398 06-03-2003 06:42:12 8.6 C 62 % 1.74 C
3399 06-03-2003 06:48:12 8.6 C 62 % 1.74 C
3400 06-03-2003 06:54:12 8.6 C 62 % 1.74 C
Sensor: Nr:Datum:Temp:Feuchte:Taupunkt:
Aussen-T/F 3401 06-03-2003 07:00:12 8.7 C 62 % 1.84 C
3402 06-03-2003 07:06:12 8.7 C 62 % 1.84 C
3403 06-03-2003 07:12:12 8.6 C 62 % 1.74 C
3404 06-03-2003 07:18:12 8.6 C 62 % 1.74 C
3405 06-03-2003 07:24:12 8.6 C 62 % 1.74 C
3406 06-03-2003 07:30:12 8.6 C 62 % 1.74 C
3407 06-03-2003 07:36:12 8.6 C 62 % 1.74 C
3408 06-03-2003 07:42:12 8.6 C 62 % 1.74 C
3409 06-03-2003 07:48:12 8.7 C 62 % 1.84 C
3410 06-03-2003 07:54:12 8.7 C 62 % 1.84 C
3411 06-03-2003 08:00:12 8.8 C 61 % 1.71 C
3412 06-03-2003 08:06:12 8.7 C 61 % 1.61 C
3413 06-03-2003 08:12:12 9 C 61 % 1.89 C
3414 06-03-2003 08:18:12 9 C 61 % 1.89 C
3415 06-03-2003 08:24:12 8.9 C 61 % 1.8 C
3416 06-03-2003 08:30:12 8.9 C 61 % 1.8 C
3417 06-03-2003 08:36:12 8.9 C 61 % 1.8 C
3418 06-03-2003 08:42:12 9 C 60 % 1.66 C
3419 06-03-2003 08:48:12 9.1 C 60 % 1.76 C
3420 06-03-2003 08:54:12 9.1 C 59 % 1.52 C
3421 06-03-2003 09:00:12 9.2 C 60 % 1.85 C
3422 06-03-2003 09:06:12 9.2 C 59 % 1.62 C
3423 06-03-2003 09:12:12 9.2 C 60 % 1.85 C
3424 06-03-2003 09:18:12 9.2 C 60 % 1.85 C
3425 06-03-2003 09:24:12 9.4 C 59 % 1.81 C
Sensor: Nr:Datum:Temp:Feuchte:Taupunkt:
Aussen-T/F 3426 06-03-2003 09:30:12 9.5 C 59 % 1.9 C
3427 06-03-2003 09:36:12 9.8 C 59 % 2.18 C
3428 06-03-2003 09:42:12 10 C 58 % 2.13 C
3429 06-03-2003 09:48:12 10.1 C 57 % 1.98 C
3430 06-03-2003 09:54:12 10.2 C 57 % 2.07 C
3431 06-03-2003 10:00:12 10.3 C 57 % 2.17 C
3432 06-03-2003 10:06:12 10.3 C 56 % 1.92 C
3433 06-03-2003 10:12:12 10.2 C 56 % 1.83 C
3434 06-03-2003 10:18:12 10.4 C 57 % 2.26 C
3435 06-03-2003 10:24:12 10.5 C 57 % 2.35 C
3436 06-03-2003 10:30:12 10.5 C 58 % 2.6 C
3437 06-03-2003 10:36:12 10.6 C 58 % 2.69 C
3438 06-03-2003 10:42:12 10.5 C 59 % 2.84 C
3439 06-03-2003 10:48:12 10.3 C 59 % 2.65 C
3440 06-03-2003 10:54:12 9.8 C 62 % 2.88 C
3441 06-03-2003 11:00:12 9.3 C 65 % 3.07 C
3442 06-03-2003 11:06:12 9.1 C 66 % 3.09 C
3443 06-03-2003 11:12:12 8.7 C 69 % 3.34 C
3444 06-03-2003 11:18:12 8.4 C 75 % 4.23 C
3445 06-03-2003 11:24:12 8.2 C 77 % 4.42 C
3446 06-03-2003 11:30:12 8.1 C 80 % 4.86 C
3447 06-03-2003 11:36:12 8.1 C 81 % 5.04 C
3448 06-03-2003 11:42:12 8.3 C 82 % 5.41 C
3449 06-03-2003 11:48:12 8.4 C 83 % 5.69 C
3450 06-03-2003 11:54:12 8.2 C 83 % 5.49 C
Sensor: Nr:Datum:Temp:Feuchte:Taupunkt:
Aussen-T/F 3451 06-03-2003 12:00:12 8.2 C 84 % 5.66 C
3452 06-03-2003 12:06:12 8.3 C 85 % 5.93 C
3453 06-03-2003 12:12:12 8.2 C 84 % 5.66 C
3454 06-03-2003 12:18:12 8.2 C 84 % 5.66 C
3455 06-03-2003 12:24:12 8.2 C 84 % 5.66 C
3456 06-03-2003 12:30:12 8.2 C 84 % 5.66 C
3457 06-03-2003 12:36:12 8.2 C 84 % 5.66 C
3458 06-03-2003 12:42:12 8 C 85 % 5.64 C
3459 06-03-2003 12:48:12 8.1 C 85 % 5.73 C
3460 06-03-2003 12:54:12 8.1 C 85 % 5.73 C
3461 06-03-2003 13:00:12 8 C 86 % 5.81 C
3462 06-03-2003 13:06:12 8 C 86 % 5.81 C
3463 06-03-2003 13:12:12 8.1 C 87 % 6.07 C
3464 06-03-2003 13:18:12 8.1 C 87 % 6.07 C
3465 06-03-2003 13:24:12 7.8 C 86 % 5.61 C
3466 06-03-2003 13:30:12 7.7 C 85 % 5.34 C
3467 06-03-2003 13:36:12 7.6 C 85 % 5.24 C
3468 06-03-2003 13:42:12 7.6 C 86 % 5.41 C
3469 06-03-2003 13:48:12 7.6 C 86 % 5.41 C
3470 06-03-2003 13:54:12 7.4 C 83 % 4.71 C
3471 06-03-2003 14:00:12 7.3 C 83 % 4.61 C
3472 06-03-2003 14:06:12 7.1 C 83 % 4.41 C
3473 06-03-2003 14:12:12 7 C 83 % 4.32 C
3474 06-03-2003 14:18:12 7 C 83 % 4.32 C
3475 06-03-2003 14:24:12 7 C 83 % 4.32 C
Sensor: Nr:Datum:Temp:Feuchte:Taupunkt:
Aussen-T/F 3476 06-03-2003 14:30:12 6.9 C 83 % 4.22 C
3477 06-03-2003 14:36:12 6.8 C 84 % 4.29 C
3478 06-03-2003 14:42:12 6.9 C 85 % 4.56 C
3479 06-03-2003 14:48:12 6.9 C 86 % 4.72 C
3480 06-03-2003 14:54:12 6.9 C 86 % 4.72 C
3481 06-03-2003 15:00:12 6.9 C 86 % 4.72 C
3482 06-03-2003 15:06:12 6.9 C 86 % 4.72 C
3483 06-03-2003 15:12:12 6.9 C 86 % 4.72 C
3484 06-03-2003 15:18:12 6.9 C 86 % 4.72 C
3485 06-03-2003 15:24:12 6.7 C 84 % 4.19 C
3486 06-03-2003 15:30:12 6.7 C 84 % 4.19 C
3487 06-03-2003 15:36:12 6.7 C 84 % 4.19 C
3488 06-03-2003 15:42:12 6.7 C 84 % 4.19 C
3489 06-03-2003 15:48:12 6.7 C 84 % 4.19 C
3490 06-03-2003 15:54:12 6.7 C 84 % 4.19 C
3491 06-03-2003 16:00:03 6.7 C 84 % 4.19 C
3492 06-03-2003 16:06:03 6.7 C 84 % 4.19 C
3493 06-03-2003 16:12:03 6.7 C 84 % 4.19 C
3494 06-03-2003 16:18:03 6.7 C 84 % 4.19 C
3495 06-03-2003 16:24:03 6.7 C 84 % 4.19 C
3496 06-03-2003 16:30:03 6.7 C 84 % 4.19 C
3497 06-03-2003 16:36:03 6.7 C 84 % 4.19 C
3498 06-03-2003 16:42:03 6.2 C 84 % 3.7 C
3499 06-03-2003 16:48:03 6.2 C 84 % 3.7 C
3500 06-03-2003 16:54:03 6.2 C 84 % 3.7 C
Sensor: Nr:Datum:Temp:Feuchte:Taupunkt:
Aussen-T/F 3501 06-03-2003 17:00:03 6.2 C 84 % 3.7 C
3502 06-03-2003 17:06:03 6.2 C 84 % 3.7 C
3503 06-03-2003 17:12:03 6.2 C 84 % 3.7 C
3504 06-03-2003 17:18:03 6.2 C 83 % 3.53 C
3505 06-03-2003 17:24:03 6.2 C 83 % 3.53 C
3506 06-03-2003 17:30:03 6.2 C 83 % 3.53 C
3507 06-03-2003 17:36:03 6.2 C 83 % 3.53 C
3508 06-03-2003 17:42:53 6.1 C 84 % 3.61 C
3509 06-03-2003 17:48:08 6.1 C 84 % 3.61 C
3510 06-03-2003 17:53:12 6 C 84 % 3.51 C
3511 06-03-2003 18:03:12 6 C 84 % 3.51 C
3512 06-03-2003 18:13:12 6 C 85 % 3.67 C
3513 06-03-2003 18:23:12 6 C 85 % 3.67 C
3514 06-03-2003 18:33:12 5.9 C 86 % 3.74 C
3515 06-03-2003 18:43:12 5.9 C 86 % 3.74 C
3516 06-03-2003 18:53:12 6 C 85 % 3.67 C
3517 06-03-2003 19:03:12 5.9 C 85 % 3.58 C
3518 06-03-2003 19:13:12 6 C 84 % 3.51 C
3519 06-03-2003 19:23:12 6 C 83 % 3.34 C
3520 06-03-2003 19:33:12 6 C 83 % 3.34 C
3521 06-03-2003 19:43:12 6.3 C 80 % 3.11 C
3522 06-03-2003 19:53:12 6.2 C 80 % 3.01 C
3523 06-03-2003 20:04:26 6.2 C 80 % 3.01 C
3524 06-03-2003 20:14:26 6.1 C 81 % 3.09 C
3525 06-03-2003 20:24:26 5.9 C 83 % 3.24 C
Sensor: Nr:Datum:Temp:Feuchte:Taupunkt:
Aussen-T/F 3526 06-03-2003 20:44:26 6 C 81 % 2.99 C
3527 06-03-2003 20:54:26 5.7 C 82 % 2.87 C
3528 06-03-2003 21:04:26 6 C 81 % 2.99 C
3529 06-03-2003 21:14:26 5.5 C 82 % 2.68 C
3530 06-03-2003 21:24:26 5.2 C 83 % 2.56 C
3531 06-03-2003 21:34:26 5.4 C 83 % 2.75 C
3532 06-03-2003 21:44:26 5.6 C 82 % 2.78 C
3533 06-03-2003 21:54:26 5.9 C 81 % 2.9 C
3534 06-03-2003 22:04:26 6 C 78 % 2.46 C
3535 06-03-2003 22:14:26 5.8 C 79 % 2.45 C
3536 06-03-2003 22:24:26 5.8 C 80 % 2.62 C
3537 06-03-2003 22:34:26 5.6 C 80 % 2.43 C
3538 06-03-2003 22:44:26 5.8 C 79 % 2.45 C
3539 06-03-2003 22:54:26 5.9 C 78 % 2.37 C
3540 06-03-2003 23:04:26 5.9 C 76 % 2 C
3541 06-03-2003 23:14:26 5.8 C 76 % 1.91 C
3542 06-03-2003 23:24:26 5.9 C 76 % 2 C
3543 06-03-2003 23:34:26 6 C 74 % 1.73 C
3544 06-03-2003 23:44:26 5.9 C 76 % 2 C
3545 06-03-2003 23:54:26 5.9 C 76 % 2 C
3546 07-03-2003 00:04:26 5.6 C 77 % 1.89 C
3547 07-03-2003 00:14:26 5.5 C 78 % 1.98 C
3548 07-03-2003 00:24:26 5.2 C 79 % 1.86 C
3549 07-03-2003 00:34:26 5.1 C 79 % 1.77 C
3550 07-03-2003 00:44:26 4.6 C 80 % 1.46 C
Sensor: Nr:Datum:Temp:Feuchte:Taupunkt:
Aussen-T/F 3551 07-03-2003 00:54:26 4.1 C 82 % 1.31 C
3552 07-03-2003 01:04:26 3.7 C 83 % 1.09 C
3553 07-03-2003 01:14:26 3.5 C 85 % 1.22 C
3554 07-03-2003 01:24:26 3.2 C 85 % 0.93 C
3555 07-03-2003 01:34:26 2.9 C 86 % 0.8 C
3556 07-03-2003 01:44:26 2.9 C 86 % 0.8 C
3557 07-03-2003 01:54:26 2.7 C 87 % 0.76 C
3558 07-03-2003 02:04:26 2.4 C 86 % 0.3 C
3559 07-03-2003 02:14:26 2.5 C 87 % 0.56 C
3560 07-03-2003 02:24:26 2.3 C 87 % 0.36 C
3561 07-03-2003 02:34:26 2.7 C 88 % 0.92 C
3562 07-03-2003 02:44:26 2.7 C 89 % 1.07 C
3563 07-03-2003 02:54:26 3 C 88 % 1.21 C
3564 07-03-2003 03:04:26 3.1 C 88 % 1.31 C
3565 07-03-2003 03:14:26 3.2 C 88 % 1.41 C
3566 07-03-2003 03:24:26 3.3 C 87 % 1.35 C
3567 07-03-2003 03:34:26 3.3 C 86 % 1.19 C
3568 07-03-2003 03:44:26 3.4 C 86 % 1.29 C
3569 07-03-2003 03:54:26 3.3 C 85 % 1.03 C
3570 07-03-2003 04:04:26 3.4 C 85 % 1.12 C
3571 07-03-2003 04:14:26 3.4 C 85 % 1.12 C
3572 07-03-2003 04:24:26 3.3 C 85 % 1.03 C
3573 07-03-2003 04:34:26 3.2 C 85 % 0.93 C
3574 07-03-2003 04:44:26 2.9 C 85 % 0.63 C
3575 07-03-2003 04:54:26 2.5 C 86 % 0.4 C
Sensor: Nr:Datum:Temp:Feuchte:Taupunkt:
Aussen-T/F 3576 07-03-2003 05:04:26 2.3 C 86 % 0.21 C
3577 07-03-2003 05:14:26 2.1 C 86 % 0.01 C
3578 07-03-2003 05:24:26 1.9 C 87 % -0.03 C
3579 07-03-2003 05:34:26 1.4 C 86 % -0.68 C
3580 07-03-2003 05:44:26 1.2 C 87 % -0.72 C
3581 07-03-2003 05:54:26 1.2 C 87 % -0.72 C
3582 07-03-2003 06:04:26 1.1 C 87 % -0.82 C
3583 07-03-2003 06:14:26 1.2 C 88 % -0.56 C
3584 07-03-2003 06:24:26 1.1 C 88 % -0.66 C
3585 07-03-2003 06:34:26 1.1 C 88 % -0.66 C
3586 07-03-2003 06:44:26 1.2 C 89 % -0.41 C
3587 07-03-2003 06:54:26 1.1 C 90 % -0.35 C
3588 07-03-2003 07:04:26 0.9 C 91 % -0.4 C
3589 07-03-2003 07:14:26 1 C 90 % -0.45 C
3590 07-03-2003 07:24:26 1 C 90 % -0.45 C
3591 07-03-2003 07:34:26 1.1 C 91 % -0.2 C
3592 07-03-2003 07:44:26 1.3 C 91 % 0 C
3593 07-03-2003 07:54:26 1.7 C 91 % 0.39 C
3594 07-03-2003 08:04:26 1.7 C 91 % 0.39 C
3595 07-03-2003 08:14:26 2.1 C 89 % 0.48 C
3596 07-03-2003 08:24:26 2.3 C 89 % 0.68 C
3597 07-03-2003 08:34:26 2.1 C 88 % 0.33 C
3598 07-03-2003 08:44:26 2 C 88 % 0.23 C
3599 07-03-2003 08:54:26 2.3 C 88 % 0.52 C
3600 07-03-2003 09:04:26 2.5 C 87 % 0.56 C
Sensor: Nr:Datum:Temp:Feuchte:Taupunkt:
Aussen-T/F 3601 07-03-2003 09:14:26 2.7 C 86 % 0.6 C
3602 07-03-2003 09:24:26 2.9 C 85 % 0.63 C
3603 07-03-2003 09:34:26 3.3 C 84 % 0.86 C
3604 07-03-2003 09:44:26 3.5 C 83 % 0.89 C
3605 07-03-2003 09:54:26 3.5 C 82 % 0.72 C
3606 07-03-2003 10:04:26 3.6 C 81 % 0.65 C
3607 07-03-2003 10:14:26 3.7 C 81 % 0.75 C
3608 07-03-2003 10:24:26 4.4 C 79 % 1.09 C
3609 07-03-2003 10:34:26 4.9 C 78 % 1.39 C
3610 07-03-2003 10:44:26 5.5 C 76 % 1.62 C
3611 07-03-2003 10:54:26 5.8 C 74 % 1.53 C
3612 07-03-2003 11:04:26 5.8 C 75 % 1.72 C
3613 07-03-2003 11:14:26 5.8 C 74 % 1.53 C
3614 07-03-2003 11:24:26 6.2 C 73 % 1.73 C
3615 07-03-2003 11:34:26 6.6 C 73 % 2.12 C
3616 07-03-2003 11:44:26 6.4 C 72 % 1.73 C
3617 07-03-2003 11:54:26 6.3 C 73 % 1.83 C
3618 07-03-2003 12:04:26 6.9 C 76 % 2.97 C
3619 07-03-2003 12:14:26 7.7 C 73 % 3.18 C
3620 07-03-2003 12:24:26 8.3 C 72 % 3.56 C
3621 07-03-2003 12:34:26 8.9 C 69 % 3.53 C
3622 07-03-2003 12:44:26 8.9 C 67 % 3.12 C
3623 07-03-2003 12:54:26 9.3 C 64 % 2.85 C
3624 07-03-2003 13:04:26 9.4 C 64 % 2.95 C
3625 07-03-2003 13:14:26 9.7 C 62 % 2.78 C
Sensor: Nr:Datum:Temp:Feuchte:Taupunkt:
Aussen-T/F 3626 07-03-2003 13:24:26 10.1 C 58 % 2.22 C
3627 07-03-2003 13:34:26 10.7 C 58 % 2.79 C
3628 07-03-2003 13:44:26 10.8 C 56 % 2.39 C
3629 07-03-2003 13:54:26 11.6 C 53 % 2.36 C
3630 07-03-2003 14:04:26 11.3 C 53 % 2.08 C
3631 07-03-2003 14:14:26 12 C 51 % 2.19 C
3632 07-03-2003 14:24:26 12.2 C 51 % 2.37 C
3633 07-03-2003 14:34:26 12.1 C 49 % 1.72 C
3634 07-03-2003 14:44:26 11.8 C 49 % 1.45 C
3635 07-03-2003 14:54:26 12 C 49 % 1.63 C
3636 07-03-2003 15:04:26 12 C 46 % 0.75 C
3637 07-03-2003 15:14:26 11.7 C 47 % 0.78 C
3638 07-03-2003 15:24:26 11.9 C 48 % 1.25 C
3639 07-03-2003 15:34:26 11.9 C 46 % 0.66 C
3640 07-03-2003 15:44:26 11.7 C 45 % 0.18 C
3641 07-03-2003 15:54:26 11.2 C 46 % 0.02 C
3642 07-03-2003 16:34:08 11 C 48 % 0.43 C
3643 07-03-2003 16:44:08 11 C 48 % 0.43 C
3644 07-03-2003 16:54:08 11 C 48 % 0.43 C
3645 07-03-2003 17:04:08 10.6 C 50 % 0.62 C
3646 07-03-2003 17:14:13 10.4 C 51 % 0.71 C
3647 07-03-2003 17:24:13 10.4 C 51 % 0.71 C
3648 07-03-2003 17:34:14 9.7 C 52 % 0.33 C
3649 07-03-2003 17:44:14 9.6 C 51 % -0.03 C
3650 07-03-2003 17:54:14 9.1 C 53 % 0.04 C
Sensor: Nr:Datum:Temp:Feuchte:Taupunkt:
Aussen-T/F 3651 07-03-2003 18:04:13 8.6 C 61 % 1.52 C
3652 07-03-2003 18:14:13 8.3 C 61 % 1.23 C
3653 07-03-2003 18:24:13 8 C 62 % 1.18 C
3654 07-03-2003 18:34:13 7.7 C 65 % 1.55 C
3655 07-03-2003 18:44:13 7.4 C 64 % 1.05 C
3656 07-03-2003 18:54:13 7.4 C 62 % 0.61 C
3657 07-03-2003 19:04:15 7.2 C 62 % 0.42 C
3658 07-03-2003 19:14:15 7.3 C 63 % 0.74 C
3659 07-03-2003 19:24:15 7.4 C 62 % 0.61 C
3660 07-03-2003 19:34:15 7.6 C 62 % 0.8 C
3661 07-03-2003 19:44:15 7.3 C 63 % 0.74 C
3662 07-03-2003 19:54:15 7.3 C 64 % 0.95 C
3663 07-03-2003 20:04:14 7.5 C 63 % 0.92 C
3664 07-03-2003 20:14:14 7.5 C 63 % 0.92 C
3665 07-03-2003 20:24:14 7.5 C 63 % 0.92 C
3666 07-03-2003 20:34:14 7.5 C 63 % 0.92 C
3667 07-03-2003 20:44:14 6.5 C 68 % 1.03 C
3668 07-03-2003 20:54:14 6.5 C 68 % 1.03 C
3669 07-03-2003 21:05:12 5.7 C 71 % 0.86 C
3670 07-03-2003 21:15:12 5.2 C 71 % 0.38 C
3671 07-03-2003 21:25:12 5.1 C 71 % 0.29 C
3672 07-03-2003 21:35:12 4.7 C 72 % 0.09 C
3673 07-03-2003 21:45:12 4.6 C 72 % 0 C
3674 07-03-2003 21:55:12 4.4 C 73 % 0 C
3675 07-03-2003 22:05:12 4.3 C 73 % -0.1 C
Sensor: Nr:Datum:Temp:Feuchte:Taupunkt:
Aussen-T/F 3676 07-03-2003 22:15:12 4.3 C 72 % -0.29 C
3677 07-03-2003 22:25:12 3.8 C 74 % -0.4 C
3678 07-03-2003 22:35:12 3.7 C 75 % -0.31 C
3679 07-03-2003 22:45:12 3.8 C 74 % -0.4 C
3680 07-03-2003 22:55:12 3.7 C 74 % -0.49 C
3681 07-03-2003 23:05:12 3.6 C 74 % -0.59 C
3682 07-03-2003 23:15:12 4.1 C 73 % -0.29 C
3683 07-03-2003 23:25:12 3.8 C 74 % -0.4 C
3684 07-03-2003 23:35:12 3.5 C 74 % -0.69 C
3685 07-03-2003 23:45:12 3.5 C 75 % -0.5 C
3686 07-03-2003 23:55:12 3.5 C 75 % -0.5 C
3687 08-03-2003 00:05:12 3.5 C 74 % -0.69 C
3688 08-03-2003 00:15:12 3.3 C 75 % -0.7 C
3689 08-03-2003 00:25:12 3.1 C 76 % -0.71 C
3690 08-03-2003 00:35:12 3.4 C 77 % -0.24 C
3691 08-03-2003 00:45:12 3.9 C 76 % 0.07 C
3692 08-03-2003 00:55:12 5.4 C 67 % -0.22 C
3693 08-03-2003 01:05:12 5.4 C 66 % -0.43 C
3694 08-03-2003 01:15:12 5.1 C 66 % -0.71 C
3695 08-03-2003 01:25:12 4.8 C 68 % -0.59 C
3696 08-03-2003 01:35:12 5 C 66 % -0.81 C
3697 08-03-2003 01:45:12 5 C 66 % -0.81 C
3698 08-03-2003 01:55:12 5.1 C 66 % -0.71 C
3699 08-03-2003 02:05:12 4.9 C 68 % -0.5 C
3700 08-03-2003 02:15:12 4.7 C 69 % -0.49 C
Sensor: Nr:Datum:Temp:Feuchte:Taupunkt:
Aussen-T/F 3701 08-03-2003 02:25:12 4.8 C 69 % -0.39 C
3702 08-03-2003 02:35:12 4.9 C 68 % -0.5 C
3703 08-03-2003 02:45:12 4.6 C 69 % -0.58 C
3704 08-03-2003 02:55:12 4.6 C 69 % -0.58 C
3705 08-03-2003 03:05:12 4.3 C 71 % -0.48 C
3706 08-03-2003 03:15:12 4.1 C 72 % -0.48 C
3707 08-03-2003 03:25:12 4.4 C 71 % -0.39 C
3708 08-03-2003 03:35:12 4.4 C 71 % -0.39 C
3709 08-03-2003 03:45:12 4.2 C 72 % -0.39 C
3710 08-03-2003 03:55:12 4.5 C 71 % -0.29 C
3711 08-03-2003 04:05:12 5.1 C 68 % -0.31 C
3712 08-03-2003 04:15:12 5.5 C 66 % -0.33 C
3713 08-03-2003 04:25:12 5.3 C 66 % -0.52 C
3714 08-03-2003 04:35:12 5.2 C 68 % -0.21 C
3715 08-03-2003 04:45:12 5.2 C 68 % -0.21 C
3716 08-03-2003 04:55:12 5.3 C 68 % -0.12 C
3717 08-03-2003 05:05:12 4.9 C 70 % -0.1 C
3718 08-03-2003 05:15:12 5.2 C 70 % 0.19 C
3719 08-03-2003 05:25:12 5.3 C 69 % 0.09 C
3720 08-03-2003 05:35:12 5.1 C 69 % -0.11 C
3721 08-03-2003 05:45:12 5 C 70 % 0 C
3722 08-03-2003 05:55:12 5.1 C 70 % 0.09 C
3723 08-03-2003 06:05:12 5.2 C 69 % -0.01 C
3724 08-03-2003 06:15:12 5.4 C 69 % 0.18 C
3725 08-03-2003 06:25:12 5.1 C 69 % -0.11 C
Sensor: Nr:Datum:Temp:Feuchte:Taupunkt:
Aussen-T/F 3726 08-03-2003 06:35:12 4.9 C 71 % 0.09 C
3727 08-03-2003 06:45:12 4.5 C 72 % -0.1 C
3728 08-03-2003 06:55:12 4.4 C 73 % 0 C
3729 08-03-2003 07:05:12 4.3 C 73 % -0.1 C
3730 08-03-2003 07:15:12 4.3 C 74 % 0.09 C
3731 08-03-2003 07:25:12 4.3 C 74 % 0.09 C
3732 08-03-2003 07:35:12 4.4 C 74 % 0.18 C
3733 08-03-2003 07:45:12 4.8 C 72 % 0.19 C
3734 08-03-2003 07:55:12 5.1 C 70 % 0.09 C
3735 08-03-2003 08:05:12 5.2 C 70 % 0.19 C
3736 08-03-2003 08:15:12 5.2 C 70 % 0.19 C
3737 08-03-2003 08:25:12 5.3 C 70 % 0.28 C
3738 08-03-2003 08:35:12 5.6 C 70 % 0.57 C
3739 08-03-2003 08:45:12 5.8 C 69 % 0.56 C
3740 08-03-2003 08:55:12 6.1 C 68 % 0.65 C
3741 08-03-2003 09:05:12 6.4 C 67 % 0.73 C
3742 08-03-2003 09:15:12 6.6 C 66 % 0.71 C
3743 08-03-2003 09:25:12 6.7 C 65 % 0.6 C
3744 08-03-2003 09:35:12 6.8 C 64 % 0.48 C
3745 08-03-2003 09:45:12 6.9 C 64 % 0.57 C
3746 08-03-2003 09:55:12 7 C 63 % 0.45 C
3747 08-03-2003 10:05:12 7.2 C 63 % 0.64 C
3748 08-03-2003 10:15:12 7.4 C 62 % 0.61 C
3749 08-03-2003 10:25:12 7.8 C 61 % 0.76 C
3750 08-03-2003 10:35:12 8.1 C 59 % 0.58 C
Sensor: Nr:Datum:Temp:Feuchte:Taupunkt:
Aussen-T/F 3751 08-03-2003 10:45:12 8 C 59 % 0.49 C
3752 08-03-2003 10:55:12 8 C 58 % 0.25 C
3753 08-03-2003 11:05:13 8.3 C 58 % 0.54 C
3754 08-03-2003 11:15:13 8.3 C 58 % 0.54 C
3755 08-03-2003 11:25:13 8.3 C 58 % 0.54 C
3756 08-03-2003 11:35:13 8.3 C 58 % 0.54 C
3757 08-03-2003 11:45:13 8.3 C 58 % 0.54 C
3758 08-03-2003 11:55:13 8.3 C 58 % 0.54 C
3759 08-03-2003 12:05:58 8.3 C 58 % 0.54 C
3760 08-03-2003 12:15:06 8.3 C 58 % 0.54 C
3761 08-03-2003 12:25:13 8.3 C 58 % 0.54 C
3762 08-03-2003 12:35:13 8.3 C 58 % 0.54 C
3763 08-03-2003 12:45:13 8.3 C 58 % 0.54 C
3764 08-03-2003 12:55:13 10.1 C 48 % -0.4 C
3765 08-03-2003 13:05:23 10.1 C 48 % -0.4 C
3766 08-03-2003 13:15:23 10.4 C 47 % -0.41 C
3767 08-03-2003 13:25:13 10.4 C 47 % -0.41 C
3768 08-03-2003 13:35:13 10.4 C 47 % -0.41 C
3769 08-03-2003 13:45:13 10.4 C 47 % -0.41 C
3770 08-03-2003 13:55:13 10.4 C 47 % -0.41 C
3771 08-03-2003 14:05:12 11.8 C 45 % 0.27 C
3772 08-03-2003 14:15:12 11.8 C 44 % -0.04 C
3773 08-03-2003 14:25:12 12.2 C 42 % -0.32 C
3774 08-03-2003 14:35:12 11.7 C 42 % -0.77 C
3775 08-03-2003 14:45:12 12.1 C 42 % -0.41 C
Sensor: Nr:Datum:Temp:Feuchte:Taupunkt:
Aussen-T/F 3776 08-03-2003 14:55:12 12.4 C 42 % -0.14 C
3777 08-03-2003 15:05:12 11.7 C 43 % -0.45 C
3778 08-03-2003 15:25:12 11.5 C 44 % -0.31 C
3779 08-03-2003 15:35:12 11.5 C 43 % -0.63 C
3780 08-03-2003 15:45:12 11.5 C 43 % -0.63 C
3781 08-03-2003 15:55:12 11.5 C 43 % -0.63 C
3782 08-03-2003 16:05:11 11.3 C 42 % -1.13 C
3783 08-03-2003 16:15:11 11.4 C 43 % -0.72 C
3784 08-03-2003 16:25:11 11.4 C 42 % -1.04 C
3785 08-03-2003 16:35:11 11.5 C 42 % -0.95 C
3786 08-03-2003 16:45:11 11.5 C 42 % -0.95 C
3787 08-03-2003 16:55:11 11.5 C 42 % -0.95 C
3788 08-03-2003 17:05:12 11.5 C 42 % -0.95 C
3789 08-03-2003 17:15:12 10.8 C 44 % -0.95 C
3790 08-03-2003 17:25:12 10.8 C 44 % -0.95 C
3791 08-03-2003 17:35:12 10.8 C 44 % -0.95 C
3792 08-03-2003 17:45:12 10.8 C 44 % -0.95 C
3793 08-03-2003 17:55:12 10.8 C 44 % -0.95 C
3794 08-03-2003 18:40:12 9.9 C 48 % -0.58 C
3795 08-03-2003 18:52:12 9.8 C 49 % -0.39 C
3796 08-03-2003 19:04:13 9.6 C 50 % -0.3 C
3797 08-03-2003 19:16:13 9.2 C 50 % -0.67 C
3798 08-03-2003 19:28:13 9.1 C 51 % -0.49 C
3799 08-03-2003 19:40:13 8.9 C 53 % -0.15 C
3800 08-03-2003 19:52:13 8.9 C 54 % 0.11 C
Sensor: Nr:Datum:Temp:Feuchte:Taupunkt:
Aussen-T/F 3801 08-03-2003 20:04:13 9 C 54 % 0.2 C
3802 08-03-2003 20:16:13 8.6 C 56 % 0.33 C
3803 08-03-2003 20:28:13 9 C 54 % 0.2 C
3804 08-03-2003 20:40:13 9 C 54 % 0.2 C
3805 08-03-2003 20:52:13 9 C 54 % 0.2 C
3806 08-03-2003 21:04:12 9 C 54 % 0.2 C
3807 08-03-2003 21:16:12 9 C 54 % 0.2 C
3808 08-03-2003 21:40:12 8.8 C 56 % 0.52 C
3809 08-03-2003 21:52:12 8.4 C 57 % 0.39 C
3810 08-03-2003 22:05:13 8.4 C 57 % 0.39 C
3811 08-03-2003 22:17:13 8.7 C 56 % 0.43 C
3812 08-03-2003 22:29:13 8.8 C 56 % 0.52 C
3813 08-03-2003 22:41:13 8.9 C 56 % 0.61 C
3814 08-03-2003 22:53:13 8.8 C 56 % 0.52 C
3815 08-03-2003 23:05:13 8.8 C 56 % 0.52 C
3816 08-03-2003 23:17:13 9 C 56 % 0.71 C
3817 08-03-2003 23:29:13 9 C 56 % 0.71 C
3818 08-03-2003 23:41:13 9 C 55 % 0.46 C
3819 08-03-2003 23:53:13 9 C 55 % 0.46 C
3820 09-03-2003 00:05:13 9 C 55 % 0.46 C
3821 09-03-2003 00:17:13 9 C 55 % 0.46 C
3822 09-03-2003 00:29:13 9 C 55 % 0.46 C
3823 09-03-2003 00:41:13 9 C 55 % 0.46 C
3824 09-03-2003 00:53:13 9 C 56 % 0.71 C
3825 09-03-2003 01:05:13 8.2 C 63 % 1.59 C
Sensor: Nr:Datum:Temp:Feuchte:Taupunkt:
Aussen-T/F 3826 09-03-2003 01:17:13 8 C 63 % 1.4 C
3827 09-03-2003 01:29:13 8.4 C 61 % 1.33 C
3828 09-03-2003 01:41:13 8.5 C 60 % 1.19 C
3829 09-03-2003 01:53:13 8.6 C 60 % 1.29 C
3830 09-03-2003 02:05:13 8.4 C 61 % 1.33 C
3831 09-03-2003 02:17:13 8 C 65 % 1.83 C
3832 09-03-2003 02:29:13 7.4 C 71 % 2.5 C
3833 09-03-2003 02:41:13 7.4 C 70 % 2.3 C
3834 09-03-2003 02:53:13 7.5 C 68 % 1.99 C
3835 09-03-2003 03:05:13 7.7 C 67 % 1.97 C
3836 09-03-2003 03:17:13 8 C 64 % 1.62 C
3837 09-03-2003 03:29:13 8.1 C 63 % 1.49 C
3838 09-03-2003 03:41:13 8 C 63 % 1.4 C
3839 09-03-2003 03:53:13 8.2 C 62 % 1.37 C
3840 09-03-2003 04:05:13 8.1 C 62 % 1.27 C
3841 09-03-2003 04:17:13 8 C 62 % 1.18 C
3842 09-03-2003 04:29:13 7.9 C 63 % 1.3 C
3843 09-03-2003 04:41:13 8 C 62 % 1.18 C
3844 09-03-2003 04:53:13 7.8 C 63 % 1.21 C
3845 09-03-2003 05:05:13 7.8 C 63 % 1.21 C
3846 09-03-2003 05:17:13 7.5 C 65 % 1.36 C
3847 09-03-2003 05:29:13 7.3 C 66 % 1.38 C
3848 09-03-2003 05:41:13 7.4 C 65 % 1.26 C
3849 09-03-2003 05:53:13 7 C 67 % 1.3 C
3850 09-03-2003 06:05:13 6.7 C 70 % 1.63 C
Sensor: Nr:Datum:Temp:Feuchte:Taupunkt:
Aussen-T/F 3851 09-03-2003 06:17:13 6.8 C 70 % 1.72 C
3852 09-03-2003 06:29:13 6.9 C 70 % 1.82 C
3853 09-03-2003 06:41:13 7 C 69 % 1.71 C
3854 09-03-2003 06:53:13 7 C 68 % 1.51 C
3855 09-03-2003 07:05:13 7 C 69 % 1.71 C
3856 09-03-2003 07:17:13 7 C 68 % 1.51 C
3857 09-03-2003 07:29:13 7 C 68 % 1.51 C
3858 09-03-2003 07:41:13 7.1 C 67 % 1.4 C
3859 09-03-2003 07:53:13 7.3 C 67 % 1.59 C
3860 09-03-2003 08:05:13 7.4 C 66 % 1.48 C
3861 09-03-2003 08:17:13 7.7 C 65 % 1.55 C
3862 09-03-2003 08:29:13 7.9 C 64 % 1.52 C
3863 09-03-2003 08:41:13 8.1 C 62 % 1.27 C
3864 09-03-2003 08:53:13 8.3 C 61 % 1.23 C
3865 09-03-2003 09:05:13 8.5 C 61 % 1.42 C
3866 09-03-2003 09:17:13 8.5 C 61 % 1.42 C
3867 09-03-2003 09:29:13 8.6 C 61 % 1.52 C
3868 09-03-2003 09:41:13 8.7 C 60 % 1.38 C
3869 09-03-2003 09:53:13 9 C 59 % 1.43 C
3870 09-03-2003 10:05:13 9.1 C 59 % 1.52 C
3871 09-03-2003 10:17:13 9.4 C 59 % 1.81 C
3872 09-03-2003 10:29:13 9.5 C 58 % 1.66 C
3873 09-03-2003 10:41:13 9.5 C 58 % 1.66 C
3874 09-03-2003 10:53:13 9.5 C 58 % 1.66 C
3875 09-03-2003 11:05:12 9.5 C 58 % 1.66 C
Sensor: Nr:Datum:Temp:Feuchte:Taupunkt:
Aussen-T/F 3876 09-03-2003 11:17:12 9.5 C 58 % 1.66 C
3877 09-03-2003 11:29:12 9.5 C 58 % 1.66 C
3878 09-03-2003 11:41:12 9.5 C 58 % 1.66 C
3879 09-03-2003 11:53:12 9.5 C 58 % 1.66 C
3880 09-03-2003 12:05:12 9.5 C 58 % 1.66 C
3881 09-03-2003 12:17:12 9.5 C 58 % 1.66 C
3882 09-03-2003 12:29:12 9.5 C 58 % 1.66 C
3883 09-03-2003 12:41:12 9.5 C 58 % 1.66 C
3884 09-03-2003 12:53:12 9.5 C 58 % 1.66 C
3885 09-03-2003 13:05:12 9.5 C 58 % 1.66 C
3886 09-03-2003 13:17:12 9.5 C 58 % 1.66 C
3887 09-03-2003 13:29:12 9.5 C 58 % 1.66 C
3888 09-03-2003 13:41:12 9.5 C 58 % 1.66 C
3889 09-03-2003 13:53:12 9.5 C 58 % 1.66 C
3890 09-03-2003 14:05:12 9.5 C 58 % 1.66 C
3891 09-03-2003 14:17:12 9.5 C 58 % 1.66 C
3892 09-03-2003 14:29:12 9.5 C 58 % 1.66 C
3893 09-03-2003 14:41:12 15.5 C 38 % 1.26 C
3894 09-03-2003 14:53:12 16.1 C 36 % 1.04 C
3895 09-03-2003 15:05:13 15.8 C 36 % 0.78 C
3896